Data for 08/30/2011

Time Sea-Level Adjusted Pressure Absolute Pressure Temperature Relative Humidity Dew Point Precipitation   
(mb) (inHg) (mb) (inHg) (C) (F) (%) (C) (F) (mm) (in)
00:01 1018 30.06 847 25.01 11.9 53.3 75 7.6 45.7 -86.5 -3.406
00:02 1018 30.06 847 25.01 11.9 53.4 76 7.7 45.9 -86.5 -3.406
00:03 1018 30.06 847 25.01 11.8 53.2 75 7.6 45.7 -86.5 -3.406
00:04 1018 30.06 847 25.01 11.9 53.4 74 7.5 45.6 -86.5 -3.406
00:05 1018 30.06 847 25.01 12 53.6 74 7.5 45.4 -86.5 -3.406
00:06 1018 30.06 847 25.01 12.1 53.9 73 7.5 45.5 -86.6 -3.409
00:07 1018 30.06 847 25.01 12.2 54 73 7.5 45.5 -86.6 -3.409
00:08 1018 30.06 847 25.01 12.2 53.9 73 7.6 45.7 -86.6 -3.409
00:09 1018 30.06 847 25.01 12.1 53.8 74 7.6 45.7 -86.6 -3.409
00:10 1018 30.06 847 25.01 12 53.7 74 7.6 45.7 -86.6 -3.409
00:11 1018 30.06 847 25.01 12 53.5 75 7.6 45.7 -86.6 -3.409
00:12 1018 30.06 847 25.01 11.9 53.5 74 7.6 45.6 -86.6 -3.409
00:13 1018 30.06 847 25.01 11.9 53.4 75 7.6 45.7 -86.6 -3.409
00:14 1018 30.06 847 25.01 11.9 53.3 75 7.6 45.6 -86.6 -3.409
00:15 1018 30.06 847 25.01 11.8 53.2 75 7.6 45.7 -86.6 -3.409
00:16 1018 30.06 847 25.01 11.6 52.9 76 7.6 45.7 -86.6 -3.409
00:17 1018 30.06 847 25.01 11.4 52.6 77 7.6 45.6 -86.6 -3.409
00:18 1018 30.06 847 25.01 11.3 52.3 78 7.5 45.6 -86.6 -3.409
00:19 1018 30.06 847 25.01 11.1 52 78 7.5 45.5 -86.6 -3.409
00:20 1018 30.06 847 25.01 11 51.7 79 7.4 45.4 -86.6 -3.409
00:21 1018 30.06 847 25.01 10.9 51.7 79 7.5 45.4 -86.6 -3.409
00:22 1018 30.06 847 25.01 10.8 51.4 80 7.4 45.4 -86.6 -3.409
00:23 1018 30.06 847 25.01 10.8 51.4 80 7.4 45.3 -86.6 -3.409
00:24 1018 30.06 847 25.01 10.7 51.3 80 7.4 45.3 -86.6 -3.409
00:25 1018 30.06 847 25.01 10.7 51.2 80 7.4 45.3 -86.6 -3.409
00:26 1018 30.06 847 25.01 10.6 51.1 80 7.4 45.2 -86.6 -3.409
00:27 1018 30.06 847 25.01 10.6 51.1 80 7.3 45.1 -86.6 -3.409
00:28 1018 30.06 847 25.01 10.6 51.1 80 7.3 45.2 -86.6 -3.409
00:29 1018 30.06 847 25.01 10.6 51 80 7.3 45.1 -86.6 -3.409
00:30 1018 30.06 847 25.01 10.5 51 80 7.3 45.1 -86.6 -3.409
00:31 1018 30.06 847 25.01 10.4 50.7 81 7.3 45.1 -86.6 -3.409
00:32 1018 30.06 847 25.01 10.4 50.6 81 7.3 45.1 -86.6 -3.409
00:33 1018 30.06 847 25.01 10.3 50.6 81 7.2 45 -86.6 -3.409
00:34 1018 30.06 847 25.01 10.3 50.5 81 7.2 45 -86.6 -3.409
00:35 1018 30.06 847 25.01 10.2 50.4 81 7.1 44.9 -86.6 -3.409
00:36 1018 30.06 847 25.01 10.1 50.2 82 7.1 44.8 -86.6 -3.409
00:37 1018 30.06 847 25.01 10.1 50.1 82 7.1 44.8 -86.6 -3.409
00:38 1018 30.06 847 25.01 9.9 49.8 82 7 44.7 -86.6 -3.409
00:39 1018 30.06 847 25.01 9.8 49.6 83 7 44.6 -86.6 -3.409
00:40 1018 30.06 847 25.01 9.7 49.5 83 6.9 44.5 -86.6 -3.409
00:41 1018 30.06 847 25.01 9.7 49.4 83 6.9 44.5 -86.6 -3.409
00:42 1018 30.06 847 25.01 9.6 49.2 83 6.8 44.3 -86.6 -3.409
00:43 1018 30.06 847 25.01 9.4 49 84 6.9 44.4 -86.6 -3.409
00:44 1018 30.06 847 25.01 9.5 49 85 7.1 44.7 -86.6 -3.409
00:45 1018 30.06 847 25.01 9.5 49.2 84 7 44.6 -86.6 -3.409
00:46 1018 30.06 847 25.01 9.6 49.2 83 6.9 44.4 -86.6 -3.409
00:47 1018 30.06 847 25.01 9.5 49.1 84 6.9 44.4 -86.6 -3.409
00:48 1018 30.06 847 25.01 9.5 49.1 84 6.9 44.5 -86.6 -3.409
00:49 1018 30.06 847 25.01 9.6 49.3 84 7 44.5 -86.6 -3.409
00:50 1018 30.06 847 25.01 9.6 49.3 84 7.1 44.7 -86.6 -3.409
00:51 1018 30.06 847 25.01 9.7 49.5 84 7.2 45 -86.6 -3.409
00:52 1018 30.06 847 25.01 9.8 49.7 84 7.3 45.1 -86.6 -3.409
00:53 1018 30.06 847 25.01 9.8 49.7 84 7.3 45.1 -86.5 -3.406
00:54 1018 30.06 847 25.01 9.8 49.7 83 7.1 44.8 -86.5 -3.406
00:55 1018 30.06 847 25.01 9.8 49.6 83 7 44.6 -86.5 -3.406
00:56 1018 30.06 847 25.01 9.7 49.4 83 6.9 44.5 -86.5 -3.406
00:57 1018 30.06 847 25.01 9.6 49.2 83 6.8 44.2 -86.5 -3.406
00:58 1018 30.06 847 25.01 9.4 48.9 83 6.7 44.1 -86.6 -3.409
00:59 1018 30.06 847 25.01 9.3 48.7 84 6.7 44 -86.6 -3.409
01:00 1018 30.06 847 25.01 9.2 48.5 84 6.6 43.9 -86.6 -3.409
01:01 1018 30.06 847 25.01 9.1 48.4 84 6.5 43.7 -86.6 -3.409
01:02 1018 30.06 847 25.01 9.1 48.4 84 6.5 43.7 -86.6 -3.409
01:03 1018 30.06 847 25.01 9.1 48.3 84 6.5 43.6 -86.6 -3.409
01:04 1018 30.06 847 25.01 9 48.2 84 6.4 43.5 -86.6 -3.409
01:05 1018 30.06 847 25.01 8.9 48.1 85 6.5 43.7 -86.6 -3.409
01:06 1018 30.06 847 25.01 8.8 47.8 86 6.5 43.7 -86.6 -3.409
01:07 1018 30.06 847 25.01 8.8 47.8 86 6.5 43.8 -86.5 -3.406
01:08 1018 30.06 847 25.01 8.8 47.8 86 6.6 43.8 -86.5 -3.406
01:09 1018 30.06 847 25.01 8.8 47.8 86 6.7 44 -86.5 -3.406
01:10 1018 30.06 847 25.01 8.9 47.9 87 6.8 44.2 -86.4 -3.402
01:11 1018 30.06 847 25.01 8.9 48 87 6.8 44.3 -86.4 -3.402
01:12 1018 30.06 847 25.01 9 48.2 87 6.9 44.5 -86.4 -3.402
01:13 1018 30.06 847 25.01 9.1 48.4 87 7 44.6 -86.4 -3.402
01:14 1018 30.06 847 25.01 9.2 48.6 86 7 44.7 -86.3 -3.398
01:15 1018 30.06 847 25.01 9.4 48.9 86 7.1 44.8 -86.3 -3.398
01:16 1018 30.06 847 25.01 9.4 49 85 7.1 44.7 -86.3 -3.398
01:17 1018 30.06 847 25.01 9.5 49.1 85 7.1 44.8 -86.3 -3.398
01:18 1018 30.06 847 25.01 9.6 49.3 85 7.2 44.9 -86.3 -3.398
01:19 1018 30.06 847 25.01 9.8 49.6 84 7.2 45 -86.4 -3.402
01:20 1018 30.06 847 25.01 9.9 49.8 83 7.2 45 -86.4 -3.402
01:21 1018 30.06 847 25.01 10 50 83 7.2 45 -86.4 -3.402
01:22 1018 30.06 847 25.01 10.1 50.1 82 7.2 45 -86.4 -3.402
01:23 1018 30.06 847 25.01 10.1 50.2 82 7.2 44.9 -86.4 -3.402
01:24 1018 30.06 847 25.01 10.2 50.4 81 7.2 44.9 -86.5 -3.406
01:25 1018 30.06 847 25.01 10.3 50.5 81 7.1 44.9 -86.5 -3.406
01:26 1018 30.06 847 25.01 10.3 50.5 81 7.1 44.8 -86.6 -3.409
01:27 1018 30.06 847 25.01 10.3 50.5 80 7.1 44.7 -86.6 -3.409
01:28 1018 30.06 847 25.01 10.4 50.6 80 7.1 44.8 -86.6 -3.409
01:29 1018 30.06 847 25.01 10.4 50.6 80 7.1 44.8 -86.6 -3.409
01:30 1018 30.06 847 25.01 10.4 50.6 80 7.1 44.8 -86.6 -3.409
01:31 1018 30.06 847 25.01 10.3 50.5 80 7.1 44.7 -86.6 -3.409
01:32 1018 30.06 847 25.01 10.3 50.5 80 7.1 44.8 -86.7 -3.413
01:33 1018 30.06 847 25.01 10.3 50.6 80 7.1 44.8 -86.7 -3.413
01:34 1018 30.06 847 25.01 10.3 50.6 80 7.1 44.7 -86.7 -3.413
01:35 1018 30.06 847 25.01 10.3 50.5 80 7 44.6 -86.7 -3.413
01:36 1018 30.06 847 25.01 10.2 50.4 80 7 44.7 -86.8 -3.417
01:37 1018 30.06 847 25.01 10.2 50.4 80 7 44.6 -86.8 -3.417
01:38 1018 30.06 847 25.01 10.2 50.4 80 7 44.6 -86.8 -3.417
01:39 1018 30.06 847 25.01 10.2 50.3 80 7 44.6 -86.8 -3.417
01:40 1018 30.06 847 25.01 10.2 50.3 81 7 44.6 -86.8 -3.417
01:41 1018 30.06 847 25.01 10.2 50.3 81 7 44.6 -86.8 -3.417
01:42 1018 30.06 847 25.01 10.2 50.4 80 6.9 44.5 -86.8 -3.417
01:43 1018 30.06 847 25.01 10.2 50.3 79 6.8 44.3 -86.8 -3.417
01:44 1018 30.06 847 25.01 10.1 50.2 80 6.9 44.4 -86.9 -3.421
01:45 1018 30.06 847 25.01 10.2 50.3 80 6.9 44.3 -86.9 -3.421
01:46 1018 30.06 847 25.01 10.2 50.3 80 6.9 44.4 -86.9 -3.421
01:47 1018 30.06 847 25.01 10.2 50.4 80 6.9 44.4 -86.9 -3.421
01:48 1018 30.06 847 25.01 10.3 50.5 79 6.9 44.3 -87 -3.425
01:49 1018 30.06 847 25.01 10.3 50.5 79 6.8 44.3 -87 -3.425
01:50 1018 30.06 847 25.01 10.3 50.5 79 6.8 44.2 -87 -3.425
01:51 1018 30.06 847 25.01 10.2 50.3 80 6.8 44.3 -87 -3.425
01:52 1018 30.06 847 25.01 10.2 50.4 79 6.8 44.3 -87 -3.425
01:53 1018 30.06 847 25.01 10.3 50.6 79 6.9 44.4 -87 -3.425
01:54 1018 30.06 847 25.01 10.4 50.7 79 6.9 44.4 -87 -3.425
01:55 1018 30.06 847 25.01 10.4 50.7 79 6.9 44.3 -87 -3.425
01:56 1018 30.06 847 25.01 10.5 50.8 78 6.8 44.3 -87 -3.425
01:57 1018 30.06 847 25.01 10.4 50.7 78 6.8 44.3 -87 -3.425
01:58 1018 30.06 847 25.01 10.4 50.7 79 6.8 44.3 -87.1 -3.429
01:59 1018 30.06 847 25.01 10.4 50.8 78 6.8 44.2 -87.1 -3.429
02:00 1018 30.06 847 25.01 10.4 50.7 78 6.7 44.1 -87.1 -3.429
02:01 1018 30.06 847 25.01 10.4 50.7 77 6.6 43.9 -87.1 -3.429
02:02 1018 30.06 847 25.01 10.3 50.5 77 6.4 43.6 -87.1 -3.429
02:03 1018 30.06 847 25.01 10.1 50.1 78 6.5 43.7 -87.1 -3.429
02:04 1018 30.06 847 25.01 9.9 49.7 78 6.3 43.4 -87.1 -3.429
02:05 1018 30.06 847 25.01 9.6 49.4 80 6.5 43.6 -87.1 -3.429
02:06 1018 30.06 847 25.01 9.4 49 79 5.9 42.7 -87.1 -3.429
02:07 1018 30.06 847 25.01 9.1 48.4 80 5.8 42.4 -87.2 -3.433
02:08 1018 30.06 847 25.01 8.8 47.8 81 5.7 42.2 -87.2 -3.433
02:09 1018 30.06 847 25.01 8.5 47.2 84 6 42.7 -87.2 -3.433
02:10 1018 30.06 847 25.01 8.3 46.9 86 6.1 43 -87.2 -3.433
02:11 1018 30.06 847 25.01 8.3 46.9 87 6.2 43.2 -87.2 -3.433
02:12 1018 30.06 847 25.01 8.4 47 87 6.2 43.2 -87.1 -3.429
02:13 1018 30.06 847 25.01 8.3 47 87 6.4 43.5 -87.1 -3.429
02:14 1018 30.06 847 25.01 8.5 47.2 87 6.4 43.6 -87.1 -3.429
02:15 1018 30.06 847 25.01 8.6 47.4 85 6.2 43.2 -87 -3.425
02:16 1018 30.06 847 25.01 8.6 47.4 85 6.2 43.2 -87 -3.425
02:17 1018 30.06 847 25.01 8.6 47.4 84 6 42.9 -87 -3.425
02:18 1018 30.06 847 25.01 8.6 47.5 86 6.4 43.5 -87 -3.425
02:19 1018 30.06 847 25.01 8.7 47.7 83 6 42.8 -86.9 -3.421
02:20 1018 30.06 847 25.01 8.6 47.6 83 6 42.7 -87 -3.425
02:21 1018 30.06 847 25.01 8.6 47.6 83 5.8 42.5 -87 -3.425
02:22 1018 30.06 847 25.01 8.7 47.7 84 6.1 43 -87 -3.425
02:23 1018 30.06 847 25.01 8.9 48 83 6.2 43.1 -87 -3.425
02:24 1018 30.06 847 25.01 9.1 48.3 82 6.2 43.2 -87.1 -3.429
02:25 1018 30.06 847 25.01 9.3 48.7 80 6.1 43 -87.1 -3.429
02:26 1018 30.06 847 25.01 9.4 48.9 80 6.2 43.1 -87.1 -3.429
02:27 1018 30.06 847 25.01 9.3 48.8 81 6.3 43.3 -87.1 -3.429
02:28 1018 30.06 847 25.01 9.5 49.1 80 6.3 43.3 -87.1 -3.429
02:29 1018 30.06 847 25.01 9.6 49.3 79 6.1 43.1 -87.2 -3.433
02:30 1018 30.06 847 25.01 9.6 49.2 79 6.1 42.9 -87.2 -3.433
02:31 1018 30.06 847 25.01 9.4 48.8 80 6 42.9 -87.2 -3.433
02:32 1018 30.06 847 25.01 9.3 48.7 81 6.1 43 -87.3 -3.437
02:33 1018 30.06 847 25.01 9.3 48.8 80 6 42.8 -87.3 -3.437
02:34 1018 30.06 847 25.01 9.4 48.9 79 6 42.8 -87.3 -3.437
02:35 1018 30.06 847 25.01 9.3 48.8 77 5.5 41.9 -87.3 -3.437
02:36 1018 30.06 847 25.01 9 48.1 79 5.6 42.1 -87.3 -3.437
02:37 1018 30.06 847 25.01 8.7 47.7 81 5.6 42.1 -87.3 -3.437
02:38 1018 30.06 847 25.01 8.6 47.6 82 5.7 42.3 -87.3 -3.437
02:39 1018 30.06 847 25.01 8.7 47.6 83 5.9 42.5 -87.3 -3.437
02:40 1018 30.06 847 25.01 8.7 47.7 82 5.9 42.6 -87.3 -3.437
02:41 1018 30.06 847 25.01 8.8 47.8 83 6 42.8 -87.3 -3.437
02:42 1018 30.06 847 25.01 8.8 47.8 81 5.7 42.3 -87.3 -3.437
02:43 1018 30.06 847 25.01 8.6 47.4 82 5.8 42.4 -87.3 -3.437
02:44 1018 30.06 847 25.01 8.4 47.2 83 5.8 42.5 -87.3 -3.437
02:45 1018 30.06 847 25.01 8.5 47.3 83 5.8 42.4 -87.4 -3.441
02:46 1018 30.06 847 25.01 8.5 47.3 83 5.8 42.4 -87.4 -3.441
02:47 1018 30.06 847 25.01 8.5 47.3 83 5.8 42.4 -87.4 -3.441
02:48 1018 30.06 847 25.01 8.5 47.3 83 5.7 42.2 -87.4 -3.441
02:49 1018 30.06 847 25.01 8.3 47 82 5.5 41.8 -87.4 -3.441
02:50 1018 30.06 847 25.01 8.1 46.6 83 5.5 41.9 -87.4 -3.441
02:51 1018 30.06 847 25.01 7.8 46.1 84 5.2 41.4 -87.4 -3.441
02:52 1018 30.06 847 25.01 7.6 45.7 85 5.2 41.4 -87.4 -3.441
02:53 1018 30.06 847 25.01 7.3 45.2 86 5.2 41.3 -87.4 -3.441
02:54 1018 30.06 847 25.01 7.2 45 89 5.5 42 -87.4 -3.441
02:55 1018 30.06 847 25.01 7.3 45.2 89 5.6 42.1 -87.4 -3.441
02:56 1018 30.06 847 25.01 7.4 45.4 88 5.6 42 -87.4 -3.441
02:57 1018 30.06 847 25.01 7.5 45.4 88 5.6 42.1 -87.4 -3.441
02:58 1018 30.06 847 25.01 7.5 45.4 88 5.5 42 -87.4 -3.441
02:59 1018 30.06 847 25.01 7.4 45.4 88 5.6 42.1 -87.4 -3.441
03:00 1018 30.06 847 25.01 7.5 45.6 89 5.9 42.5 -87.4 -3.441
03:01 1018 30.06 847 25.01 7.8 46 88 5.9 42.6 -87.4 -3.441
03:02 1018 30.06 847 25.01 7.9 46.2 85 5.6 42.1 -87.4 -3.441
03:03 1018 30.06 847 25.01 7.8 46.1 85 5.5 42 -87.4 -3.441
03:04 1018 30.06 847 25.01 7.8 46 87 5.7 42.2 -87.4 -3.441
03:05 1018 30.06 847 25.01 7.8 46 87 5.8 42.5 -87.5 -3.445
03:06 1018 30.06 847 25.01 8 46.4 86 5.8 42.5 -87.5 -3.445
03:07 1018 30.06 847 25.01 8.1 46.6 86 5.9 42.6 -87.5 -3.445
03:08 1018 30.06 847 25.01 8.3 46.9 85 5.9 42.6 -87.5 -3.445
03:09 1018 30.06 847 25.01 8.4 47.2 84 5.9 42.7 -87.5 -3.445
03:10 1018 30.06 847 25.01 8.6 47.5 83 5.9 42.6 -87.5 -3.445
03:11 1018 30.06 847 25.01 8.8 47.8 82 5.9 42.6 -87.5 -3.445
03:12 1018 30.06 847 25.01 9 48.1 81 6 42.7 -87.6 -3.449
03:13 1018 30.06 847 25.01 9.2 48.6 80 6 42.8 -87.6 -3.449
03:14 1018 30.06 847 25.01 9.4 48.9 79 6 42.7 -87.6 -3.449
03:15 1018 30.06 847 25.01 9.8 49.6 77 6 42.8 -87.7 -3.453
03:16 1018 30.06 847 25.01 10 50 77 6.2 43.1 -87.7 -3.453
03:17 1018 30.06 847 25.01 10 50.1 77 6.3 43.3 -87.7 -3.453
03:18 1018 30.06 847 25.01 9.8 49.6 78 6.2 43.1 -87.7 -3.453
03:19 1018 30.06 847 25.01 9.5 49.1 79 6.1 43 -87.7 -3.453
03:20 1018 30.06 847 25.01 9.2 48.6 80 6 42.8 -87.7 -3.453
03:21 1018 30.06 847 25.01 9 48.2 81 5.9 42.6 -87.7 -3.453
03:22 1018 30.06 847 25.01 8.7 47.7 82 5.8 42.5 -87.7 -3.453
03:23 1018 30.06 847 25.01 8.5 47.2 83 5.7 42.3 -87.7 -3.453
03:24 1018 30.06 847 25.01 8.2 46.8 84 5.6 42.1 -87.7 -3.453
03:25 1018 30.06 847 25.01 8.1 46.5 85 5.7 42.2 -87.7 -3.453
03:26 1018 30.06 847 25.01 8 46.4 85 5.7 42.3 -87.7 -3.453
03:27 1018 30.06 847 25.01 8.1 46.5 85 5.7 42.3 -87.7 -3.453
03:28 1018 30.06 847 25.01 8.2 46.8 84 5.7 42.3 -87.7 -3.453
03:29 1018 30.06 847 25.01 8.3 47 84 5.7 42.3 -87.7 -3.453
03:30 1018 30.06 847 25.01 8.5 47.2 83 5.8 42.4 -87.7 -3.453
03:31 1018 30.06 847 25.01 8.6 47.6 82 5.7 42.3 -87.7 -3.453
03:32 1018 30.06 847 25.01 8.9 48 80 5.7 42.2 -87.7 -3.453
03:33 1018 30.06 847 25.01 9.2 48.5 79 5.8 42.4 -87.7 -3.453
03:34 1018 30.06 847 25.01 9.3 48.8 79 5.8 42.5 -87.8 -3.457
03:35 1018 30.06 847 25.01 9.4 48.9 79 5.8 42.5 -87.8 -3.457
03:36 1018 30.06 847 25.01 9.3 48.8 79 5.9 42.5 -87.8 -3.457
03:37 1018 30.06 847 25.01 9.3 48.7 79 5.8 42.4 -87.8 -3.457
03:38 1018 30.06 847 25.01 9.1 48.3 80 5.8 42.4 -87.8 -3.457
03:39 1018 30.06 847 25.01 8.8 47.8 81 5.7 42.3 -87.8 -3.457
03:40 1018 30.06 847 25.01 8.5 47.3 83 5.8 42.4 -87.8 -3.457
03:41 1018 30.06 847 25.01 8.3 47 84 5.7 42.3 -87.8 -3.457
03:42 1018 30.06 847 25.01 8.2 46.8 84 5.7 42.3 -87.8 -3.457
03:43 1018 30.06 847 25.01 8.2 46.8 84 5.7 42.3 -87.8 -3.457
03:44 1018 30.06 847 25.01 8.3 46.9 84 5.8 42.4 -87.8 -3.457
03:45 1018 30.06 847 25.01 8.3 46.9 84 5.8 42.4 -87.8 -3.457
03:46 1018 30.06 847 25.01 8.3 46.9 85 5.8 42.5 -87.8 -3.457
03:47 1018 30.06 847 25.01 8.3 46.9 84 5.8 42.5 -87.8 -3.457
03:48 1018 30.06 847 25.01 8.3 47 84 5.8 42.4 -87.8 -3.457
03:49 1018 30.06 847 25.01 8.3 46.9 84 5.8 42.4 -87.9 -3.461
03:50 1018 30.06 847 25.01 8.2 46.7 85 5.8 42.4 -87.9 -3.461
03:51 1018 30.06 847 25.01 8.1 46.6 85 5.8 42.4 -87.8 -3.457
03:52 1018 30.06 847 25.01 8 46.5 85 5.7 42.3 -87.8 -3.457
03:53 1018 30.06 847 25.01 7.9 46.3 86 5.7 42.3 -87.8 -3.457
03:54 1018 30.06 847 25.01 7.9 46.1 86 5.7 42.2 -87.8 -3.457
03:55 1018 30.06 847 25.01 7.9 46.1 87 5.8 42.4 -87.8 -3.457
03:56 1018 30.06 847 25.01 7.9 46.2 86 5.8 42.4 -87.8 -3.457
03:57 1018 30.06 847 25.01 8 46.3 87 5.9 42.5 -87.8 -3.457
03:58 1018 30.06 847 25.01 8 46.4 86 5.8 42.5 -87.8 -3.457
03:59 1018 30.06 847 25.01 8 46.5 86 5.8 42.4 -87.8 -3.457
04:00 1018 30.06 847 25.01 8.1 46.6 85 5.8 42.4 -87.8 -3.457
04:01 1018 30.06 847 25.01 8.3 46.9 84 5.8 42.4 -87.8 -3.457
04:02 1018 30.06 847 25.01 8.3 46.9 84 5.7 42.3 -87.8 -3.457
04:03 1018 30.06 847 25.01 8.3 47 84 5.7 42.3 -87.8 -3.457
04:04 1018 30.06 847 25.01 8.4 47.1 83 5.7 42.3 -87.8 -3.457
04:05 1018 30.06 847 25.01 8.4 47.2 83 5.8 42.4 -87.8 -3.457
04:06 1018 30.06 847 25.01 8.4 47.1 83 5.7 42.3 -87.8 -3.457
04:07 1018 30.06 847 25.01 8.4 47 83 5.7 42.3 -87.8 -3.457
04:08 1018 30.06 847 25.01 8.3 46.9 83 5.7 42.2 -87.8 -3.457
04:09 1018 30.06 847 25.01 8.3 46.9 83 5.6 42.1 -87.8 -3.457
04:10 1018 30.06 847 25.01 8.3 46.9 83 5.6 42.1 -87.8 -3.457
04:11 1018 30.06 847 25.01 8.2 46.8 84 5.6 42.2 -87.8 -3.457
04:12 1018 30.06 847 25.01 8.2 46.8 84 5.6 42.1 -87.8 -3.457
04:13 1018 30.06 847 25.01 8.2 46.7 84 5.6 42 -87.9 -3.461
04:14 1018 30.06 847 25.01 8 46.5 84 5.6 42 -87.9 -3.461
04:15 1018 30.06 847 25.01 8 46.3 85 5.5 42 -87.9 -3.461
04:16 1018 30.06 847 25.01 7.9 46.1 85 5.5 42 -87.9 -3.461
04:17 1018 30.06 847 25.01 7.8 46 86 5.5 41.9 -87.9 -3.461
04:18 1018 30.06 847 25.01 7.7 45.9 86 5.5 41.9 -87.9 -3.461
04:19 1018 30.06 847 25.01 7.7 45.8 86 5.5 42 -87.9 -3.461
04:20 1018 30.06 847 25.01 7.7 45.9 86 5.6 42 -87.9 -3.461
04:21 1018 30.06 847 25.01 7.8 46.1 86 5.6 42.2 -87.9 -3.461
04:22 1018 30.06 847 25.01 8 46.3 85 5.7 42.2 -87.9 -3.461
04:23 1018 30.06 847 25.01 8.1 46.5 85 5.7 42.2 -87.9 -3.461
04:24 1018 30.06 847 25.01 8.2 46.7 85 5.7 42.3 -87.9 -3.461
04:25 1018 30.06 847 25.01 8 46.5 85 5.6 42.1 -87.9 -3.461
04:26 1018 30.06 847 25.01 8 46.3 85 5.6 42.1 -87.8 -3.457
04:27 1018 30.06 847 25.01 8 46.3 85 5.6 42.2 -87.9 -3.461
04:28 1018 30.06 847 25.01 7.9 46.3 85 5.5 42 -87.9 -3.461
04:29 1018 30.06 847 25.01 7.8 46.1 85 5.5 41.9 -87.9 -3.461
04:30 1018 30.06 847 25.01 7.8 46.1 85 5.5 42 -87.9 -3.461
04:31 1018 30.06 847 25.01 7.8 46 86 5.5 41.9 -87.9 -3.461
04:32 1018 30.06 847 25.01 7.8 46 86 5.6 42 -87.9 -3.461
04:33 1018 30.06 847 25.01 8 46.3 85 5.6 42.1 -87.9 -3.461
04:34 1018 30.06 847 25.01 8 46.5 85 5.6 42.1 -87.8 -3.457
04:35 1018 30.06 847 25.01 8.1 46.5 85 5.7 42.2 -87.9 -3.461
04:36 1018 30.06 847 25.01 8.2 46.8 83 5.6 42 -87.9 -3.461
04:37 1018 30.06 847 25.01 8.2 46.7 83 5.5 42 -87.9 -3.461
04:38 1018 30.06 847 25.01 8.3 46.9 83 5.5 42 -87.9 -3.461
04:39 1018 30.06 847 25.01 8.2 46.8 83 5.5 41.9 -87.9 -3.461
04:40 1018 30.06 847 25.01 8 46.5 83 5.4 41.7 -87.9 -3.461
04:41 1018 30.06 847 25.01 7.9 46.2 85 5.5 41.9 -87.9 -3.461
04:42 1018 30.06 847 25.01 7.9 46.1 85 5.4 41.7 -87.9 -3.461
04:43 1018 30.06 847 25.01 7.9 46.3 84 5.4 41.7 -87.9 -3.461
04:44 1018 30.06 847 25.01 8 46.4 84 5.4 41.7 -87.9 -3.461
04:45 1018 30.06 847 25.01 8.1 46.5 83 5.4 41.7 -87.9 -3.461
04:46 1018 30.06 847 25.01 8.1 46.5 83 5.3 41.5 -87.9 -3.461
04:47 1018 30.06 847 25.01 8 46.4 83 5.3 41.6 -87.9 -3.461
04:48 1018 30.06 847 25.01 8 46.4 83 5.3 41.6 -87.9 -3.461
04:49 1018 30.06 847 25.01 8 46.3 83 5.3 41.6 -87.9 -3.461
04:50 1018 30.06 847 25.01 8.1 46.5 84 5.5 41.9 -87.9 -3.461
04:51 1018 30.06 847 25.01 8.3 46.9 83 5.6 42 -88 -3.465
04:52 1018 30.06 847 25.01 8.6 47.4 82 5.7 42.3 -88 -3.465
04:53 1018 30.06 847 25.01 8.9 47.9 81 5.7 42.3 -88 -3.465
04:54 1018 30.06 847 25.01 9.2 48.5 79 5.7 42.3 -88 -3.465
04:55 1018 30.06 847 25.01 9.3 48.8 78 5.8 42.4 -88 -3.465
04:56 1018 30.06 847 25.01 9.4 48.9 78 5.8 42.4 -88 -3.465
04:57 1018 30.06 847 25.01 9.3 48.8 78 5.7 42.3 -88 -3.465
04:58 1018 30.06 847 25.01 9.2 48.5 79 5.7 42.3 -88 -3.465
04:59 1018 30.06 847 25.01 9 48.2 80 5.8 42.4 -88 -3.465
05:00 1018 30.06 847 25.01 8.8 47.9 81 5.7 42.3 -88 -3.465
05:01 1018 30.06 847 25.01 8.8 47.8 81 5.7 42.3 -88 -3.465
05:02 1018 30.06 847 25.01 8.8 47.8 81 5.8 42.4 -88 -3.465
05:03 1018 30.06 847 25.01 8.8 47.8 81 5.8 42.4 -88 -3.465
05:04 1018 30.06 847 25.01 8.8 47.8 81 5.7 42.3 -88 -3.465
05:05 1018 30.06 847 25.01 8.8 47.8 82 5.8 42.4 -88 -3.465
05:06 1018 30.06 847 25.01 8.7 47.6 82 5.8 42.5 -88 -3.465
05:07 1018 30.06 847 25.01 8.7 47.6 82 5.9 42.5 -88 -3.465
05:08 1018 30.06 847 25.01 8.7 47.6 82 5.8 42.4 -88 -3.465
05:09 1018 30.06 847 25.01 8.6 47.5 82 5.7 42.2 -88 -3.465
05:10 1018 30.06 847 25.01 8.5 47.4 83 5.7 42.3 -87.9 -3.461
05:11 1018 30.06 847 25.01 8.5 47.4 82 5.7 42.2 -87.9 -3.461
05:12 1018 30.06 847 25.01 8.6 47.4 82 5.7 42.3 -88 -3.465
05:13 1018 30.06 847 25.01 8.6 47.4 82 5.7 42.2 -88 -3.465
05:14 1018 30.06 847 25.01 8.6 47.4 82 5.7 42.3 -87.9 -3.461
05:15 1018 30.06 847 25.01 8.6 47.5 82 5.7 42.2 -87.9 -3.461
05:16 1018 30.06 847 25.01 8.7 47.7 81 5.6 42 -87.9 -3.461
05:17 1018 30.06 847 25.01 8.8 47.9 80 5.6 42.1 -88 -3.465
05:18 1018 30.06 847 25.01 8.9 48.1 80 5.6 42.2 -88 -3.465
05:19 1018 30.06 847 25.01 9 48.1 80 5.7 42.3 -88 -3.465
05:20 1018 30.06 847 25.01 8.9 48 81 5.8 42.5 -88 -3.465
05:21 1018 30.06 847 25.01 8.8 47.9 81 5.9 42.5 -88 -3.465
05:22 1018 30.06 847 25.01 8.8 47.8 82 5.8 42.4 -88 -3.465
05:23 1018 30.06 847 25.01 8.7 47.7 82 5.8 42.4 -88 -3.465
05:24 1018 30.06 847 25.01 8.7 47.6 82 5.8 42.4 -88 -3.465
05:25 1018 30.06 847 25.01 8.8 47.8 81 5.7 42.3 -88 -3.465
05:26 1018 30.06 847 25.01 9 48.1 80 5.7 42.3 -88 -3.465
05:27 1018 30.06 847 25.01 9.1 48.4 79 5.6 42.2 -88 -3.465
05:28 1018 30.06 847 25.01 9.1 48.4 79 5.7 42.2 -88 -3.465
05:29 1018 30.06 847 25.01 9 48.3 80 5.7 42.3 -88 -3.465
05:30 1018 30.06 847 25.01 9 48.2 80 5.7 42.3 -88 -3.465
05:31 1018 30.06 847 25.01 9 48.2 80 5.7 42.3 -88 -3.465
05:32 1018 30.06 847 25.01 9 48.2 79 5.7 42.2 -88 -3.465
05:33 1018 30.06 847 25.01 8.9 48 80 5.7 42.2 -88 -3.465
05:34 1018 30.06 847 25.01 8.8 47.8 81 5.7 42.3 -88 -3.465
05:35 1018 30.06 847 25.01 8.7 47.7 82 5.8 42.4 -88 -3.465
05:36 1018 30.06 847 25.01 8.8 47.9 81 5.8 42.5 -88 -3.465
05:37 1018 30.06 847 25.01 8.9 47.9 81 5.8 42.5 -88 -3.465
05:38 1018 30.06 847 25.01 8.7 47.6 82 5.7 42.3 -88 -3.465
05:39 1018 30.06 847 25.01 8.5 47.2 83 5.7 42.2 -88 -3.465
05:40 1018 30.06 847 25.01 8.3 47 83 5.6 42 -88 -3.465
05:41 1018 30.06 847 25.01 8.3 46.9 83 5.5 41.9 -88 -3.465
05:42 1018 30.06 847 25.01 8.3 46.9 82 5.5 41.9 -88 -3.465
05:43 1018 30.06 847 25.01 8.3 47 82 5.5 41.9 -88 -3.465
05:44 1018 30.06 847 25.01 8.3 47 82 5.5 41.9 -88 -3.465
05:45 1018 30.06 847 25.01 8.2 46.8 82 5.4 41.8 -88 -3.465
05:46 1018 30.06 847 25.01 8.2 46.7 83 5.4 41.8 -88 -3.465
05:47 1018 30.06 847 25.01 8.1 46.5 83 5.3 41.6 -88 -3.465
05:48 1018 30.06 847 25.01 8 46.3 83 5.3 41.6 -88 -3.465
05:49 1018 30.06 847 25.01 7.8 46 84 5.3 41.5 -88 -3.465
05:50 1018 30.06 847 25.01 7.7 45.8 85 5.3 41.6 -88 -3.465
05:51 1018 30.06 847 25.01 7.7 45.8 85 5.3 41.5 -88 -3.465
05:52 1018 30.06 847 25.01 7.7 45.9 84 5.3 41.5 -88 -3.465
05:53 1018 30.06 847 25.01 7.6 45.7 85 5.3 41.5 -88 -3.465
05:54 1018 30.06 847 25.01 7.5 45.6 85 5.2 41.4 -88 -3.465
05:55 1018 30.06 847 25.01 7.5 45.5 86 5.2 41.4 -88 -3.465
05:56 1018 30.06 847 25.01 7.4 45.3 86 5.2 41.4 -88 -3.465
05:57 1018 30.06 847 25.01 7.3 45.1 86 5.2 41.3 -88 -3.465
05:58 1018 30.06 847 25.01 7.2 45 87 5.2 41.4 -88 -3.465
05:59 1018 30.06 847 25.01 7.3 45.1 87 5.3 41.5 -88 -3.465
06:00 1018 30.06 847 25.01 7.4 45.4 86 5.3 41.5 -88 -3.465
06:01 1018 30.06 847 25.01 7.5 45.4 86 5.2 41.4 -88 -3.465
06:02 1018 30.06 847 25.01 7.5 45.4 86 5.2 41.4 -88 -3.465
06:03 1018 30.06 847 25.01 7.4 45.3 86 5.2 41.3 -88 -3.465
06:04 1018 30.06 847 25.01 7.4 45.4 86 5.2 41.4 -88 -3.465
06:05 1018 30.06 847 25.01 7.5 45.4 86 5.3 41.5 -88 -3.465
06:06 1018 30.06 847 25.01 7.6 45.7 86 5.4 41.7 -88 -3.465
06:07 1018 30.06 847 25.01 7.8 46.1 84 5.2 41.4 -88 -3.465
06:08 1018 30.06 847 25.01 7.8 46 83 5 41 -88 -3.465
06:09 1018 30.06 847 25.01 7.5 45.5 84 4.9 40.8 -88 -3.465
06:10 1018 30.06 847 25.01 7.2 45 85 4.8 40.7 -88 -3.465
06:11 1018 30.06 847 25.01 7 44.7 86 4.9 40.8 -88.1 -3.469
06:12 1018 30.06 847 25.01 7 44.7 87 5.1 41.2 -88.1 -3.469
06:13 1018 30.06 847 25.01 7.2 44.9 86 5 41.1 -88.1 -3.469
06:14 1018 30.06 847 25.01 7.3 45.1 85 5 41 -88.1 -3.469
06:15 1018 30.06 847 25.01 7.4 45.2 86 5.1 41.2 -88.1 -3.469
06:16 1018 30.06 847 25.01 7.4 45.3 85 5.1 41.2 -88.1 -3.469
06:17 1018 30.06 847 25.01 7.4 45.4 85 5.1 41.3 -88.1 -3.469
06:18 1018 30.06 847 25.01 7.4 45.2 85 5.1 41.1 -88.1 -3.469
06:19 1018 30.06 847 25.01 7.2 45 86 5 41 -88 -3.465
06:20 1018 30.06 847 25.01 7.2 44.9 87 5.1 41.1 -88 -3.465
06:21 1018 30.06 847 25.01 7.1 44.7 85 4.8 40.6 -88 -3.465
06:22 1018 30.06 847 25.01 6.9 44.4 86 4.7 40.5 -88 -3.465
06:23 1018 30.06 847 25.01 6.8 44.2 87 4.8 40.6 -88 -3.465
06:24 1018 30.06 847 25.01 6.8 44.2 87 4.8 40.6 -88 -3.465
06:25 1018 30.06 847 25.01 6.8 44.3 86 4.7 40.5 -88 -3.465
06:26 1018 30.06 847 25.01 6.7 44.1 86 4.6 40.3 -88 -3.465
06:27 1018 30.06 847 25.01 6.7 44.1 88 4.9 40.8 -88 -3.465
06:28 1018 30.06 847 25.01 6.8 44.3 88 5.1 41.1 -88 -3.465
06:29 1018 30.06 847 25.01 7 44.5 87 5 41 -88 -3.465
06:30 1018 30.06 847 25.01 7.1 44.8 87 5.2 41.3 -88 -3.465
06:31 1018 30.06 847 25.01 7.3 45.1 88 5.4 41.7 -88 -3.465
06:32 1018 30.06 847 25.01 7.5 45.4 87 5.5 41.9 -88 -3.465
06:33 1018 30.06 847 25.01 7.7 45.8 86 5.4 41.8 -88 -3.465
06:34 1018 30.06 847 25.01 7.8 46 84 5.3 41.6 -87.9 -3.461
06:35 1018 30.06 847 25.01 7.8 46 84 5.2 41.3 -88 -3.465
06:36 1018 30.06 847 25.01 7.6 45.6 83 4.9 40.9 -88 -3.465
06:37 1018 30.06 847 25.01 7.3 45.1 85 5 41 -88 -3.465
06:38 1018 30.06 847 25.01 7.3 45.1 86 5.1 41.1 -88 -3.465
06:39 1018 30.06 847 25.01 7.2 45 85 4.9 40.8 -88 -3.465
06:40 1018 30.06 847 25.01 7.1 44.8 86 5 40.9 -88 -3.465
06:41 1018 30.06 847 25.01 7.1 44.7 86 5 40.9 -88 -3.465
06:42 1018 30.06 847 25.01 7.1 44.7 86 4.9 40.8 -88 -3.465
06:43 1018 30.06 847 25.01 7 44.5 86 4.7 40.5 -88 -3.465
06:44 1018 30.06 848 25.04 6.8 44.3 86 4.6 40.3 -88 -3.465
06:45 1018 30.06 848 25.04 6.7 44 87 4.7 40.5 -88 -3.465
06:46 1018 30.06 847 25.01 6.6 43.9 88 4.8 40.6 -88 -3.465
06:47 1018 30.06 847 25.01 6.7 44.1 87 4.8 40.6 -88 -3.465
06:48 1018 30.06 847 25.01 6.8 44.2 87 4.8 40.6 -88.1 -3.469
06:49 1018 30.06 847 25.01 6.7 44.1 87 4.7 40.5 -88.1 -3.469
06:50 1018 30.06 847 25.01 6.8 44.2 88 4.9 40.7 -88.1 -3.469
06:51 1018 30.06 847 25.01 7 44.5 87 5 40.9 -88.1 -3.469
06:52 1018 30.06 847 25.01 7.2 45 86 4.9 40.9 -88.1 -3.469
06:53 1018 30.06 847 25.01 7.3 45.2 85 5 41 -88.1 -3.469
06:54 1018 30.06 847 25.01 7.4 45.3 85 5.1 41.1 -88.1 -3.469
06:55 1018 30.06 847 25.01 7.5 45.5 85 5.1 41.1 -88.2 -3.472
06:56 1018 30.06 847 25.01 7.6 45.7 84 5.1 41.1 -88.2 -3.472
06:57 1018 30.06 847 25.01 7.7 45.8 84 5.1 41.1 -88.2 -3.472
06:58 1018 30.06 847 25.01 7.6 45.7 84 5 41.1 -88.2 -3.472
06:59 1018 30.06 847 25.01 7.6 45.6 84 5 41.1 -88.2 -3.472
07:00 1018 30.06 847 25.01 7.6 45.6 84 5.1 41.2 -88.2 -3.472
07:01 1018 30.06 847 25.01 7.6 45.6 85 5.2 41.3 -88.2 -3.472
07:02 1018 30.06 847 25.01 7.6 45.6 85 5.2 41.4 -88.2 -3.472
07:03 1018 30.06 847 25.01 7.5 45.6 85 5.3 41.5 -88.2 -3.472
07:04 1018 30.06 847 25.01 7.6 45.6 85 5.3 41.5 -88.2 -3.472
07:05 1018 30.06 848 25.04 7.6 45.8 85 5.3 41.6 -88.3 -3.476
07:06 1018 30.06 848 25.04 7.7 45.8 85 5.4 41.7 -88.3 -3.476
07:07 1018 30.06 848 25.04 7.8 46 85 5.4 41.8 -88.3 -3.476
07:08 1018 30.06 848 25.04 7.9 46.3 84 5.5 41.9 -88.3 -3.476
07:09 1018 30.06 848 25.04 8.1 46.7 84 5.6 42 -88.3 -3.476
07:10 1018 30.06 848 25.04 8.3 46.9 83 5.6 42.1 -88.3 -3.476
07:11 1018 30.06 848 25.04 8.3 47 83 5.7 42.2 -88.3 -3.476
07:12 1018 30.06 848 25.04 8.3 46.9 84 5.7 42.2 -88.3 -3.476
07:13 1018 30.06 848 25.04 8.2 46.8 84 5.7 42.2 -88.3 -3.476
07:14 1018 30.06 848 25.04 8.2 46.8 84 5.7 42.3 -88.3 -3.476
07:15 1018 30.06 848 25.04 8.2 46.8 84 5.7 42.2 -88.3 -3.476
07:16 1018 30.06 848 25.04 8.2 46.8 85 5.8 42.4 -88.3 -3.476
07:17 1018 30.06 848 25.04 8.2 46.8 85 5.8 42.4 -88.3 -3.476
07:18 1018 30.06 848 25.04 8.2 46.7 85 5.8 42.5 -88.2 -3.472
07:19 1018 30.06 848 25.04 8.2 46.7 85 5.9 42.6 -88.2 -3.472
07:20 1018 30.06 848 25.04 8.1 46.7 85 5.8 42.5 -88.2 -3.472
07:21 1018 30.06 848 25.04 8.1 46.6 85 5.8 42.4 -88.2 -3.472
07:22 1018 30.06 848 25.04 8.2 46.7 85 5.8 42.5 -88.2 -3.472
07:23 1018 30.06 848 25.04 8.2 46.8 85 5.9 42.6 -88.2 -3.472
07:24 1018 30.06 848 25.04 8.3 46.9 85 5.9 42.6 -88.2 -3.472
07:25 1018 30.06 848 25.04 8.4 47 85 6 42.7 -88.2 -3.472
07:26 1018 30.06 848 25.04 8.5 47.2 84 6 42.8 -88.2 -3.472
07:27 1018 30.06 848 25.04 8.6 47.5 84 6 42.9 -88.2 -3.472
07:28 1018 30.06 848 25.04 8.8 47.9 83 6.1 42.9 -88.2 -3.472
07:29 1018 30.06 848 25.04 9 48.2 82 6.2 43.1 -88.2 -3.472
07:30 1018 30.06 848 25.04 9.2 48.5 81 6.1 43.1 -88.2 -3.472
07:31 1018 30.06 848 25.04 9.4 48.9 81 6.3 43.4 -88.2 -3.472
07:32 1018 30.06 848 25.04 9.5 49.1 81 6.5 43.7 -88.2 -3.472
07:33 1018 30.06 848 25.04 9.6 49.3 81 6.4 43.6 -88.2 -3.472
07:34 1018 30.06 848 25.04 9.6 49.3 81 6.5 43.7 -88.2 -3.472
07:35 1018 30.06 848 25.04 9.7 49.5 80 6.5 43.6 -88.2 -3.472
07:36 1018 30.06 848 25.04 9.8 49.6 80 6.6 43.8 -88.2 -3.472
07:37 1018 30.06 848 25.04 9.8 49.7 80 6.5 43.6 -88.2 -3.472
07:38 1018 30.06 848 25.04 9.9 49.8 79 6.5 43.7 -88.2 -3.472
07:39 1018 30.06 848 25.04 10 50 79 6.6 43.9 -88.2 -3.472
07:40 1018 30.06 848 25.04 10.1 50.2 79 6.7 44 -88.2 -3.472
07:41 1018 30.06 848 25.04 10.2 50.4 78 6.6 43.9 -88.2 -3.472
07:42 1018 30.06 848 25.04 10.4 50.7 78 6.8 44.2 -88.2 -3.472
07:43 1019 30.09 848 25.04 10.4 50.8 78 6.8 44.3 -88.2 -3.472
07:44 1018 30.06 848 25.04 10.5 50.8 78 6.9 44.4 -88.2 -3.472
07:45 1018 30.06 848 25.04 10.5 51 78 6.9 44.4 -88.2 -3.472
07:46 1018 30.06 848 25.04 10.6 51.1 78 7 44.5 -88.2 -3.472
07:47 1018 30.06 848 25.04 10.7 51.3 77 7 44.6 -88.1 -3.469
07:48 1018 30.06 848 25.04 10.8 51.4 79 7.2 45 -88.1 -3.469
07:49 1018 30.06 848 25.04 10.9 51.6 79 7.3 45.2 -88.1 -3.469
07:50 1018 30.06 848 25.04 10.9 51.6 79 7.5 45.5 -88.1 -3.469
07:51 1018 30.06 848 25.04 10.9 51.7 79 7.5 45.5 -88.1 -3.469
07:52 1018 30.06 848 25.04 11 51.8 78 7.4 45.3 -88 -3.465
07:53 1018 30.06 848 25.04 11 51.9 78 7.4 45.3 -88 -3.465
07:54 1018 30.06 848 25.04 11.1 52 79 7.5 45.6 -88 -3.465
07:55 1018 30.06 848 25.04 11.2 52.1 79 7.7 45.8 -88 -3.465
07:56 1018 30.06 848 25.04 11.2 52.2 78 7.5 45.6 -88 -3.465
07:57 1018 30.06 848 25.04 11.3 52.3 79 7.7 45.8 -88 -3.465
07:58 1018 30.06 848 25.04 11.3 52.4 78 7.7 45.9 -88 -3.465
07:59 1018 30.06 848 25.04 11.4 52.6 77 7.6 45.7 -88 -3.465
08:00 1018 30.06 848 25.04 11.5 52.7 78 7.8 46.1 -87.9 -3.461
08:01 1018 30.06 848 25.04 11.6 52.8 78 7.8 46.1 -87.9 -3.461
08:02 1018 30.06 848 25.04 11.6 53 77 7.7 45.9 -87.9 -3.461
08:03 1018 30.06 848 25.04 11.7 53 76 7.6 45.7 -87.9 -3.461
08:04 1018 30.06 848 25.04 11.8 53.2 75 7.5 45.6 -87.8 -3.457
08:05 1018 30.06 848 25.04 11.9 53.4 76 7.7 45.9 -87.8 -3.457
08:06 1018 30.06 848 25.04 12 53.6 74 7.5 45.5 -87.8 -3.457
08:07 1018 30.06 848 25.04 12.1 53.7 75 7.8 46 -87.8 -3.457
08:08 1018 30.06 848 25.04 12.2 53.9 74 7.6 45.8 -87.8 -3.457
08:09 1018 30.06 848 25.04 12.3 54.1 74 7.8 46.1 -87.7 -3.453
08:10 1018 30.06 848 25.04 12.4 54.2 75 8.1 46.6 -87.7 -3.453
08:11 1018 30.06 848 25.04 12.5 54.5 76 8.4 47.1 -87.7 -3.453
08:12 1018 30.06 848 25.04 12.7 54.8 74 8.2 46.7 -87.7 -3.453
08:13 1018 30.06 847 25.01 12.8 55 73 8.1 46.7 -87.7 -3.453
08:14 1018 30.06 848 25.04 12.8 55.1 73 8.1 46.5 -87.7 -3.453
08:15 1018 30.06 848 25.04 12.9 55.3 73 8.2 46.8 -87.6 -3.449
08:16 1018 30.06 848 25.04 13.1 55.6 73 8.5 47.3 -87.6 -3.449
08:17 1018 30.06 848 25.04 13.2 55.8 71 8.1 46.6 -87.6 -3.449
08:18 1018 30.06 848 25.04 13.3 55.9 72 8.3 46.9 -87.6 -3.449
08:19 1018 30.06 847 25.01 13.3 56 67 7.5 45.5 -87.5 -3.445
08:20 1018 30.06 847 25.01 13.4 56.1 71 8.3 46.9 -87.5 -3.445
08:21 1018 30.06 847 25.01 13.4 56.2 71 8.3 47 -87.5 -3.445
08:22 1018 30.06 847 25.01 13.5 56.3 68 7.8 46 -87.5 -3.445
08:23 1018 30.06 847 25.01 13.6 56.5 70 8.3 46.9 -87.5 -3.445
08:24 1018 30.06 847 25.01 13.8 56.8 69 8.2 46.7 -87.5 -3.445
08:25 1018 30.06 847 25.01 13.8 56.8 68 8.2 46.7 -87.4 -3.441
08:26 1018 30.06 847 25.01 13.9 57 67 7.9 46.3 -87.4 -3.441
08:27 1018 30.06 847 25.01 13.9 57 69 8.3 46.9 -87.4 -3.441
08:28 1018 30.06 847 25.01 13.9 57.1 72 9 48.1 -87.4 -3.441
08:29 1018 30.06 847 25.01 14.1 57.4 70 8.7 47.7 -87.4 -3.441
08:30 1018 30.06 848 25.04 14.2 57.6 66 8.1 46.5 -87.4 -3.441
08:31 1018 30.06 847 25.01 14.3 57.8 68 8.5 47.3 -87.3 -3.437
08:32 1018 30.06 847 25.01 14.5 58 68 8.6 47.6 -87.3 -3.437
08:33 1018 30.06 847 25.01 14.6 58.2 65 8.2 46.7 -87.3 -3.437
08:34 1018 30.06 847 25.01 14.6 58.3 68 8.8 47.9 -87.3 -3.437
08:35 1018 30.06 847 25.01 14.6 58.3 64 8 46.5 -87.3 -3.437
08:36 1018 30.06 847 25.01 14.6 58.3 66 8.5 47.3 -87.3 -3.437
08:37 1018 30.06 847 25.01 14.6 58.4 63 7.7 45.9 -87.3 -3.437
08:38 1018 30.06 847 25.01 14.7 58.4 63 7.7 45.8 -87.3 -3.437
08:39 1018 30.06 847 25.01 14.7 58.4 66 8.4 47.1 -87.3 -3.437
08:40 1018 30.06 847 25.01 14.7 58.5 63 7.8 46 -87.3 -3.437
08:41 1018 30.06 847 25.01 14.7 58.5 63 7.9 46.3 -87.2 -3.433
08:42 1018 30.06 847 25.01 14.8 58.6 64 8.1 46.6 -87.2 -3.433
08:43 1018 30.06 847 25.01 14.8 58.7 64 8.1 46.7 -87.2 -3.433
08:44 1018 30.06 847 25.01 14.9 58.9 62 7.8 46 -87.2 -3.433
08:45 1018 30.06 847 25.01 15.1 59.1 63 8.1 46.6 -87.2 -3.433
08:46 1018 30.06 847 25.01 15.2 59.4 61 7.9 46.1 -87.2 -3.433
08:47 1018 30.06 847 25.01 15.3 59.6 61 7.9 46.2 -87.1 -3.429
08:48 1018 30.06 847 25.01 15.5 59.9 62 8.3 46.9 -87.1 -3.429
08:49 1018 30.06 847 25.01 15.6 60 63 8.5 47.3 -87.1 -3.429
08:50 1018 30.06 847 25.01 15.7 60.2 59 7.7 45.8 -87.1 -3.429
08:51 1018 30.06 847 25.01 15.7 60.2 61 8.3 46.9 -87.1 -3.429
08:52 1018 30.06 847 25.01 15.8 60.5 60 8.2 46.8 -87.1 -3.429
08:53 1018 30.06 847 25.01 16 60.8 62 8.8 47.8 -87 -3.425
08:54 1018 30.06 847 25.01 16.1 61.1 61 8.7 47.6 -87 -3.425
08:55 1018 30.06 847 25.01 16.3 61.3 60 8.5 47.3 -87 -3.425
08:56 1018 30.06 847 25.01 16.4 61.5 58 8.2 46.7 -86.9 -3.421
08:57 1018 30.06 847 25.01 16.5 61.6 55 7.4 45.4 -86.9 -3.421
08:58 1018 30.06 847 25.01 16.6 61.8 59 8.6 47.4 -86.9 -3.421
08:59 1018 30.06 847 25.01 16.7 62 56 7.9 46.2 -86.8 -3.417
09:00 1018 30.06 847 25.01 16.8 62.2 59 8.7 47.7 -86.8 -3.417
09:01 1018 30.06 847 25.01 17 62.6 59 8.9 48 -86.8 -3.417
09:02 1018 30.06 847 25.01 17.2 62.9 56 8.3 47 -86.8 -3.417
09:03 1018 30.06 847 25.01 17.2 63 54 7.9 46.2 -86.7 -3.413
09:04 1018 30.06 847 25.01 17.2 62.9 57 8.7 47.7 -86.7 -3.413
09:05 1018 30.06 847 25.01 17.2 63 55 8.2 46.8 -86.7 -3.413
09:06 1018 30.06 847 25.01 17.3 63.1 54 7.8 46.1 -86.7 -3.413
09:07 1018 30.06 847 25.01 17.2 63 54 8 46.4 -86.6 -3.409
09:08 1018 30.06 847 25.01 17.3 63.1 54 8 46.5 -86.6 -3.409
09:09 1018 30.06 847 25.01 17.4 63.4 56 8.6 47.4 -86.6 -3.409
09:10 1018 30.06 847 25.01 17.6 63.6 55 8.4 47.1 -86.6 -3.409
09:11 1018 30.06 847 25.01 17.7 63.8 58 9.3 48.8 -86.6 -3.409
09:12 1018 30.06 847 25.01 17.7 63.8 57 9.1 48.4 -86.6 -3.409
09:13 1018 30.06 847 25.01 17.8 64 57 9.2 48.5 -86.5 -3.406
09:14 1018 30.06 847 25.01 17.9 64.2 60 10.2 50.3 -86.5 -3.406
09:15 1018 30.06 847 25.01 17.9 64.2 59 9.9 49.9 -86.5 -3.406
09:16 1018 30.06 847 25.01 18 64.4 52 8.2 46.7 -86.4 -3.402
09:17 1018 30.06 847 25.01 18 64.3 54 8.5 47.3 -86.4 -3.402
09:18 1018 30.06 847 25.01 17.9 64.3 53 8.5 47.2 -86.4 -3.402
09:19 1018 30.06 847 25.01 18.1 64.6 57 9.5 49.1 -86.4 -3.402
09:20 1018 30.06 847 25.01 18.3 64.9 51 8.2 46.7 -86.4 -3.402
09:21 1018 30.06 847 25.01 18.3 65 50 7.9 46.3 -86.3 -3.398
09:22 1018 30.06 847 25.01 18.3 65 56 9.6 49.2 -86.3 -3.398
09:23 1018 30.06 847 25.01 18.4 65 50 7.8 46.1 -86.3 -3.398
09:24 1018 30.06 847 25.01 18.3 65 55 9.1 48.4 -86.3 -3.398
09:25 1018 30.06 847 25.01 18.4 65.1 52 8.5 47.3 -86.2 -3.394
09:26 1018 30.06 847 25.01 18.4 65.2 51 8.1 46.7 -86.2 -3.394
09:27 1018 30.06 847 25.01 18.6 65.4 51 8.2 46.8 -86.2 -3.394
09:28 1018 30.06 847 25.01 18.8 65.8 50 8.2 46.8 -86.2 -3.394
09:29 1018 30.06 847 25.01 18.8 65.8 52 9 48.1 -86.1 -3.39
09:30 1018 30.06 847 25.01 18.9 66 51 8.8 47.8 -86.1 -3.39
09:31 1018 30.06 847 25.01 18.9 66 47 7.6 45.7 -86.1 -3.39
09:32 1018 30.06 847 25.01 18.8 65.9 48 7.6 45.6 -86.1 -3.39
09:33 1018 30.06 847 25.01 18.8 65.8 49 8.1 46.6 -86 -3.386
09:34 1018 30.06 847 25.01 18.9 65.9 49 8 46.5 -86 -3.386
09:35 1018 30.06 847 25.01 18.9 66 48 7.8 46.1 -86 -3.386
09:36 1018 30.06 847 25.01 18.9 65.9 51 8.7 47.7 -86 -3.386
09:37 1018 30.06 847 25.01 19 66.1 52 8.9 48 -85.9 -3.382
09:38 1018 30.06 847 25.01 19.2 66.5 44 6.9 44.5 -85.9 -3.382
09:39 1018 30.06 847 25.01 19.1 66.4 44 6.7 44 -85.9 -3.382
09:40 1018 30.06 847 25.01 19.2 66.5 43 6.4 43.5 -85.9 -3.382
09:41 1018 30.06 847 25.01 19.2 66.6 47 7.8 46 -85.8 -3.378
09:42 1018 30.06 847 25.01 19.2 66.6 47 7.8 46 -85.8 -3.378
09:43 1018 30.06 847 25.01 19.1 66.3 44 6.7 44.1 -85.8 -3.378
09:44 1018 30.06 847 25.01 19.1 66.3 44 6.7 44.1 -85.8 -3.378
09:45 1018 30.06 847 25.01 19 66.2 46 7.2 44.9 -85.7 -3.374
09:46 1018 30.06 847 25.01 19 66.2 42 6.1 43 -85.7 -3.374
09:47 1018 30.06 847 25.01 19 66.2 44 6.6 43.9 -85.7 -3.374
09:48 1018 30.06 847 25.01 19.1 66.3 44 6.5 43.7 -85.7 -3.374
09:49 1018 30.06 847 25.01 19.1 66.4 42 6.1 42.9 -85.7 -3.374
09:50 1018 30.06 847 25.01 19.1 66.4 43 6.4 43.4 -85.7 -3.374
09:51 1018 30.06 847 25.01 19 66.2 45 6.9 44.3 -85.7 -3.374
09:52 1018 30.06 847 25.01 19.2 66.5 50 8.7 47.6 -85.7 -3.374
09:53 1018 30.06 847 25.01 19.2 66.5 47 7.8 46.1 -85.7 -3.374
09:54 1018 30.06 847 25.01 19.3 66.7 44 6.9 44.5 -85.7 -3.374
09:55 1018 30.06 847 25.01 19.4 66.9 43 6.8 44.2 -85.6 -3.37
09:56 1018 30.06 847 25.01 19.3 66.8 43 6.5 43.7 -85.6 -3.37
09:57 1018 30.06 847 25.01 19.4 66.9 43 6.6 44 -85.6 -3.37
09:58 1018 30.06 847 25.01 19.5 67 45 7.3 45.1 -85.5 -3.366
09:59 1018 30.06 847 25.01 19.5 67.2 50 8.9 48 -85.5 -3.366
10:00 1018 30.06 847 25.01 19.7 67.4 45 7.5 45.5 -85.5 -3.366
10:01 1018 30.06 847 25.01 19.7 67.4 44 7.3 45.1 -85.4 -3.362
10:02 1018 30.06 847 25.01 19.7 67.4 42 6.6 43.9 -85.4 -3.362
10:03 1018 30.06 847 25.01 19.7 67.5 43 6.9 44.4 -85.4 -3.362
10:04 1018 30.06 847 25.01 19.7 67.5 41 6.3 43.3 -85.3 -3.358
10:05 1018 30.06 847 25.01 19.7 67.4 48 8.4 47.2 -85.3 -3.358
10:06 1018 30.06 847 25.01 19.8 67.6 42 6.5 43.8 -85.3 -3.358
10:07 1018 30.06 847 25.01 19.9 67.8 46 8.1 46.5 -85.3 -3.358
10:08 1018 30.06 847 25.01 20 68 45 8 46.4 -85.2 -3.354
10:09 1018 30.06 847 25.01 20.2 68.4 40 6.4 43.6 -85.2 -3.354
10:10 1018 30.06 847 25.01 20.3 68.5 41 6.7 44.1 -85.1 -3.35
10:11 1018 30.06 847 25.01 20.3 68.5 41 6.9 44.5 -85.1 -3.35
10:12 1018 30.06 847 25.01 20.4 68.8 40 6.6 43.9 -85.1 -3.35
10:13 1018 30.06 847 25.01 20.7 69.2 43 7.7 45.9 -85.1 -3.35
10:14 1018 30.06 847 25.01 20.8 69.5 40 6.9 44.4 -85 -3.346
10:15 1018 30.06 847 25.01 21 69.8 40 6.9 44.4 -85 -3.346
10:16 1018 30.06 847 25.01 21.1 69.9 42 7.9 46.2 -85 -3.346
10:17 1018 30.06 847 25.01 21.2 70.2 39 6.8 44.2 -84.9 -3.343
10:18 1018 30.06 847 25.01 21.2 70.1 40 7.3 45.2 -84.9 -3.343
10:19 1018 30.06 847 25.01 21 69.8 41 7.4 45.2 -84.9 -3.343
10:20 1018 30.06 847 25.01 20.8 69.5 39 6.5 43.6 -85 -3.346
10:21 1018 30.06 847 25.01 20.6 69.1 41 6.9 44.5 -85 -3.346
10:22 1018 30.06 847 25.01 20.5 68.9 44 8 46.5 -85.1 -3.35
10:23 1018 30.06 847 25.01 20.5 68.9 42 7.2 44.9 -85.2 -3.354
10:24 1018 30.06 847 25.01 20.5 69 40 6.5 43.6 -85.2 -3.354
10:25 1018 30.06 847 25.01 20.5 68.9 40 6.7 44.1 -85.3 -3.358
10:26 1018 30.06 847 25.01 20.6 69.1 40 6.8 44.2 -85.3 -3.358
10:27 1018 30.06 847 25.01 20.7 69.3 38 6.3 43.3 -85.2 -3.354
10:28 1018 30.06 847 25.01 20.8 69.5 43 7.9 46.3 -85.2 -3.354
10:29 1018 30.06 847 25.01 20.9 69.6 45 8.7 47.7 -85.2 -3.354
10:30 1018 30.06 847 25.01 21 69.8 40 7 44.5 -85.2 -3.354
10:31 1018 30.06 847 25.01 21.1 70 39 6.9 44.4 -85.2 -3.354
10:32 1018 30.06 847 25.01 21.1 69.9 43 8.2 46.8 -85.2 -3.354
10:33 1018 30.06 847 25.01 21.2 70.2 46 9.4 48.9 -85.2 -3.354
10:34 1018 30.06 847 25.01 21.3 70.4 39 7 44.6 -85.2 -3.354
10:35 1018 30.06 847 25.01 21.5 70.7 39 7.3 45.1 -85.1 -3.35
10:36 1018 30.06 847 25.01 21.6 70.9 42 8.2 46.7 -85.1 -3.35
10:37 1018 30.06 847 25.01 21.8 71.2 38 7 44.5 -85.1 -3.35
10:38 1018 30.06 847 25.01 21.8 71.2 39 7.3 45.2 -85.1 -3.35
10:39 1018 30.06 847 25.01 21.7 71 42 8.2 46.8 -85.1 -3.35
10:40 1018 30.06 847 25.01 21.5 70.8 41 7.8 46.1 -85.1 -3.35
10:41 1018 30.06 847 25.01 21.4 70.5 43 8.3 47 -85.1 -3.35
10:42 1017 30.03 847 25.01 21.3 70.3 44 8.6 47.5 -85.1 -3.35
10:43 1017 30.03 847 25.01 21.2 70.2 43 8.3 46.9 -85.1 -3.35
10:44 1017 30.03 847 25.01 21.1 70 40 7.3 45.1 -85.1 -3.35
10:45 1017 30.03 847 25.01 21.1 69.9 41 7.3 45.2 -85.1 -3.35
10:46 1017 30.03 847 25.01 21.1 69.9 40 7 44.5 -85.1 -3.35
10:47 1018 30.06 847 25.01 21.1 70 39 6.9 44.4 -85.1 -3.35
10:48 1018 30.06 847 25.01 21.2 70.1 42 7.9 46.2 -85 -3.346
10:49 1017 30.03 847 25.01 21.2 70.2 39 6.8 44.3 -85 -3.346
10:50 1017 30.03 847 25.01 21.3 70.4 42 8.1 46.5 -84.9 -3.343
10:51 1017 30.03 847 25.01 21.4 70.5 38 6.6 43.9 -84.9 -3.343
10:52 1017 30.03 847 25.01 21.5 70.7 40 7.4 45.2 -84.8 -3.339
10:53 1017 30.03 847 25.01 21.6 70.9 40 7.7 45.8 -84.8 -3.339
10:54 1017 30.03 847 25.01 21.6 71 39 7.4 45.3 -84.7 -3.335
10:55 1017 30.03 847 25.01 21.6 70.8 41 8 46.4 -84.7 -3.335
10:56 1017 30.03 847 25.01 21.5 70.8 38 6.9 44.4 -84.7 -3.335
10:57 1017 30.03 847 25.01 21.5 70.6 40 7.6 45.7 -84.7 -3.335
10:58 1017 30.03 847 25.01 21.4 70.6 43 8.6 47.5 -84.7 -3.335
10:59 1017 30.03 847 25.01 21.5 70.6 39 7.1 44.8 -84.7 -3.335
11:00 1017 30.03 847 25.01 21.5 70.7 38 6.6 43.9 -84.6 -3.331
11:01 1017 30.03 847 25.01 21.5 70.8 38 6.8 44.2 -84.5 -3.327
11:02 1017 30.03 847 25.01 21.8 71.2 43 8.8 47.8 -84.4 -3.323
11:03 1017 30.03 847 25.01 21.9 71.5 38 7.2 45 -84.4 -3.323
11:04 1017 30.03 847 25.01 21.9 71.4 42 8.4 47.2 -84.3 -3.319
11:05 1017 30.03 847 25.01 22 71.6 42 8.5 47.3 -84.3 -3.319
11:06 1017 30.03 847 25.01 22.1 71.7 40 8.1 46.7 -84.3 -3.319
11:07 1017 30.03 847 25.01 22.2 71.9 40 8 46.5 -84.3 -3.319
11:08 1017 30.03 847 25.01 22.4 72.3 43 9.2 48.6 -84.2 -3.315
11:09 1017 30.03 847 25.01 22.6 72.6 40 8.4 47.1 -84.2 -3.315
11:10 1017 30.03 847 25.01 22.5 72.4 37 7.2 45 -84.1 -3.311
11:11 1017 30.03 847 25.01 22.3 72.2 43 9.2 48.6 -84.1 -3.311
11:12 1017 30.03 847 25.01 22.3 72.2 39 7.7 45.9 -84.1 -3.311
11:13 1017 30.03 847 25.01 22.3 72.1 37 7.1 44.8 -84.1 -3.311
11:14 1017 30.03 847 25.01 22.4 72.3 37 7.2 45 -84 -3.307
11:15 1017 30.03 847 25.01 22.5 72.4 43 9.3 48.7 -84 -3.307
11:16 1017 30.03 846 24.98 22.6 72.6 38 7.7 45.8 -83.9 -3.303
11:17 1017 30.03 846 24.98 22.5 72.5 40 8.5 47.2 -83.9 -3.303
11:18 1017 30.03 846 24.98 22.4 72.4 39 7.9 46.3 -83.8 -3.299
11:19 1017 30.03 846 24.98 22.4 72.3 45 10 50.1 -83.8 -3.299
11:20 1017 30.03 846 24.98 22.4 72.4 37 7.3 45.1 -83.8 -3.299
11:21 1017 30.03 846 24.98 22.4 72.4 39 8.1 46.6 -83.8 -3.299
11:22 1017 30.03 846 24.98 22.5 72.5 41 8.8 47.9 -83.7 -3.295
11:23 1017 30.03 846 24.98 22.4 72.4 40 8.4 47.1 -83.7 -3.295
11:24 1017 30.03 846 24.98 22.4 72.3 38 7.5 45.4 -83.7 -3.295
11:25 1017 30.03 846 24.98 22.3 72.2 39 8.1 46.5 -83.6 -3.291
11:26 1017 30.03 846 24.98 22.4 72.3 38 7.7 45.9 -83.6 -3.291
11:27 1017 30.03 846 24.98 22.4 72.3 36 6.9 44.4 -83.6 -3.291
11:28 1017 30.03 846 24.98 22.4 72.3 40 8.2 46.7 -83.6 -3.291
11:29 1017 30.03 846 24.98 22.5 72.5 37 7.5 45.5 -83.5 -3.287
11:30 1017 30.03 846 24.98 22.7 72.9 41 9 48.2 -83.5 -3.287
11:31 1017 30.03 846 24.98 22.8 73 39 8.1 46.7 -83.4 -3.283
11:32 1017 30.03 846 24.98 22.7 72.9 40 8.8 47.8 -83.4 -3.283
11:33 1017 30.03 846 24.98 22.6 72.8 37 7.6 45.6 -83.4 -3.283
11:34 1017 30.03 846 24.98 22.6 72.6 36 7 44.6 -83.4 -3.283
11:35 1017 30.03 846 24.98 22.5 72.6 39 8.1 46.5 -83.3 -3.28
11:36 1017 30.03 846 24.98 22.7 72.8 36 6.9 44.5 -83.3 -3.28
11:37 1017 30.03 846 24.98 22.7 72.9 40 8.8 47.8 -83.2 -3.276
11:38 1017 30.03 846 24.98 22.7 72.8 40 8.6 47.5 -83.2 -3.276
11:39 1017 30.03 846 24.98 22.6 72.8 38 7.7 45.9 -83.2 -3.276
11:40 1017 30.03 846 24.98 22.7 72.8 41 8.8 47.9 -83.1 -3.272
11:41 1017 30.03 846 24.98 22.8 73 40 8.6 47.4 -83.1 -3.272
11:42 1017 30.03 846 24.98 22.8 73.1 39 8.2 46.7 -83.1 -3.272
11:43 1017 30.03 846 24.98 22.9 73.2 42 9.3 48.8 -83 -3.268
11:44 1017 30.03 846 24.98 23 73.3 36 7.3 45.1 -83 -3.268
11:45 1017 30.03 846 24.98 23 73.4 40 9 48.2 -82.9 -3.264
11:46 1017 30.03 846 24.98 23.2 73.7 38 8.1 46.6 -82.9 -3.264
11:47 1017 30.03 846 24.98 23.3 73.9 39 8.6 47.5 -82.8 -3.26
11:48 1017 30.03 846 24.98 23.3 74 42 9.8 49.6 -82.8 -3.26
11:49 1017 30.03 846 24.98 23.4 74.1 37 8.2 46.7 -82.8 -3.26
11:50 1017 30.03 846 24.98 23.4 74.1 33 6.3 43.4 -82.7 -3.256
11:51 1017 30.03 846 24.98 23.4 74 35 7.2 44.9 -82.7 -3.256
11:52 1017 30.03 846 24.98 23.2 73.8 43 10 50.1 -82.6 -3.252
11:53 1017 30.03 846 24.98 23.2 73.7 41 9.3 48.7 -82.6 -3.252
11:54 1017 30.03 846 24.98 23.1 73.7 38 8.3 46.9 -82.6 -3.252
11:55 1017 30.03 846 24.98 23.1 73.6 37 7.8 46 -82.5 -3.248
11:56 1017 30.03 846 24.98 23 73.4 35 7.1 44.8 -82.5 -3.248
11:57 1017 30.03 846 24.98 23.1 73.5 36 7.4 45.3 -82.5 -3.248
11:58 1017 30.03 846 24.98 23.2 73.7 36 7.6 45.8 -82.4 -3.244
11:59 1017 30.03 846 24.98 23.2 73.7 38 8.1 46.6 -82.4 -3.244
12:00 1017 30.03 846 24.98 23.2 73.8 33 6.4 43.4 -82.4 -3.244
12:01 1017 30.03 846 24.98 23.3 73.9 35 7.1 44.8 -82.4 -3.244
12:02 1017 30.03 846 24.98 23.4 74 36 7.6 45.7 -82.3 -3.24
12:03 1017 30.03 846 24.98 23.4 74 37 8 46.4 -82.3 -3.24
12:04 1017 30.03 846 24.98 23.3 73.9 39 8.8 47.9 -82.3 -3.24
12:05 1017 30.03 846 24.98 23.4 74.1 34 6.9 44.4 -82.2 -3.236
12:06 1017 30.03 846 24.98 23.4 74 32 5.7 42.3 -82.2 -3.236
12:07 1017 30.03 846 24.98 23.4 74 36 7.5 45.5 -82.2 -3.236
12:08 1017 30.03 846 24.98 23.4 74.1 34 6.7 44.1 -82.2 -3.236
12:09 1017 30.03 846 24.98 23.5 74.2 35 7.2 44.9 -82.1 -3.232
12:10 1017 30.03 846 24.98 23.7 74.6 39 8.9 48.1 -82.1 -3.232
12:11 1017 30.03 846 24.98 23.8 74.9 35 7.8 46.1 -82 -3.228
12:12 1017 30.03 846 24.98 23.8 74.9 35 7.4 45.4 -82 -3.228
12:13 1017 30.03 846 24.98 23.8 74.8 31 6 42.8 -82 -3.228
12:14 1017 30.03 846 24.98 23.7 74.7 28 4.4 39.9 -81.9 -3.224
12:15 1017 30.03 846 24.98 23.7 74.6 30 5.3 41.5 -81.9 -3.224
12:16 1017 30.03 846 24.98 23.8 74.8 33 6.6 43.9 -81.9 -3.224
12:17 1017 30.03 846 24.98 23.7 74.7 36 7.8 46.1 -81.9 -3.224
12:18 1017 30.03 846 24.98 23.7 74.7 30 5.4 41.8 -81.9 -3.224
12:19 1017 30.03 846 24.98 23.7 74.7 34 7 44.5 -81.8 -3.22
12:20 1017 30.03 846 24.98 23.9 75 30 5.2 41.4 -81.8 -3.22
12:21 1017 30.03 846 24.98 23.9 75.1 31 5.9 42.6 -81.8 -3.22
12:22 1017 30.03 846 24.98 24.1 75.3 32 6.5 43.7 -81.7 -3.217
12:23 1017 30.03 846 24.98 24 75.2 34 7.4 45.4 -81.7 -3.217
12:24 1017 30.03 846 24.98 24 75.1 32 6.6 44 -81.7 -3.217
12:25 1017 30.03 846 24.98 23.9 75.1 29 5.2 41.4 -81.6 -3.213
12:26 1017 30.03 846 24.98 23.8 74.9 29 4.7 40.5 -81.6 -3.213
12:27 1017 30.03 846 24.98 23.8 74.8 32 6.4 43.6 -81.6 -3.213
12:28 1017 30.03 846 24.98 23.8 74.8 28 4.6 40.2 -81.6 -3.213
12:29 1016 30 846 24.98 23.8 74.9 30 5.5 41.8 -81.5 -3.209
12:30 1016 30 846 24.98 23.9 75 33 6.9 44.4 -81.5 -3.209
12:31 1017 30.03 846 24.98 24.1 75.3 31 5.9 42.6 -81.4 -3.205
12:32 1017 30.03 846 24.98 24.2 75.6 31 6.1 43 -81.4 -3.205
12:33 1016 30 846 24.98 24.2 75.5 34 7.4 45.3 -81.4 -3.205
12:34 1016 30 846 24.98 24.2 75.5 30 5.6 42 -81.3 -3.201
12:35 1016 30 846 24.98 24.2 75.5 33 7.1 44.8 -81.3 -3.201
12:36 1016 30 846 24.98 24.2 75.6 28 4.9 40.8 -81.3 -3.201
12:37 1016 30 846 24.98 24.1 75.5 30 5.7 42.2 -81.3 -3.201
12:38 1016 30 846 24.98 24.2 75.5 29 5.4 41.6 -81.2 -3.197
12:39 1016 30 846 24.98 24.2 75.5 31 6.2 43.2 -81.2 -3.197
12:40 1016 30 846 24.98 24.2 75.6 31 6.2 43.2 -81.1 -3.193
12:41 1016 30 846 24.98 24.3 75.7 34 7.8 46 -81.1 -3.193
12:42 1016 30 846 24.98 24.4 75.9 31 6.2 43.1 -81.1 -3.193
12:43 1016 30 846 24.98 24.4 75.8 27 4.6 40.3 -81.1 -3.193
12:44 1016 30 846 24.98 24.3 75.7 31 6.3 43.3 -81 -3.189
12:45 1016 30 846 24.98 24.3 75.7 30 5.8 42.5 -81 -3.189
12:46 1016 30 846 24.98 24.2 75.6 30 5.6 42.1 -81 -3.189
12:47 1016 30 846 24.98 24.2 75.6 32 6.5 43.7 -80.9 -3.185
12:48 1016 30 846 24.98 24.3 75.8 34 7.7 45.8 -80.9 -3.185
12:49 1016 30 846 24.98 24.4 76 27 4.6 40.2 -80.9 -3.185
12:50 1016 30 846 24.98 24.3 75.8 34 7.8 46 -80.9 -3.185
12:51 1016 30 846 24.98 24.3 75.8 28 4.8 40.6 -80.8 -3.181
12:52 1016 30 846 24.98 24.2 75.6 29 5.4 41.6 -80.8 -3.181
12:53 1016 30 846 24.98 24.3 75.7 30 5.9 42.5 -80.8 -3.181
12:54 1016 30 846 24.98 24.3 75.8 27 4.4 39.8 -80.7 -3.177
12:55 1016 30 846 24.98 24.4 75.9 31 6.6 43.9 -80.7 -3.177
12:56 1016 30 846 24.98 24.6 76.2 30 6.2 43.1 -80.7 -3.177
12:57 1016 30 846 24.98 24.6 76.2 35 8.4 47.1 -80.6 -3.173
12:58 1016 30 846 24.98 24.6 76.2 33 7.5 45.6 -80.6 -3.173
12:59 1016 30 846 24.98 24.6 76.3 30 6 42.7 -80.6 -3.173
13:00 1016 30 846 24.98 24.5 76.2 32 7.1 44.7 -80.6 -3.173
13:01 1016 30 846 24.98 24.6 76.3 38 9.5 49.1 -80.5 -3.169
13:02 1016 30 846 24.98 24.8 76.6 28 5.5 42 -80.5 -3.169
13:03 1016 30 845 24.95 24.8 76.6 29 5.8 42.4 -80.5 -3.169
13:04 1016 30 845 24.95 24.6 76.3 28 5.3 41.5 -80.5 -3.169
13:05 1016 30 845 24.95 24.5 76 29 5.3 41.6 -80.4 -3.165
13:06 1016 30 845 24.95 24.4 75.9 33 7.1 44.8 -80.4 -3.165
13:07 1016 30 845 24.95 24.5 76.1 34 7.9 46.3 -80.4 -3.165
13:08 1016 30 845 24.95 24.6 76.3 29 5.7 42.3 -80.4 -3.165
13:09 1016 30 845 24.95 24.7 76.5 28 5.5 41.9 -80.3 -3.161
13:10 1016 30 845 24.95 24.7 76.5 27 5 40.9 -80.3 -3.161
13:11 1016 30 845 24.95 24.7 76.5 28 5.1 41.2 -80.3 -3.161
13:12 1016 30 845 24.95 24.7 76.5 29 5.5 42 -80.3 -3.161
13:13 1016 30 845 24.95 24.7 76.5 33 7.7 45.9 -80.3 -3.161
13:14 1016 30 845 24.95 24.9 76.8 31 6.7 44 -80.2 -3.157
13:15 1016 30 845 24.95 25.1 77.1 29 6 42.9 -80.2 -3.157
13:16 1016 30 845 24.95 25.1 77.2 32 7.5 45.5 -80.2 -3.157
13:17 1016 30 845 24.95 25.1 77.2 28 5.7 42.3 -80.2 -3.157
13:18 1016 30 845 24.95 25.1 77.1 26 4.7 40.5 -80.2 -3.157
13:19 1016 30 845 24.95 25.1 77.2 27 5.2 41.4 -80.1 -3.154
13:20 1016 30 845 24.95 25.1 77.1 28 5.3 41.5 -80.1 -3.154
13:21 1016 30 845 24.95 25 77 28 5.6 42.2 -80.1 -3.154
13:22 1016 30 845 24.95 25 76.9 26 4.4 39.9 -80.1 -3.154
13:23 1016 30 845 24.95 25 77 28 5.2 41.4 -80.1 -3.154
13:24 1016 30 845 24.95 25.2 77.3 27 4.9 40.9 -80 -3.15
13:25 1016 30 845 24.95 25.3 77.5 26 4.5 40.2 -80 -3.15
13:26 1016 30 845 24.95 25.3 77.6 29 6.3 43.3 -80 -3.15
13:27 1016 30 845 24.95 25.3 77.5 26 4.8 40.7 -80 -3.15
13:28 1016 30 845 24.95 25.2 77.4 32 7.4 45.3 -80 -3.15
13:29 1016 30 845 24.95 25.3 77.5 28 5.6 42 -79.9 -3.146
13:30 1016 30 845 24.95 25.3 77.5 33 8 46.4 -79.9 -3.146
13:31 1016 30 845 24.95 25.1 77.3 26 4.7 40.5 -79.9 -3.146
13:32 1016 30 845 24.95 25 77 26 4.6 40.3 -79.9 -3.146
13:33 1016 30 845 24.95 25 76.9 27 4.9 40.7 -79.9 -3.146
13:34 1016 30 845 24.95 25 77 29 6 42.8 -79.9 -3.146
13:35 1016 30 845 24.95 25.1 77.2 27 5.2 41.3 -79.8 -3.142
13:36 1016 30 845 24.95 25.2 77.4 28 5.5 41.9 -79.8 -3.142
13:37 1016 30 845 24.95 25.3 77.6 29 6.4 43.5 -79.8 -3.142
13:38 1016 30 845 24.95 25.4 77.8 29 6.3 43.4 -79.8 -3.142
13:39 1016 30 845 24.95 25.4 77.8 26 4.6 40.4 -79.8 -3.142
13:40 1016 30 845 24.95 25.3 77.5 28 5.6 42 -79.8 -3.142
13:41 1016 30 845 24.95 25.3 77.5 26 4.8 40.6 -79.7 -3.138
13:42 1016 30 845 24.95 25.2 77.4 28 5.6 42.1 -79.7 -3.138
13:43 1016 30 845 24.95 25.3 77.6 27 5.3 41.6 -79.7 -3.138
13:44 1016 30 845 24.95 25.3 77.5 26 4.8 40.6 -79.7 -3.138
13:45 1016 30 845 24.95 25.3 77.5 30 6.8 44.3 -79.7 -3.138
13:46 1016 30 845 24.95 25.4 77.7 27 5.4 41.8 -79.7 -3.138
13:47 1016 30 845 24.95 25.3 77.5 27 5.4 41.7 -79.6 -3.134
13:48 1016 30 845 24.95 25.2 77.3 29 6 42.8 -79.6 -3.134
13:49 1016 30 845 24.95 25 77.1 26 4.3 39.7 -79.6 -3.134
13:50 1016 30 845 24.95 25 77.1 28 5.6 42 -79.6 -3.134
13:51 1016 30 845 24.95 25.2 77.3 26 4.7 40.5 -79.6 -3.134
13:52 1016 30 845 24.95 25.3 77.5 28 5.8 42.4 -79.6 -3.134
13:53 1016 30 845 24.95 25.5 77.9 25 4.5 40.1 -79.5 -3.13
13:54 1016 30 845 24.95 25.7 78.3 25 4.7 40.4 -79.5 -3.13
13:55 1016 30 845 24.95 25.9 78.7 27 5.5 41.9 -79.5 -3.13
13:56 1016 30 845 24.95 26.1 78.9 28 6.4 43.6 -79.5 -3.13
13:57 1016 30 845 24.95 26 78.7 26 5.4 41.8 -79.5 -3.13
13:58 1016 30 845 24.95 25.9 78.6 29 6.9 44.5 -79.4 -3.126
13:59 1016 30 845 24.95 25.9 78.6 25 4.8 40.6 -79.4 -3.126
14:00 1016 30 845 24.95 25.8 78.5 24 4.1 39.5 -79.4 -3.126
14:01 1016 30 845 24.95 25.7 78.3 25 4.3 39.8 -79.4 -3.126
14:02 1016 30 845 24.95 25.7 78.3 28 5.9 42.7 -79.4 -3.126
14:03 1016 30 845 24.95 25.9 78.6 24 4 39.2 -79.4 -3.126
14:04 1016 30 845 24.95 25.9 78.7 24 4.2 39.5 -79.3 -3.122
14:05 1016 30 845 24.95 26 78.9 25 4.9 40.8 -79.3 -3.122
14:06 1016 30 845 24.95 26.1 79.1 27 5.7 42.3 -79.3 -3.122
14:07 1016 30 845 24.95 26 78.9 28 6.5 43.6 -79.3 -3.122
14:08 1016 30 845 24.95 26 78.8 26 5.5 41.9 -79.2 -3.118
14:09 1016 30 845 24.95 26.1 79 25 5 41 -79.2 -3.118
14:10 1016 30 845 24.95 26.2 79.2 23 4 39.1 -79.2 -3.118
14:11 1016 30 845 24.95 26.3 79.4 25 5.2 41.3 -79.2 -3.118
14:12 1016 30 845 24.95 26.3 79.3 23 3.6 38.5 -79.2 -3.118
14:13 1016 30 845 24.95 26.1 78.9 25 4.6 40.3 -79.1 -3.114
14:14 1016 30 845 24.95 25.9 78.7 23 3.2 37.8 -79.1 -3.114
14:15 1016 30 845 24.95 26 78.9 26 5.4 41.7 -79.1 -3.114
14:16 1016 30 845 24.95 26.1 79.1 26 5.3 41.5 -79 -3.11
14:17 1016 30 845 24.95 26.2 79.1 27 5.8 42.4 -79 -3.11
14:18 1016 30 845 24.95 26.2 79.2 24 4.1 39.3 -79 -3.11
14:19 1016 30 845 24.95 26.4 79.4 22 3.2 37.8 -78.9 -3.106
14:20 1016 30 845 24.95 26.5 79.6 22 3.6 38.4 -78.9 -3.106
14:21 1016 30 845 24.95 26.5 79.7 25 4.9 40.8 -78.8 -3.102
14:22 1015 29.97 845 24.95 26.6 79.8 25 5.5 41.8 -78.8 -3.102
14:23 1015 29.97 845 24.95 26.5 79.8 23 4.1 39.4 -78.7 -3.098
14:24 1015 29.97 845 24.95 26.5 79.7 27 6.2 43.1 -78.7 -3.098
14:25 1015 29.97 845 24.95 26.5 79.8 26 5.6 42 -78.7 -3.098
14:26 1015 29.97 845 24.95 26.5 79.6 27 6.1 43 -78.7 -3.098
14:27 1015 29.97 845 24.95 26.4 79.6 24 4.6 40.3 -78.6 -3.094
14:28 1015 29.97 845 24.95 26.4 79.4 24 4.4 40 -78.6 -3.094
14:29 1015 29.97 845 24.95 26.3 79.4 27 5.9 42.6 -78.5 -3.091
14:30 1015 29.97 845 24.95 26.4 79.5 23 3.8 38.9 -78.5 -3.091
14:31 1015 29.97 845 24.95 26.5 79.6 24 4.4 40 -78.4 -3.087
14:32 1015 29.97 845 24.95 26.4 79.6 23 3.8 38.9 -78.4 -3.087
14:33 1015 29.97 845 24.95 26.3 79.4 23 3.6 38.5 -78.3 -3.083
14:34 1015 29.97 845 24.95 26.3 79.3 23 3.6 38.5 -78.3 -3.083
14:35 1015 29.97 844 24.92 26.3 79.3 25 4.9 40.7 -78.3 -3.083
14:36 1015 29.97 844 24.92 26.4 79.4 25 4.9 40.8 -78.2 -3.079
14:37 1015 29.97 844 24.92 26.5 79.6 25 4.9 40.8 -78.2 -3.079
14:38 1015 29.97 844 24.92 26.6 79.8 26 5.5 42 -78.1 -3.075
14:39 1015 29.97 844 24.92 26.8 80.2 22 3.7 38.7 -78 -3.071
14:40 1015 29.97 844 24.92 26.9 80.4 24 5.2 41.3 -78 -3.071
14:41 1015 29.97 844 24.92 27 80.5 23 4.6 40.3 -77.9 -3.067
14:42 1015 29.97 844 24.92 27.1 80.8 26 6.2 43.2 -77.9 -3.067
14:43 1015 29.97 844 24.92 27.2 81 23 4.4 40 -77.8 -3.063
14:44 1015 29.97 844 24.92 27.2 80.9 25 5.7 42.2 -77.8 -3.063
14:45 1015 29.97 844 24.92 27 80.6 24 4.7 40.5 -77.8 -3.063
14:46 1015 29.97 844 24.92 26.8 80.3 22 3.9 39.1 -77.7 -3.059
14:47 1015 29.97 844 24.92 26.6 80 26 5.7 42.2 -77.7 -3.059
14:48 1015 29.97 844 24.92 26.6 79.9 25 5.3 41.5 -77.6 -3.055
14:49 1015 29.97 844 24.92 26.7 80.1 24 4.5 40.2 -77.6 -3.055
14:50 1015 29.97 844 24.92 26.9 80.5 27 6.5 43.7 -77.5 -3.051
14:51 1015 29.97 844 24.92 27.1 80.8 27 6.9 44.5 -77.4 -3.047
14:52 1015 29.97 844 24.92 27.2 81 25 5.7 42.3 -77.4 -3.047
14:53 1015 29.97 844 24.92 27.3 81.2 20 2.6 36.8 -77.3 -3.043
14:54 1015 29.97 844 24.92 27.4 81.3 22 4.1 39.4 -77.3 -3.043
14:55 1015 29.97 844 24.92 27.4 81.3 21 3.4 38 -77.2 -3.039
14:56 1015 29.97 844 24.92 27.3 81.2 18 1.6 34.8 -77.2 -3.039
14:57 1015 29.97 844 24.92 27.4 81.2 19 2.3 36.1 -77.1 -3.035
14:58 1015 29.97 844 24.92 27.5 81.4 24 5.5 41.9 -77.1 -3.035
14:59 1015 29.97 844 24.92 27.5 81.5 22 3.9 39 -77 -3.031
15:00 1015 29.97 844 24.92 27.5 81.4 20 3.1 37.7 -77 -3.031
15:01 1015 29.97 844 24.92 27.4 81.2 21 3.3 38 -77 -3.031
15:02 1015 29.97 844 24.92 27.3 81.1 19 2.1 35.7 -76.9 -3.028
15:03 1015 29.97 844 24.92 27.3 81.1 23 4.6 40.3 -76.8 -3.024
15:04 1015 29.97 844 24.92 27.3 81.2 21 3.6 38.5 -76.8 -3.024
15:05 1015 29.97 844 24.92 27.4 81.3 20 3 37.3 -76.7 -3.02
15:06 1015 29.97 844 24.92 27.4 81.3 21 3.4 38 -76.6 -3.016
15:07 1015 29.97 844 24.92 27.4 81.4 19 2.4 36.4 -76.6 -3.016
15:08 1015 29.97 844 24.92 27.4 81.3 20 2.7 36.8 -76.6 -3.016
15:09 1015 29.97 844 24.92 27.3 81.2 21 3.6 38.6 -76.5 -3.012
15:10 1015 29.97 844 24.92 27.4 81.3 21 3.6 38.5 -76.5 -3.012
15:11 1015 29.97 844 24.92 27.3 81.2 22 4.4 39.9 -76.4 -3.008
15:12 1015 29.97 844 24.92 27.3 81.1 22 3.9 39 -76.4 -3.008
15:13 1015 29.97 844 24.92 27.2 81 24 5.3 41.6 -76.4 -3.008
15:14 1015 29.97 844 24.92 27.2 81 23 4.5 40.2 -76.3 -3.004
15:15 1015 29.97 844 24.92 27.2 81 21 3.1 37.6 -76.3 -3.004
15:16 1015 29.97 844 24.92 27.2 81 23 4.3 39.8 -76.3 -3.004
15:17 1015 29.97 844 24.92 27.2 81 23 4.5 40.1 -76.2 -3
15:18 1015 29.97 844 24.92 27.3 81.1 23 4.5 40.1 -76.2 -3
15:19 1015 29.97 844 24.92 27.3 81.1 23 4.5 40.1 -76.1 -2.996
15:20 1015 29.97 844 24.92 27.3 81.2 22 4.3 39.7 -76.1 -2.996
15:21 1015 29.97 844 24.92 27.4 81.2 23 4.4 40 -76.1 -2.996
15:22 1015 29.97 844 24.92 27.4 81.2 19 2 35.7 -76.1 -2.996
15:23 1015 29.97 844 24.92 27.4 81.3 21 3.1 37.6 -76 -2.992
15:24 1015 29.97 844 24.92 27.4 81.4 20 2.9 37.2 -76 -2.992
15:25 1015 29.97 844 24.92 27.5 81.5 20 2.8 37.1 -75.9 -2.988
15:26 1015 29.97 844 24.92 27.5 81.5 18 1.6 34.8 -75.9 -2.988
15:27 1015 29.97 844 24.92 27.4 81.3 20 2.9 37.3 -75.9 -2.988
15:28 1015 29.97 844 24.92 27.4 81.3 20 3.1 37.5 -75.9 -2.988
15:29 1015 29.97 844 24.92 27.4 81.3 21 3.2 37.7 -75.8 -2.984
15:30 1015 29.97 844 24.92 27.5 81.4 19 1.8 35.2 -75.8 -2.984
15:31 1015 29.97 844 24.92 27.6 81.6 22 4.1 39.4 -75.8 -2.984
15:32 1015 29.97 844 24.92 27.6 81.7 21 3.6 38.4 -75.7 -2.98
15:33 1015 29.97 844 24.92 27.7 81.8 22 4.6 40.3 -75.7 -2.98
15:34 1015 29.97 844 24.92 27.7 81.8 20 3.3 38 -75.7 -2.98
15:35 1014 29.94 844 24.92 27.7 81.8 21 3.7 38.7 -75.7 -2.98
15:36 1015 29.97 844 24.92 27.7 81.8 20 2.9 37.2 -75.6 -2.976
15:37 1014 29.94 844 24.92 27.7 81.9 19 2.3 36.1 -75.6 -2.976
15:38 1014 29.94 844 24.92 27.7 81.9 18 1.5 34.6 -75.6 -2.976
15:39 1014 29.94 844 24.92 27.7 81.8 20 3.3 37.9 -75.6 -2.976
15:40 1015 29.97 844 24.92 27.6 81.6 18 1.7 35.1 -75.6 -2.976
15:41 1015 29.97 844 24.92 27.5 81.6 19 2.5 36.5 -75.5 -2.972
15:42 1014 29.94 844 24.92 27.5 81.5 19 2.2 35.9 -75.5 -2.972
15:43 1014 29.94 844 24.92 27.5 81.5 20 2.9 37.2 -75.5 -2.972
15:44 1014 29.94 844 24.92 27.5 81.5 23 5.1 41.2 -75.4 -2.969
15:45 1014 29.94 844 24.92 27.5 81.4 19 2.2 36 -75.4 -2.969
15:46 1014 29.94 844 24.92 27.5 81.5 21 3.4 38.1 -75.4 -2.969
15:47 1014 29.94 844 24.92 27.5 81.5 20 3 37.4 -75.4 -2.969
15:48 1014 29.94 844 24.92 27.5 81.5 18 1.5 34.7 -75.4 -2.969
15:49 1014 29.94 844 24.92 27.5 81.5 21 3.3 38 -75.3 -2.965
15:50 1014 29.94 844 24.92 27.5 81.4 21 3.2 37.7 -75.3 -2.965
15:51 1014 29.94 844 24.92 27.5 81.4 19 1.9 35.5 -75.3 -2.965
15:52 1014 29.94 844 24.92 27.4 81.3 18 1 33.8 -75.3 -2.965
15:53 1014 29.94 844 24.92 27.4 81.3 17 0.9 33.5 -75.3 -2.965
15:54 1014 29.94 844 24.92 27.3 81.2 19 1.7 35.1 -75.3 -2.965
15:55 1014 29.94 844 24.92 27.3 81.2 17 0.3 32.5 -75.2 -2.961
15:56 1014 29.94 844 24.92 27.4 81.3 20 2.4 36.3 -75.2 -2.961
15:57 1014 29.94 844 24.92 27.5 81.6 17 1 33.8 -75.2 -2.961
15:58 1014 29.94 844 24.92 27.6 81.6 21 3.8 38.9 -75.2 -2.961
15:59 1014 29.94 844 24.92 27.6 81.7 18 1.4 34.6 -75.2 -2.961
16:00 1014 29.94 844 24.92 27.7 81.8 19 2.6 36.6 -75.2 -2.961
16:01 1014 29.94 844 24.92 27.7 81.8 20 3.3 37.9 -75.1 -2.957
16:02 1014 29.94 844 24.92 27.6 81.7 19 2 35.5 -75.1 -2.957
16:03 1014 29.94 843 24.89 27.6 81.7 19 2.2 35.9 -75.1 -2.957
16:04 1014 29.94 843 24.89 27.6 81.7 19 1.9 35.4 -75.1 -2.957
16:05 1014 29.94 843 24.89 27.5 81.6 17 0.3 32.6 -75 -2.953
16:06 1014 29.94 843 24.89 27.5 81.5 21 3.5 38.2 -75 -2.953
16:07 1014 29.94 843 24.89 27.5 81.5 19 1.9 35.4 -75 -2.953
16:08 1014 29.94 843 24.89 27.6 81.7 18 1.4 34.6 -75 -2.953
16:09 1014 29.94 843 24.89 27.6 81.7 16 0 32.1 -75 -2.953
16:10 1014 29.94 843 24.89 27.7 81.8 19 2.2 36 -75 -2.953
16:11 1014 29.94 843 24.89 27.7 81.9 21 3.8 38.8 -74.9 -2.949
16:12 1014 29.94 843 24.89 27.7 81.9 20 3.3 38 -74.9 -2.949
16:13 1014 29.94 843 24.89 27.8 82.1 19 2.6 36.7 -74.9 -2.949
16:14 1014 29.94 843 24.89 27.8 82 21 3.6 38.4 -74.8 -2.945
16:15 1014 29.94 843 24.89 27.8 82 16 -0.4 31.3 -74.8 -2.945
16:16 1014 29.94 843 24.89 27.6 81.7 17 0.4 32.8 -74.8 -2.945
16:17 1014 29.94 843 24.89 27.5 81.5 16 -0 32 -74.8 -2.945
16:18 1014 29.94 843 24.89 27.5 81.4 17 0.2 32.4 -74.8 -2.945
16:19 1014 29.94 843 24.89 27.4 81.3 19 2.1 35.8 -74.8 -2.945
16:20 1014 29.94 843 24.89 27.4 81.4 17 0.9 33.6 -74.8 -2.945
16:21 1014 29.94 843 24.89 27.5 81.4 16 -0.4 31.3 -74.8 -2.945
16:22 1014 29.94 843 24.89 27.4 81.3 17 0.2 32.4 -74.8 -2.945
16:23 1014 29.94 843 24.89 27.4 81.3 19 2.1 35.7 -74.7 -2.941
16:24 1014 29.94 843 24.89 27.4 81.4 16 0 32.1 -74.7 -2.941
16:25 1014 29.94 843 24.89 27.4 81.3 15 -1 30.1 -74.7 -2.941
16:26 1014 29.94 843 24.89 27.4 81.4 16 -0.2 31.6 -74.7 -2.941
16:27 1014 29.94 843 24.89 27.4 81.4 17 0.3 32.6 -74.7 -2.941
16:28 1014 29.94 843 24.89 27.4 81.3 18 1.3 34.4 -74.7 -2.941
16:29 1014 29.94 843 24.89 27.4 81.3 17 0.6 33.1 -74.6 -2.937
16:30 1014 29.94 843 24.89 27.4 81.4 16 0.1 32.2 -74.6 -2.937
16:31 1014 29.94 843 24.89 27.4 81.4 18 1.2 34.1 -74.6 -2.937
16:32 1014 29.94 843 24.89 27.5 81.5 21 3.2 37.8 -74.6 -2.937
16:33 1014 29.94 843 24.89 27.6 81.6 15 -0.7 30.8 -74.6 -2.937
16:34 1014 29.94 843 24.89 27.6 81.7 15 -1.3 29.6 -74.6 -2.937
16:35 1014 29.94 843 24.89 27.6 81.6 17 0.9 33.6 -74.6 -2.937
16:36 1014 29.94 843 24.89 27.6 81.6 16 -0.6 30.9 -74.6 -2.937
16:37 1014 29.94 843 24.89 27.5 81.5 15 -1.5 29.3 -74.6 -2.937
16:38 1014 29.94 843 24.89 27.5 81.4 20 2.6 36.7 -74.6 -2.937
16:39 1014 29.94 843 24.89 27.4 81.4 17 0.5 32.9 -74.6 -2.937
16:40 1014 29.94 843 24.89 27.5 81.4 18 1.4 34.5 -74.5 -2.933
16:41 1014 29.94 843 24.89 27.5 81.5 19 2.5 36.4 -74.5 -2.933
16:42 1014 29.94 843 24.89 27.6 81.6 15 -0.8 30.6 -74.5 -2.933
16:43 1014 29.94 843 24.89 27.6 81.7 17 0.8 33.5 -74.5 -2.933
16:44 1014 29.94 843 24.89 27.6 81.7 17 0.5 32.9 -74.5 -2.933
16:45 1014 29.94 843 24.89 27.6 81.7 17 0.6 33 -74.5 -2.933
16:46 1014 29.94 843 24.89 27.6 81.7 18 1.8 35.3 -74.5 -2.933
16:47 1014 29.94 843 24.89 27.5 81.5 16 0.1 32.2 -74.5 -2.933
16:48 1014 29.94 843 24.89 27.4 81.4 17 0.8 33.4 -74.5 -2.933
16:49 1014 29.94 843 24.89 27.4 81.4 17 0.2 32.4 -74.5 -2.933
16:50 1014 29.94 843 24.89 27.4 81.3 16 0.1 32.1 -74.5 -2.933
16:51 1014 29.94 843 24.89 27.4 81.3 17 0.7 33.3 -74.5 -2.933
16:52 1014 29.94 843 24.89 27.3 81.1 17 0.6 33 -74.5 -2.933
16:53 1014 29.94 843 24.89 27.2 80.9 20 2.2 36 -74.5 -2.933
16:54 1014 29.94 843 24.89 27 80.6 19 1.6 34.9 -74.5 -2.933
16:55 1014 29.94 843 24.89 26.9 80.4 18 0.7 33.2 -74.6 -2.937
16:56 1014 29.94 843 24.89 26.9 80.5 17 0.3 32.6 -74.6 -2.937
16:57 1014 29.94 843 24.89 27 80.6 17 0.4 32.8 -74.6 -2.937
16:58 1014 29.94 843 24.89 27.1 80.8 18 1.3 34.4 -74.6 -2.937
16:59 1014 29.94 843 24.89 27.2 81 19 2.1 35.8 -74.5 -2.933
17:00 1014 29.94 843 24.89 27.3 81.1 19 1.8 35.2 -74.5 -2.933
17:01 1014 29.94 843 24.89 27.4 81.3 19 1.8 35.3 -74.5 -2.933
17:02 1014 29.94 843 24.89 27.5 81.5 18 1.3 34.4 -74.5 -2.933
17:03 1014 29.94 843 24.89 27.6 81.6 19 2 35.6 -74.5 -2.933
17:04 1014 29.94 843 24.89 27.7 81.8 18 1.2 34.2 -74.5 -2.933
17:05 1014 29.94 843 24.89 27.7 81.9 17 0.8 33.4 -74.5 -2.933
17:06 1014 29.94 843 24.89 27.6 81.8 16 0.1 32.2 -74.6 -2.937
17:07 1014 29.94 843 24.89 27.6 81.6 18 1.4 34.6 -74.6 -2.937
17:08 1014 29.94 843 24.89 27.5 81.5 19 2.1 35.7 -74.6 -2.937
17:09 1014 29.94 843 24.89 27.5 81.4 17 0.9 33.6 -74.6 -2.937
17:10 1014 29.94 843 24.89 27.4 81.4 18 1.1 33.9 -74.6 -2.937
17:11 1014 29.94 843 24.89 27.4 81.3 17 0.5 32.9 -74.6 -2.937
17:12 1014 29.94 843 24.89 27.4 81.3 18 1.2 34.1 -74.6 -2.937
17:13 1014 29.94 843 24.89 27.4 81.3 18 0.9 33.7 -74.6 -2.937
17:14 1014 29.94 843 24.89 27.4 81.3 17 0.5 32.9 -74.5 -2.933
17:15 1014 29.94 843 24.89 27.4 81.4 17 0.5 32.8 -74.5 -2.933
17:16 1014 29.94 843 24.89 27.5 81.5 18 1.5 34.8 -74.5 -2.933
17:17 1014 29.94 843 24.89 27.6 81.7 17 0.5 32.8 -74.5 -2.933
17:18 1014 29.94 843 24.89 27.6 81.8 17 0.9 33.6 -74.5 -2.933
17:19 1014 29.94 843 24.89 27.7 81.8 17 0.3 32.6 -74.5 -2.933
17:20 1014 29.94 843 24.89 27.6 81.7 17 0.3 32.5 -74.5 -2.933
17:21 1014 29.94 843 24.89 27.6 81.7 19 2 35.6 -74.5 -2.933
17:22 1014 29.94 843 24.89 27.6 81.6 19 2 35.7 -74.4 -2.929
17:23 1014 29.94 843 24.89 27.5 81.6 19 2 35.7 -74.4 -2.929
17:24 1014 29.94 843 24.89 27.5 81.5 18 1 33.9 -74.4 -2.929
17:25 1014 29.94 843 24.89 27.5 81.5 16 0 32 -74.4 -2.929
17:26 1014 29.94 843 24.89 27.4 81.3 18 1.2 34.1 -74.4 -2.929
17:27 1014 29.94 843 24.89 27.4 81.3 19 2.2 35.9 -74.4 -2.929
17:28 1014 29.94 843 24.89 27.3 81.2 17 0.1 32.1 -74.5 -2.933
17:29 1014 29.94 843 24.89 27.3 81.1 19 1.9 35.4 -74.5 -2.933
17:30 1014 29.94 843 24.89 27.2 81 21 3.2 37.7 -74.5 -2.933
17:31 1014 29.94 843 24.89 27.1 80.8 20 2.8 37 -74.5 -2.933
17:32 1014 29.94 843 24.89 27.1 80.7 17 -0.1 31.9 -74.4 -2.929
17:33 1014 29.94 843 24.89 27.1 80.7 19 1.6 34.9 -74.4 -2.929
17:34 1014 29.94 843 24.89 27 80.6 18 0.9 33.7 -74.4 -2.929
17:35 1014 29.94 843 24.89 27 80.7 18 0.8 33.5 -74.4 -2.929
17:36 1014 29.94 843 24.89 27.1 80.7 20 2.2 36 -74.5 -2.933
17:37 1014 29.94 843 24.89 27.1 80.8 19 1.9 35.4 -74.4 -2.929
17:38 1014 29.94 843 24.89 27.1 80.8 17 0.4 32.7 -74.5 -2.933
17:39 1014 29.94 843 24.89 27.1 80.8 18 0.9 33.6 -74.5 -2.933
17:40 1014 29.94 843 24.89 27.1 80.8 20 2.3 36.1 -74.5 -2.933
17:41 1014 29.94 843 24.89 27.1 80.8 23 4.3 39.8 -74.5 -2.933
17:42 1014 29.94 843 24.89 27.1 80.8 21 3.2 37.8 -74.5 -2.933
17:43 1014 29.94 843 24.89 27.2 80.9 20 2.2 36 -74.5 -2.933
17:44 1014 29.94 843 24.89 27.1 80.9 21 3.4 38.2 -74.5 -2.933
17:45 1014 29.94 843 24.89 27.1 80.8 24 4.9 40.8 -74.5 -2.933
17:46 1014 29.94 843 24.89 27.1 80.8 20 2.2 35.9 -74.6 -2.937
17:47 1014 29.94 843 24.89 27 80.7 21 3.2 37.7 -74.6 -2.937
17:48 1014 29.94 843 24.89 26.9 80.5 19 1.6 34.8 -74.6 -2.937
17:49 1014 29.94 843 24.89 26.8 80.2 21 2.7 36.9 -74.6 -2.937
17:50 1014 29.94 843 24.89 26.7 80.1 20 2 35.6 -74.6 -2.937
17:51 1014 29.94 843 24.89 26.7 80.1 20 2.2 36 -74.7 -2.941
17:52 1014 29.94 843 24.89 26.7 80 17 0.1 32.2 -74.7 -2.941
17:53 1014 29.94 843 24.89 26.7 80.1 19 1.1 34 -74.7 -2.941
17:54 1014 29.94 843 24.89 26.8 80.2 21 2.9 37.2 -74.8 -2.945
17:55 1014 29.94 843 24.89 26.8 80.3 21 2.7 36.8 -74.8 -2.945
17:56 1013 29.91 843 24.89 26.8 80.3 20 2.3 36.2 -74.8 -2.945
17:57 1013 29.91 843 24.89 26.8 80.3 20 2.1 35.8 -74.8 -2.945
17:58 1013 29.91 843 24.89 26.9 80.4 19 1.4 34.6 -74.8 -2.945
17:59 1013 29.91 843 24.89 26.9 80.4 22 3.8 38.9 -74.9 -2.949
18:00 1013 29.91 843 24.89 26.9 80.3 20 2 35.7 -74.9 -2.949
00:01 1018 30.06 847 25.01 11.9 53.3 75 7.6 45.7 -86.5 -3.406
00:02 1018 30.06 847 25.01 11.9 53.4 76 7.7 45.9 -86.5 -3.406
00:03 1018 30.06 847 25.01 11.8 53.2 75 7.6 45.7 -86.5 -3.406
00:04 1018 30.06 847 25.01 11.9 53.4 74 7.5 45.6 -86.5 -3.406
00:05 1018 30.06 847 25.01 12 53.6 74 7.5 45.4 -86.5 -3.406
00:06 1018 30.06 847 25.01 12.1 53.9 73 7.5 45.5 -86.6 -3.409
00:07 1018 30.06 847 25.01 12.2 54 73 7.5 45.5 -86.6 -3.409
00:08 1018 30.06 847 25.01 12.2 53.9 73 7.6 45.7 -86.6 -3.409
00:09 1018 30.06 847 25.01 12.1 53.8 74 7.6 45.7 -86.6 -3.409
00:10 1018 30.06 847 25.01 12 53.7 74 7.6 45.7 -86.6 -3.409
00:11 1018 30.06 847 25.01 12 53.5 75 7.6 45.7 -86.6 -3.409
00:12 1018 30.06 847 25.01 11.9 53.5 74 7.6 45.6 -86.6 -3.409
00:13 1018 30.06 847 25.01 11.9 53.4 75 7.6 45.7 -86.6 -3.409
00:14 1018 30.06 847 25.01 11.9 53.3 75 7.6 45.6 -86.6 -3.409
00:15 1018 30.06 847 25.01 11.8 53.2 75 7.6 45.7 -86.6 -3.409
00:16 1018 30.06 847 25.01 11.6 52.9 76 7.6 45.7 -86.6 -3.409
00:17 1018 30.06 847 25.01 11.4 52.6 77 7.6 45.6 -86.6 -3.409
00:18 1018 30.06 847 25.01 11.3 52.3 78 7.5 45.6 -86.6 -3.409
00:19 1018 30.06 847 25.01 11.1 52 78 7.5 45.5 -86.6 -3.409
00:20 1018 30.06 847 25.01 11 51.7 79 7.4 45.4 -86.6 -3.409
00:21 1018 30.06 847 25.01 10.9 51.7 79 7.5 45.4 -86.6 -3.409
00:22 1018 30.06 847 25.01 10.8 51.4 80 7.4 45.4 -86.6 -3.409
00:23 1018 30.06 847 25.01 10.8 51.4 80 7.4 45.3 -86.6 -3.409
00:24 1018 30.06 847 25.01 10.7 51.3 80 7.4 45.3 -86.6 -3.409
00:25 1018 30.06 847 25.01 10.7 51.2 80 7.4 45.3 -86.6 -3.409
00:26 1018 30.06 847 25.01 10.6 51.1 80 7.4 45.2 -86.6 -3.409
00:27 1018 30.06 847 25.01 10.6 51.1 80 7.3 45.1 -86.6 -3.409
00:28 1018 30.06 847 25.01 10.6 51.1 80 7.3 45.2 -86.6 -3.409
00:29 1018 30.06 847 25.01 10.6 51 80 7.3 45.1 -86.6 -3.409
00:30 1018 30.06 847 25.01 10.5 51 80 7.3 45.1 -86.6 -3.409
00:31 1018 30.06 847 25.01 10.4 50.7 81 7.3 45.1 -86.6 -3.409
00:32 1018 30.06 847 25.01 10.4 50.6 81 7.3 45.1 -86.6 -3.409
00:33 1018 30.06 847 25.01 10.3 50.6 81 7.2 45 -86.6 -3.409
00:34 1018 30.06 847 25.01 10.3 50.5 81 7.2 45 -86.6 -3.409
00:35 1018 30.06 847 25.01 10.2 50.4 81 7.1 44.9 -86.6 -3.409
00:36 1018 30.06 847 25.01 10.1 50.2 82 7.1 44.8 -86.6 -3.409
00:37 1018 30.06 847 25.01 10.1 50.1 82 7.1 44.8 -86.6 -3.409
00:38 1018 30.06 847 25.01 9.9 49.8 82 7 44.7 -86.6 -3.409
00:39 1018 30.06 847 25.01 9.8 49.6 83 7 44.6 -86.6 -3.409
00:40 1018 30.06 847 25.01 9.7 49.5 83 6.9 44.5 -86.6 -3.409
00:41 1018 30.06 847 25.01 9.7 49.4 83 6.9 44.5 -86.6 -3.409
00:42 1018 30.06 847 25.01 9.6 49.2 83 6.8 44.3 -86.6 -3.409
00:43 1018 30.06 847 25.01 9.4 49 84 6.9 44.4 -86.6 -3.409
00:44 1018 30.06 847 25.01 9.5 49 85 7.1 44.7 -86.6 -3.409
00:45 1018 30.06 847 25.01 9.5 49.2 84 7 44.6 -86.6 -3.409
00:46 1018 30.06 847 25.01 9.6 49.2 83 6.9 44.4 -86.6 -3.409
00:47 1018 30.06 847 25.01 9.5 49.1 84 6.9 44.4 -86.6 -3.409
00:48 1018 30.06 847 25.01 9.5 49.1 84 6.9 44.5 -86.6 -3.409
00:49 1018 30.06 847 25.01 9.6 49.3 84 7 44.5 -86.6 -3.409
00:50 1018 30.06 847 25.01 9.6 49.3 84 7.1 44.7 -86.6 -3.409
00:51 1018 30.06 847 25.01 9.7 49.5 84 7.2 45 -86.6 -3.409
00:52 1018 30.06 847 25.01 9.8 49.7 84 7.3 45.1 -86.6 -3.409
00:53 1018 30.06 847 25.01 9.8 49.7 84 7.3 45.1 -86.5 -3.406
00:54 1018 30.06 847 25.01 9.8 49.7 83 7.1 44.8 -86.5 -3.406
00:55 1018 30.06 847 25.01 9.8 49.6 83 7 44.6 -86.5 -3.406
00:56 1018 30.06 847 25.01 9.7 49.4 83 6.9 44.5 -86.5 -3.406
00:57 1018 30.06 847 25.01 9.6 49.2 83 6.8 44.2 -86.5 -3.406
00:58 1018 30.06 847 25.01 9.4 48.9 83 6.7 44.1 -86.6 -3.409
00:59 1018 30.06 847 25.01 9.3 48.7 84 6.7 44 -86.6 -3.409
01:00 1018 30.06 847 25.01 9.2 48.5 84 6.6 43.9 -86.6 -3.409
01:01 1018 30.06 847 25.01 9.1 48.4 84 6.5 43.7 -86.6 -3.409
01:02 1018 30.06 847 25.01 9.1 48.4 84 6.5 43.7 -86.6 -3.409
01:03 1018 30.06 847 25.01 9.1 48.3 84 6.5 43.6 -86.6 -3.409
01:04 1018 30.06 847 25.01 9 48.2 84 6.4 43.5 -86.6 -3.409
01:05 1018 30.06 847 25.01 8.9 48.1 85 6.5 43.7 -86.6 -3.409
01:06 1018 30.06 847 25.01 8.8 47.8 86 6.5 43.7 -86.6 -3.409
01:07 1018 30.06 847 25.01 8.8 47.8 86 6.5 43.8 -86.5 -3.406
01:08 1018 30.06 847 25.01 8.8 47.8 86 6.6 43.8 -86.5 -3.406
01:09 1018 30.06 847 25.01 8.8 47.8 86 6.7 44 -86.5 -3.406
01:10 1018 30.06 847 25.01 8.9 47.9 87 6.8 44.2 -86.4 -3.402
01:11 1018 30.06 847 25.01 8.9 48 87 6.8 44.3 -86.4 -3.402
01:12 1018 30.06 847 25.01 9 48.2 87 6.9 44.5 -86.4 -3.402
01:13 1018 30.06 847 25.01 9.1 48.4 87 7 44.6 -86.4 -3.402
01:14 1018 30.06 847 25.01 9.2 48.6 86 7 44.7 -86.3 -3.398
01:15 1018 30.06 847 25.01 9.4 48.9 86 7.1 44.8 -86.3 -3.398
01:16 1018 30.06 847 25.01 9.4 49 85 7.1 44.7 -86.3 -3.398
01:17 1018 30.06 847 25.01 9.5 49.1 85 7.1 44.8 -86.3 -3.398
01:18 1018 30.06 847 25.01 9.6 49.3 85 7.2 44.9 -86.3 -3.398
01:19 1018 30.06 847 25.01 9.8 49.6 84 7.2 45 -86.4 -3.402
01:20 1018 30.06 847 25.01 9.9 49.8 83 7.2 45 -86.4 -3.402
01:21 1018 30.06 847 25.01 10 50 83 7.2 45 -86.4 -3.402
01:22 1018 30.06 847 25.01 10.1 50.1 82 7.2 45 -86.4 -3.402
01:23 1018 30.06 847 25.01 10.1 50.2 82 7.2 44.9 -86.4 -3.402
01:24 1018 30.06 847 25.01 10.2 50.4 81 7.2 44.9 -86.5 -3.406
01:25 1018 30.06 847 25.01 10.3 50.5 81 7.1 44.9 -86.5 -3.406
01:26 1018 30.06 847 25.01 10.3 50.5 81 7.1 44.8 -86.6 -3.409
01:27 1018 30.06 847 25.01 10.3 50.5 80 7.1 44.7 -86.6 -3.409
01:28 1018 30.06 847 25.01 10.4 50.6 80 7.1 44.8 -86.6 -3.409
01:29 1018 30.06 847 25.01 10.4 50.6 80 7.1 44.8 -86.6 -3.409
01:30 1018 30.06 847 25.01 10.4 50.6 80 7.1 44.8 -86.6 -3.409
01:31 1018 30.06 847 25.01 10.3 50.5 80 7.1 44.7 -86.6 -3.409
01:32 1018 30.06 847 25.01 10.3 50.5 80 7.1 44.8 -86.7 -3.413
01:33 1018 30.06 847 25.01 10.3 50.6 80 7.1 44.8 -86.7 -3.413
01:34 1018 30.06 847 25.01 10.3 50.6 80 7.1 44.7 -86.7 -3.413
01:35 1018 30.06 847 25.01 10.3 50.5 80 7 44.6 -86.7 -3.413
01:36 1018 30.06 847 25.01 10.2 50.4 80 7 44.7 -86.8 -3.417
01:37 1018 30.06 847 25.01 10.2 50.4 80 7 44.6 -86.8 -3.417
01:38 1018 30.06 847 25.01 10.2 50.4 80 7 44.6 -86.8 -3.417
01:39 1018 30.06 847 25.01 10.2 50.3 80 7 44.6 -86.8 -3.417
01:40 1018 30.06 847 25.01 10.2 50.3 81 7 44.6 -86.8 -3.417
01:41 1018 30.06 847 25.01 10.2 50.3 81 7 44.6 -86.8 -3.417
01:42 1018 30.06 847 25.01 10.2 50.4 80 6.9 44.5 -86.8 -3.417
01:43 1018 30.06 847 25.01 10.2 50.3 79 6.8 44.3 -86.8 -3.417
01:44 1018 30.06 847 25.01 10.1 50.2 80 6.9 44.4 -86.9 -3.421
01:45 1018 30.06 847 25.01 10.2 50.3 80 6.9 44.3 -86.9 -3.421
01:46 1018 30.06 847 25.01 10.2 50.3 80 6.9 44.4 -86.9 -3.421
01:47 1018 30.06 847 25.01 10.2 50.4 80 6.9 44.4 -86.9 -3.421
01:48 1018 30.06 847 25.01 10.3 50.5 79 6.9 44.3 -87 -3.425
01:49 1018 30.06 847 25.01 10.3 50.5 79 6.8 44.3 -87 -3.425
01:50 1018 30.06 847 25.01 10.3 50.5 79 6.8 44.2 -87 -3.425
01:51 1018 30.06 847 25.01 10.2 50.3 80 6.8 44.3 -87 -3.425
01:52 1018 30.06 847 25.01 10.2 50.4 79 6.8 44.3 -87 -3.425
01:53 1018 30.06 847 25.01 10.3 50.6 79 6.9 44.4 -87 -3.425
01:54 1018 30.06 847 25.01 10.4 50.7 79 6.9 44.4 -87 -3.425
01:55 1018 30.06 847 25.01 10.4 50.7 79 6.9 44.3 -87 -3.425
01:56 1018 30.06 847 25.01 10.5 50.8 78 6.8 44.3 -87 -3.425
01:57 1018 30.06 847 25.01 10.4 50.7 78 6.8 44.3 -87 -3.425
01:58 1018 30.06 847 25.01 10.4 50.7 79 6.8 44.3 -87.1 -3.429
01:59 1018 30.06 847 25.01 10.4 50.8 78 6.8 44.2 -87.1 -3.429
02:00 1018 30.06 847 25.01 10.4 50.7 78 6.7 44.1 -87.1 -3.429
02:01 1018 30.06 847 25.01 10.4 50.7 77 6.6 43.9 -87.1 -3.429
02:02 1018 30.06 847 25.01 10.3 50.5 77 6.4 43.6 -87.1 -3.429
02:03 1018 30.06 847 25.01 10.1 50.1 78 6.5 43.7 -87.1 -3.429
02:04 1018 30.06 847 25.01 9.9 49.7 78 6.3 43.4 -87.1 -3.429
02:05 1018 30.06 847 25.01 9.6 49.4 80 6.5 43.6 -87.1 -3.429
02:06 1018 30.06 847 25.01 9.4 49 79 5.9 42.7 -87.1 -3.429
02:07 1018 30.06 847 25.01 9.1 48.4 80 5.8 42.4 -87.2 -3.433
02:08 1018 30.06 847 25.01 8.8 47.8 81 5.7 42.2 -87.2 -3.433
02:09 1018 30.06 847 25.01 8.5 47.2 84 6 42.7 -87.2 -3.433
02:10 1018 30.06 847 25.01 8.3 46.9 86 6.1 43 -87.2 -3.433
02:11 1018 30.06 847 25.01 8.3 46.9 87 6.2 43.2 -87.2 -3.433
02:12 1018 30.06 847 25.01 8.4 47 87 6.2 43.2 -87.1 -3.429
02:13 1018 30.06 847 25.01 8.3 47 87 6.4 43.5 -87.1 -3.429
02:14 1018 30.06 847 25.01 8.5 47.2 87 6.4 43.6 -87.1 -3.429
02:15 1018 30.06 847 25.01 8.6 47.4 85 6.2 43.2 -87 -3.425
02:16 1018 30.06 847 25.01 8.6 47.4 85 6.2 43.2 -87 -3.425
02:17 1018 30.06 847 25.01 8.6 47.4 84 6 42.9 -87 -3.425
02:18 1018 30.06 847 25.01 8.6 47.5 86 6.4 43.5 -87 -3.425
02:19 1018 30.06 847 25.01 8.7 47.7 83 6 42.8 -86.9 -3.421
02:20 1018 30.06 847 25.01 8.6 47.6 83 6 42.7 -87 -3.425
02:21 1018 30.06 847 25.01 8.6 47.6 83 5.8 42.5 -87 -3.425
02:22 1018 30.06 847 25.01 8.7 47.7 84 6.1 43 -87 -3.425
02:23 1018 30.06 847 25.01 8.9 48 83 6.2 43.1 -87 -3.425
02:24 1018 30.06 847 25.01 9.1 48.3 82 6.2 43.2 -87.1 -3.429
02:25 1018 30.06 847 25.01 9.3 48.7 80 6.1 43 -87.1 -3.429
02:26 1018 30.06 847 25.01 9.4 48.9 80 6.2 43.1 -87.1 -3.429
02:27 1018 30.06 847 25.01 9.3 48.8 81 6.3 43.3 -87.1 -3.429
02:28 1018 30.06 847 25.01 9.5 49.1 80 6.3 43.3 -87.1 -3.429
02:29 1018 30.06 847 25.01 9.6 49.3 79 6.1 43.1 -87.2 -3.433
02:30 1018 30.06 847 25.01 9.6 49.2 79 6.1 42.9 -87.2 -3.433
02:31 1018 30.06 847 25.01 9.4 48.8 80 6 42.9 -87.2 -3.433
02:32 1018 30.06 847 25.01 9.3 48.7 81 6.1 43 -87.3 -3.437
02:33 1018 30.06 847 25.01 9.3 48.8 80 6 42.8 -87.3 -3.437
02:34 1018 30.06 847 25.01 9.4 48.9 79 6 42.8 -87.3 -3.437
02:35 1018 30.06 847 25.01 9.3 48.8 77 5.5 41.9 -87.3 -3.437
02:36 1018 30.06 847 25.01 9 48.1 79 5.6 42.1 -87.3 -3.437
02:37 1018 30.06 847 25.01 8.7 47.7 81 5.6 42.1 -87.3 -3.437
02:38 1018 30.06 847 25.01 8.6 47.6 82 5.7 42.3 -87.3 -3.437
02:39 1018 30.06 847 25.01 8.7 47.6 83 5.9 42.5 -87.3 -3.437
02:40 1018 30.06 847 25.01 8.7 47.7 82 5.9 42.6 -87.3 -3.437
02:41 1018 30.06 847 25.01 8.8 47.8 83 6 42.8 -87.3 -3.437
02:42 1018 30.06 847 25.01 8.8 47.8 81 5.7 42.3 -87.3 -3.437
02:43 1018 30.06 847 25.01 8.6 47.4 82 5.8 42.4 -87.3 -3.437
02:44 1018 30.06 847 25.01 8.4 47.2 83 5.8 42.5 -87.3 -3.437
02:45 1018 30.06 847 25.01 8.5 47.3 83 5.8 42.4 -87.4 -3.441
02:46 1018 30.06 847 25.01 8.5 47.3 83 5.8 42.4 -87.4 -3.441
02:47 1018 30.06 847 25.01 8.5 47.3 83 5.8 42.4 -87.4 -3.441
02:48 1018 30.06 847 25.01 8.5 47.3 83 5.7 42.2 -87.4 -3.441
02:49 1018 30.06 847 25.01 8.3 47 82 5.5 41.8 -87.4 -3.441
02:50 1018 30.06 847 25.01 8.1 46.6 83 5.5 41.9 -87.4 -3.441
02:51 1018 30.06 847 25.01 7.8 46.1 84 5.2 41.4 -87.4 -3.441
02:52 1018 30.06 847 25.01 7.6 45.7 85 5.2 41.4 -87.4 -3.441
02:53 1018 30.06 847 25.01 7.3 45.2 86 5.2 41.3 -87.4 -3.441
02:54 1018 30.06 847 25.01 7.2 45 89 5.5 42 -87.4 -3.441
02:55 1018 30.06 847 25.01 7.3 45.2 89 5.6 42.1 -87.4 -3.441
02:56 1018 30.06 847 25.01 7.4 45.4 88 5.6 42 -87.4 -3.441
02:57 1018 30.06 847 25.01 7.5 45.4 88 5.6 42.1 -87.4 -3.441
02:58 1018 30.06 847 25.01 7.5 45.4 88 5.5 42 -87.4 -3.441
02:59 1018 30.06 847 25.01 7.4 45.4 88 5.6 42.1 -87.4 -3.441
03:00 1018 30.06 847 25.01 7.5 45.6 89 5.9 42.5 -87.4 -3.441
03:01 1018 30.06 847 25.01 7.8 46 88 5.9 42.6 -87.4 -3.441
03:02 1018 30.06 847 25.01 7.9 46.2 85 5.6 42.1 -87.4 -3.441
03:03 1018 30.06 847 25.01 7.8 46.1 85 5.5 42 -87.4 -3.441
03:04 1018 30.06 847 25.01 7.8 46 87 5.7 42.2 -87.4 -3.441
03:05 1018 30.06 847 25.01 7.8 46 87 5.8 42.5 -87.5 -3.445
03:06 1018 30.06 847 25.01 8 46.4 86 5.8 42.5 -87.5 -3.445
03:07 1018 30.06 847 25.01 8.1 46.6 86 5.9 42.6 -87.5 -3.445
03:08 1018 30.06 847 25.01 8.3 46.9 85 5.9 42.6 -87.5 -3.445
03:09 1018 30.06 847 25.01 8.4 47.2 84 5.9 42.7 -87.5 -3.445
03:10 1018 30.06 847 25.01 8.6 47.5 83 5.9 42.6 -87.5 -3.445
03:11 1018 30.06 847 25.01 8.8 47.8 82 5.9 42.6 -87.5 -3.445
03:12 1018 30.06 847 25.01 9 48.1 81 6 42.7 -87.6 -3.449
03:13 1018 30.06 847 25.01 9.2 48.6 80 6 42.8 -87.6 -3.449
03:14 1018 30.06 847 25.01 9.4 48.9 79 6 42.7 -87.6 -3.449
03:15 1018 30.06 847 25.01 9.8 49.6 77 6 42.8 -87.7 -3.453
03:16 1018 30.06 847 25.01 10 50 77 6.2 43.1 -87.7 -3.453
03:17 1018 30.06 847 25.01 10 50.1 77 6.3 43.3 -87.7 -3.453
03:18 1018 30.06 847 25.01 9.8 49.6 78 6.2 43.1 -87.7 -3.453
03:19 1018 30.06 847 25.01 9.5 49.1 79 6.1 43 -87.7 -3.453
03:20 1018 30.06 847 25.01 9.2 48.6 80 6 42.8 -87.7 -3.453
03:21 1018 30.06 847 25.01 9 48.2 81 5.9 42.6 -87.7 -3.453
03:22 1018 30.06 847 25.01 8.7 47.7 82 5.8 42.5 -87.7 -3.453
03:23 1018 30.06 847 25.01 8.5 47.2 83 5.7 42.3 -87.7 -3.453
03:24 1018 30.06 847 25.01 8.2 46.8 84 5.6 42.1 -87.7 -3.453
03:25 1018 30.06 847 25.01 8.1 46.5 85 5.7 42.2 -87.7 -3.453
03:26 1018 30.06 847 25.01 8 46.4 85 5.7 42.3 -87.7 -3.453
03:27 1018 30.06 847 25.01 8.1 46.5 85 5.7 42.3 -87.7 -3.453
03:28 1018 30.06 847 25.01 8.2 46.8 84 5.7 42.3 -87.7 -3.453
03:29 1018 30.06 847 25.01 8.3 47 84 5.7 42.3 -87.7 -3.453
03:30 1018 30.06 847 25.01 8.5 47.2 83 5.8 42.4 -87.7 -3.453
03:31 1018 30.06 847 25.01 8.6 47.6 82 5.7 42.3 -87.7 -3.453
03:32 1018 30.06 847 25.01 8.9 48 80 5.7 42.2 -87.7 -3.453
03:33 1018 30.06 847 25.01 9.2 48.5 79 5.8 42.4 -87.7 -3.453
03:34 1018 30.06 847 25.01 9.3 48.8 79 5.8 42.5 -87.8 -3.457
03:35 1018 30.06 847 25.01 9.4 48.9 79 5.8 42.5 -87.8 -3.457
03:36 1018 30.06 847 25.01 9.3 48.8 79 5.9 42.5 -87.8 -3.457
03:37 1018 30.06 847 25.01 9.3 48.7 79 5.8 42.4 -87.8 -3.457
03:38 1018 30.06 847 25.01 9.1 48.3 80 5.8 42.4 -87.8 -3.457
03:39 1018 30.06 847 25.01 8.8 47.8 81 5.7 42.3 -87.8 -3.457
03:40 1018 30.06 847 25.01 8.5 47.3 83 5.8 42.4 -87.8 -3.457
03:41 1018 30.06 847 25.01 8.3 47 84 5.7 42.3 -87.8 -3.457
03:42 1018 30.06 847 25.01 8.2 46.8 84 5.7 42.3 -87.8 -3.457
03:43 1018 30.06 847 25.01 8.2 46.8 84 5.7 42.3 -87.8 -3.457
03:44 1018 30.06 847 25.01 8.3 46.9 84 5.8 42.4 -87.8 -3.457
03:45 1018 30.06 847 25.01 8.3 46.9 84 5.8 42.4 -87.8 -3.457
03:46 1018 30.06 847 25.01 8.3 46.9 85 5.8 42.5 -87.8 -3.457
03:47 1018 30.06 847 25.01 8.3 46.9 84 5.8 42.5 -87.8 -3.457
03:48 1018 30.06 847 25.01 8.3 47 84 5.8 42.4 -87.8 -3.457
03:49 1018 30.06 847 25.01 8.3 46.9 84 5.8 42.4 -87.9 -3.461
03:50 1018 30.06 847 25.01 8.2 46.7 85 5.8 42.4 -87.9 -3.461
03:51 1018 30.06 847 25.01 8.1 46.6 85 5.8 42.4 -87.8 -3.457
03:52 1018 30.06 847 25.01 8 46.5 85 5.7 42.3 -87.8 -3.457
03:53 1018 30.06 847 25.01 7.9 46.3 86 5.7 42.3 -87.8 -3.457
03:54 1018 30.06 847 25.01 7.9 46.1 86 5.7 42.2 -87.8 -3.457
03:55 1018 30.06 847 25.01 7.9 46.1 87 5.8 42.4 -87.8 -3.457
03:56 1018 30.06 847 25.01 7.9 46.2 86 5.8 42.4 -87.8 -3.457
03:57 1018 30.06 847 25.01 8 46.3 87 5.9 42.5 -87.8 -3.457
03:58 1018 30.06 847 25.01 8 46.4 86 5.8 42.5 -87.8 -3.457
03:59 1018 30.06 847 25.01 8 46.5 86 5.8 42.4 -87.8 -3.457
04:00 1018 30.06 847 25.01 8.1 46.6 85 5.8 42.4 -87.8 -3.457
04:01 1018 30.06 847 25.01 8.3 46.9 84 5.8 42.4 -87.8 -3.457
04:02 1018 30.06 847 25.01 8.3 46.9 84 5.7 42.3 -87.8 -3.457
04:03 1018 30.06 847 25.01 8.3 47 84 5.7 42.3 -87.8 -3.457
04:04 1018 30.06 847 25.01 8.4 47.1 83 5.7 42.3 -87.8 -3.457
04:05 1018 30.06 847 25.01 8.4 47.2 83 5.8 42.4 -87.8 -3.457
04:06 1018 30.06 847 25.01 8.4 47.1 83 5.7 42.3 -87.8 -3.457
04:07 1018 30.06 847 25.01 8.4 47 83 5.7 42.3 -87.8 -3.457
04:08 1018 30.06 847 25.01 8.3 46.9 83 5.7 42.2 -87.8 -3.457
04:09 1018 30.06 847 25.01 8.3 46.9 83 5.6 42.1 -87.8 -3.457
04:10 1018 30.06 847 25.01 8.3 46.9 83 5.6 42.1 -87.8 -3.457
04:11 1018 30.06 847 25.01 8.2 46.8 84 5.6 42.2 -87.8 -3.457
04:12 1018 30.06 847 25.01 8.2 46.8 84 5.6 42.1 -87.8 -3.457
04:13 1018 30.06 847 25.01 8.2 46.7 84 5.6 42 -87.9 -3.461
04:14 1018 30.06 847 25.01 8 46.5 84 5.6 42 -87.9 -3.461
04:15 1018 30.06 847 25.01 8 46.3 85 5.5 42 -87.9 -3.461
04:16 1018 30.06 847 25.01 7.9 46.1 85 5.5 42 -87.9 -3.461
04:17 1018 30.06 847 25.01 7.8 46 86 5.5 41.9 -87.9 -3.461
04:18 1018 30.06 847 25.01 7.7 45.9 86 5.5 41.9 -87.9 -3.461
04:19 1018 30.06 847 25.01 7.7 45.8 86 5.5 42 -87.9 -3.461
04:20 1018 30.06 847 25.01 7.7 45.9 86 5.6 42 -87.9 -3.461
04:21 1018 30.06 847 25.01 7.8 46.1 86 5.6 42.2 -87.9 -3.461
04:22 1018 30.06 847 25.01 8 46.3 85 5.7 42.2 -87.9 -3.461
04:23 1018 30.06 847 25.01 8.1 46.5 85 5.7 42.2 -87.9 -3.461
04:24 1018 30.06 847 25.01 8.2 46.7 85 5.7 42.3 -87.9 -3.461
04:25 1018 30.06 847 25.01 8 46.5 85 5.6 42.1 -87.9 -3.461
04:26 1018 30.06 847 25.01 8 46.3 85 5.6 42.1 -87.8 -3.457
04:27 1018 30.06 847 25.01 8 46.3 85 5.6 42.2 -87.9 -3.461
04:28 1018 30.06 847 25.01 7.9 46.3 85 5.5 42 -87.9 -3.461
04:29 1018 30.06 847 25.01 7.8 46.1 85 5.5 41.9 -87.9 -3.461
04:30 1018 30.06 847 25.01 7.8 46.1 85 5.5 42 -87.9 -3.461
04:31 1018 30.06 847 25.01 7.8 46 86 5.5 41.9 -87.9 -3.461
04:32 1018 30.06 847 25.01 7.8 46 86 5.6 42 -87.9 -3.461
04:33 1018 30.06 847 25.01 8 46.3 85 5.6 42.1 -87.9 -3.461
04:34 1018 30.06 847 25.01 8 46.5 85 5.6 42.1 -87.8 -3.457
04:35 1018 30.06 847 25.01 8.1 46.5 85 5.7 42.2 -87.9 -3.461
04:36 1018 30.06 847 25.01 8.2 46.8 83 5.6 42 -87.9 -3.461
04:37 1018 30.06 847 25.01 8.2 46.7 83 5.5 42 -87.9 -3.461
04:38 1018 30.06 847 25.01 8.3 46.9 83 5.5 42 -87.9 -3.461
04:39 1018 30.06 847 25.01 8.2 46.8 83 5.5 41.9 -87.9 -3.461
04:40 1018 30.06 847 25.01 8 46.5 83 5.4 41.7 -87.9 -3.461
04:41 1018 30.06 847 25.01 7.9 46.2 85 5.5 41.9 -87.9 -3.461
04:42 1018 30.06 847 25.01 7.9 46.1 85 5.4 41.7 -87.9 -3.461
04:43 1018 30.06 847 25.01 7.9 46.3 84 5.4 41.7 -87.9 -3.461
04:44 1018 30.06 847 25.01 8 46.4 84 5.4 41.7 -87.9 -3.461
04:45 1018 30.06 847 25.01 8.1 46.5 83 5.4 41.7 -87.9 -3.461
04:46 1018 30.06 847 25.01 8.1 46.5 83 5.3 41.5 -87.9 -3.461
04:47 1018 30.06 847 25.01 8 46.4 83 5.3 41.6 -87.9 -3.461
04:48 1018 30.06 847 25.01 8 46.4 83 5.3 41.6 -87.9 -3.461
04:49 1018 30.06 847 25.01 8 46.3 83 5.3 41.6 -87.9 -3.461
04:50 1018 30.06 847 25.01 8.1 46.5 84 5.5 41.9 -87.9 -3.461
04:51 1018 30.06 847 25.01 8.3 46.9 83 5.6 42 -88 -3.465
04:52 1018 30.06 847 25.01 8.6 47.4 82 5.7 42.3 -88 -3.465
04:53 1018 30.06 847 25.01 8.9 47.9 81 5.7 42.3 -88 -3.465
04:54 1018 30.06 847 25.01 9.2 48.5 79 5.7 42.3 -88 -3.465
04:55 1018 30.06 847 25.01 9.3 48.8 78 5.8 42.4 -88 -3.465
04:56 1018 30.06 847 25.01 9.4 48.9 78 5.8 42.4 -88 -3.465
04:57 1018 30.06 847 25.01 9.3 48.8 78 5.7 42.3 -88 -3.465
04:58 1018 30.06 847 25.01 9.2 48.5 79 5.7 42.3 -88 -3.465
04:59 1018 30.06 847 25.01 9 48.2 80 5.8 42.4 -88 -3.465
05:00 1018 30.06 847 25.01 8.8 47.9 81 5.7 42.3 -88 -3.465
05:01 1018 30.06 847 25.01 8.8 47.8 81 5.7 42.3 -88 -3.465
05:02 1018 30.06 847 25.01 8.8 47.8 81 5.8 42.4 -88 -3.465
05:03 1018 30.06 847 25.01 8.8 47.8 81 5.8 42.4 -88 -3.465
05:04 1018 30.06 847 25.01 8.8 47.8 81 5.7 42.3 -88 -3.465
05:05 1018 30.06 847 25.01 8.8 47.8 82 5.8 42.4 -88 -3.465
05:06 1018 30.06 847 25.01 8.7 47.6 82 5.8 42.5 -88 -3.465
05:07 1018 30.06 847 25.01 8.7 47.6 82 5.9 42.5 -88 -3.465
05:08 1018 30.06 847 25.01 8.7 47.6 82 5.8 42.4 -88 -3.465
05:09 1018 30.06 847 25.01 8.6 47.5 82 5.7 42.2 -88 -3.465
05:10 1018 30.06 847 25.01 8.5 47.4 83 5.7 42.3 -87.9 -3.461
05:11 1018 30.06 847 25.01 8.5 47.4 82 5.7 42.2 -87.9 -3.461
05:12 1018 30.06 847 25.01 8.6 47.4 82 5.7 42.3 -88 -3.465
05:13 1018 30.06 847 25.01 8.6 47.4 82 5.7 42.2 -88 -3.465
05:14 1018 30.06 847 25.01 8.6 47.4 82 5.7 42.3 -87.9 -3.461
05:15 1018 30.06 847 25.01 8.6 47.5 82 5.7 42.2 -87.9 -3.461
05:16 1018 30.06 847 25.01 8.7 47.7 81 5.6 42 -87.9 -3.461
05:17 1018 30.06 847 25.01 8.8 47.9 80 5.6 42.1 -88 -3.465
05:18 1018 30.06 847 25.01 8.9 48.1 80 5.6 42.2 -88 -3.465
05:19 1018 30.06 847 25.01 9 48.1 80 5.7 42.3 -88 -3.465
05:20 1018 30.06 847 25.01 8.9 48 81 5.8 42.5 -88 -3.465
05:21 1018 30.06 847 25.01 8.8 47.9 81 5.9 42.5 -88 -3.465
05:22 1018 30.06 847 25.01 8.8 47.8 82 5.8 42.4 -88 -3.465
05:23 1018 30.06 847 25.01 8.7 47.7 82 5.8 42.4 -88 -3.465
05:24 1018 30.06 847 25.01 8.7 47.6 82 5.8 42.4 -88 -3.465
05:25 1018 30.06 847 25.01 8.8 47.8 81 5.7 42.3 -88 -3.465
05:26 1018 30.06 847 25.01 9 48.1 80 5.7 42.3 -88 -3.465
05:27 1018 30.06 847 25.01 9.1 48.4 79 5.6 42.2 -88 -3.465
05:28 1018 30.06 847 25.01 9.1 48.4 79 5.7 42.2 -88 -3.465
05:29 1018 30.06 847 25.01 9 48.3 80 5.7 42.3 -88 -3.465
05:30 1018 30.06 847 25.01 9 48.2 80 5.7 42.3 -88 -3.465
05:31 1018 30.06 847 25.01 9 48.2 80 5.7 42.3 -88 -3.465
05:32 1018 30.06 847 25.01 9 48.2 79 5.7 42.2 -88 -3.465
05:33 1018 30.06 847 25.01 8.9 48 80 5.7 42.2 -88 -3.465
05:34 1018 30.06 847 25.01 8.8 47.8 81 5.7 42.3 -88 -3.465
05:35 1018 30.06 847 25.01 8.7 47.7 82 5.8 42.4 -88 -3.465
05:36 1018 30.06 847 25.01 8.8 47.9 81 5.8 42.5 -88 -3.465
05:37 1018 30.06 847 25.01 8.9 47.9 81 5.8 42.5 -88 -3.465
05:38 1018 30.06 847 25.01 8.7 47.6 82 5.7 42.3 -88 -3.465
05:39 1018 30.06 847 25.01 8.5 47.2 83 5.7 42.2 -88 -3.465
05:40 1018 30.06 847 25.01 8.3 47 83 5.6 42 -88 -3.465
05:41 1018 30.06 847 25.01 8.3 46.9 83 5.5 41.9 -88 -3.465
05:42 1018 30.06 847 25.01 8.3 46.9 82 5.5 41.9 -88 -3.465
05:43 1018 30.06 847 25.01 8.3 47 82 5.5 41.9 -88 -3.465
05:44 1018 30.06 847 25.01 8.3 47 82 5.5 41.9 -88 -3.465
05:45 1018 30.06 847 25.01 8.2 46.8 82 5.4 41.8 -88 -3.465
05:46 1018 30.06 847 25.01 8.2 46.7 83 5.4 41.8 -88 -3.465
05:47 1018 30.06 847 25.01 8.1 46.5 83 5.3 41.6 -88 -3.465
05:48 1018 30.06 847 25.01 8 46.3 83 5.3 41.6 -88 -3.465
05:49 1018 30.06 847 25.01 7.8 46 84 5.3 41.5 -88 -3.465
05:50 1018 30.06 847 25.01 7.7 45.8 85 5.3 41.6 -88 -3.465
05:51 1018 30.06 847 25.01 7.7 45.8 85 5.3 41.5 -88 -3.465
05:52 1018 30.06 847 25.01 7.7 45.9 84 5.3 41.5 -88 -3.465
05:53 1018 30.06 847 25.01 7.6 45.7 85 5.3 41.5 -88 -3.465
05:54 1018 30.06 847 25.01 7.5 45.6 85 5.2 41.4 -88 -3.465
05:55 1018 30.06 847 25.01 7.5 45.5 86 5.2 41.4 -88 -3.465
05:56 1018 30.06 847 25.01 7.4 45.3 86 5.2 41.4 -88 -3.465
05:57 1018 30.06 847 25.01 7.3 45.1 86 5.2 41.3 -88 -3.465
05:58 1018 30.06 847 25.01 7.2 45 87 5.2 41.4 -88 -3.465
05:59 1018 30.06 847 25.01 7.3 45.1 87 5.3 41.5 -88 -3.465
06:00 1018 30.06 847 25.01 7.4 45.4 86 5.3 41.5 -88 -3.465
06:01 1018 30.06 847 25.01 7.5 45.4 86 5.2 41.4 -88 -3.465
06:02 1018 30.06 847 25.01 7.5 45.4 86 5.2 41.4 -88 -3.465
06:03 1018 30.06 847 25.01 7.4 45.3 86 5.2 41.3 -88 -3.465
06:04 1018 30.06 847 25.01 7.4 45.4 86 5.2 41.4 -88 -3.465
06:05 1018 30.06 847 25.01 7.5 45.4 86 5.3 41.5 -88 -3.465
06:06 1018 30.06 847 25.01 7.6 45.7 86 5.4 41.7 -88 -3.465
06:07 1018 30.06 847 25.01 7.8 46.1 84 5.2 41.4 -88 -3.465
06:08 1018 30.06 847 25.01 7.8 46 83 5 41 -88 -3.465
06:09 1018 30.06 847 25.01 7.5 45.5 84 4.9 40.8 -88 -3.465
06:10 1018 30.06 847 25.01 7.2 45 85 4.8 40.7 -88 -3.465
06:11 1018 30.06 847 25.01 7 44.7 86 4.9 40.8 -88.1 -3.469
06:12 1018 30.06 847 25.01 7 44.7 87 5.1 41.2 -88.1 -3.469
06:13 1018 30.06 847 25.01 7.2 44.9 86 5 41.1 -88.1 -3.469
06:14 1018 30.06 847 25.01 7.3 45.1 85 5 41 -88.1 -3.469
06:15 1018 30.06 847 25.01 7.4 45.2 86 5.1 41.2 -88.1 -3.469
06:16 1018 30.06 847 25.01 7.4 45.3 85 5.1 41.2 -88.1 -3.469
06:17 1018 30.06 847 25.01 7.4 45.4 85 5.1 41.3 -88.1 -3.469
06:18 1018 30.06 847 25.01 7.4 45.2 85 5.1 41.1 -88.1 -3.469
06:19 1018 30.06 847 25.01 7.2 45 86 5 41 -88 -3.465
06:20 1018 30.06 847 25.01 7.2 44.9 87 5.1 41.1 -88 -3.465
06:21 1018 30.06 847 25.01 7.1 44.7 85 4.8 40.6 -88 -3.465
06:22 1018 30.06 847 25.01 6.9 44.4 86 4.7 40.5 -88 -3.465
06:23 1018 30.06 847 25.01 6.8 44.2 87 4.8 40.6 -88 -3.465
06:24 1018 30.06 847 25.01 6.8 44.2 87 4.8 40.6 -88 -3.465
06:25 1018 30.06 847 25.01 6.8 44.3 86 4.7 40.5 -88 -3.465
06:26 1018 30.06 847 25.01 6.7 44.1 86 4.6 40.3 -88 -3.465
06:27 1018 30.06 847 25.01 6.7 44.1 88 4.9 40.8 -88 -3.465
06:28 1018 30.06 847 25.01 6.8 44.3 88 5.1 41.1 -88 -3.465
06:29 1018 30.06 847 25.01 7 44.5 87 5 41 -88 -3.465
06:30 1018 30.06 847 25.01 7.1 44.8 87 5.2 41.3 -88 -3.465
06:31 1018 30.06 847 25.01 7.3 45.1 88 5.4 41.7 -88 -3.465
06:32 1018 30.06 847 25.01 7.5 45.4 87 5.5 41.9 -88 -3.465
06:33 1018 30.06 847 25.01 7.7 45.8 86 5.4 41.8 -88 -3.465
06:34 1018 30.06 847 25.01 7.8 46 84 5.3 41.6 -87.9 -3.461
06:35 1018 30.06 847 25.01 7.8 46 84 5.2 41.3 -88 -3.465
06:36 1018 30.06 847 25.01 7.6 45.6 83 4.9 40.9 -88 -3.465
06:37 1018 30.06 847 25.01 7.3 45.1 85 5 41 -88 -3.465
06:38 1018 30.06 847 25.01 7.3 45.1 86 5.1 41.1 -88 -3.465
06:39 1018 30.06 847 25.01 7.2 45 85 4.9 40.8 -88 -3.465
06:40 1018 30.06 847 25.01 7.1 44.8 86 5 40.9 -88 -3.465
06:41 1018 30.06 847 25.01 7.1 44.7 86 5 40.9 -88 -3.465
06:42 1018 30.06 847 25.01 7.1 44.7 86 4.9 40.8 -88 -3.465
06:43 1018 30.06 847 25.01 7 44.5 86 4.7 40.5 -88 -3.465
06:44 1018 30.06 848 25.04 6.8 44.3 86 4.6 40.3 -88 -3.465
06:45 1018 30.06 848 25.04 6.7 44 87 4.7 40.5 -88 -3.465
06:46 1018 30.06 847 25.01 6.6 43.9 88 4.8 40.6 -88 -3.465
06:47 1018 30.06 847 25.01 6.7 44.1 87 4.8 40.6 -88 -3.465
06:48 1018 30.06 847 25.01 6.8 44.2 87 4.8 40.6 -88.1 -3.469
06:49 1018 30.06 847 25.01 6.7 44.1 87 4.7 40.5 -88.1 -3.469
06:50 1018 30.06 847 25.01 6.8 44.2 88 4.9 40.7 -88.1 -3.469
06:51 1018 30.06 847 25.01 7 44.5 87 5 40.9 -88.1 -3.469
06:52 1018 30.06 847 25.01 7.2 45 86 4.9 40.9 -88.1 -3.469
06:53 1018 30.06 847 25.01 7.3 45.2 85 5 41 -88.1 -3.469
06:54 1018 30.06 847 25.01 7.4 45.3 85 5.1 41.1 -88.1 -3.469
06:55 1018 30.06 847 25.01 7.5 45.5 85 5.1 41.1 -88.2 -3.472
06:56 1018 30.06 847 25.01 7.6 45.7 84 5.1 41.1 -88.2 -3.472
06:57 1018 30.06 847 25.01 7.7 45.8 84 5.1 41.1 -88.2 -3.472
06:58 1018 30.06 847 25.01 7.6 45.7 84 5 41.1 -88.2 -3.472
06:59 1018 30.06 847 25.01 7.6 45.6 84 5 41.1 -88.2 -3.472
07:00 1018 30.06 847 25.01 7.6 45.6 84 5.1 41.2 -88.2 -3.472
07:01 1018 30.06 847 25.01 7.6 45.6 85 5.2 41.3 -88.2 -3.472
07:02 1018 30.06 847 25.01 7.6 45.6 85 5.2 41.4 -88.2 -3.472
07:03 1018 30.06 847 25.01 7.5 45.6 85 5.3 41.5 -88.2 -3.472
07:04 1018 30.06 847 25.01 7.6 45.6 85 5.3 41.5 -88.2 -3.472
07:05 1018 30.06 848 25.04 7.6 45.8 85 5.3 41.6 -88.3 -3.476
07:06 1018 30.06 848 25.04 7.7 45.8 85 5.4 41.7 -88.3 -3.476
07:07 1018 30.06 848 25.04 7.8 46 85 5.4 41.8 -88.3 -3.476
07:08 1018 30.06 848 25.04 7.9 46.3 84 5.5 41.9 -88.3 -3.476
07:09 1018 30.06 848 25.04 8.1 46.7 84 5.6 42 -88.3 -3.476
07:10 1018 30.06 848 25.04 8.3 46.9 83 5.6 42.1 -88.3 -3.476
07:11 1018 30.06 848 25.04 8.3 47 83 5.7 42.2 -88.3 -3.476
07:12 1018 30.06 848 25.04 8.3 46.9 84 5.7 42.2 -88.3 -3.476
07:13 1018 30.06 848 25.04 8.2 46.8 84 5.7 42.2 -88.3 -3.476
07:14 1018 30.06 848 25.04 8.2 46.8 84 5.7 42.3 -88.3 -3.476
07:15 1018 30.06 848 25.04 8.2 46.8 84 5.7 42.2 -88.3 -3.476
07:16 1018 30.06 848 25.04 8.2 46.8 85 5.8 42.4 -88.3 -3.476
07:17 1018 30.06 848 25.04 8.2 46.8 85 5.8 42.4 -88.3 -3.476
07:18 1018 30.06 848 25.04 8.2 46.7 85 5.8 42.5 -88.2 -3.472
07:19 1018 30.06 848 25.04 8.2 46.7 85 5.9 42.6 -88.2 -3.472
07:20 1018 30.06 848 25.04 8.1 46.7 85 5.8 42.5 -88.2 -3.472
07:21 1018 30.06 848 25.04 8.1 46.6 85 5.8 42.4 -88.2 -3.472
07:22 1018 30.06 848 25.04 8.2 46.7 85 5.8 42.5 -88.2 -3.472
07:23 1018 30.06 848 25.04 8.2 46.8 85 5.9 42.6 -88.2 -3.472
07:24 1018 30.06 848 25.04 8.3 46.9 85 5.9 42.6 -88.2 -3.472
07:25 1018 30.06 848 25.04 8.4 47 85 6 42.7 -88.2 -3.472
07:26 1018 30.06 848 25.04 8.5 47.2 84 6 42.8 -88.2 -3.472
07:27 1018 30.06 848 25.04 8.6 47.5 84 6 42.9 -88.2 -3.472
07:28 1018 30.06 848 25.04 8.8 47.9 83 6.1 42.9 -88.2 -3.472
07:29 1018 30.06 848 25.04 9 48.2 82 6.2 43.1 -88.2 -3.472
07:30 1018 30.06 848 25.04 9.2 48.5 81 6.1 43.1 -88.2 -3.472
07:31 1018 30.06 848 25.04 9.4 48.9 81 6.3 43.4 -88.2 -3.472
07:32 1018 30.06 848 25.04 9.5 49.1 81 6.5 43.7 -88.2 -3.472
07:33 1018 30.06 848 25.04 9.6 49.3 81 6.4 43.6 -88.2 -3.472
07:34 1018 30.06 848 25.04 9.6 49.3 81 6.5 43.7 -88.2 -3.472
07:35 1018 30.06 848 25.04 9.7 49.5 80 6.5 43.6 -88.2 -3.472
07:36 1018 30.06 848 25.04 9.8 49.6 80 6.6 43.8 -88.2 -3.472
07:37 1018 30.06 848 25.04 9.8 49.7 80 6.5 43.6 -88.2 -3.472
07:38 1018 30.06 848 25.04 9.9 49.8 79 6.5 43.7 -88.2 -3.472
07:39 1018 30.06 848 25.04 10 50 79 6.6 43.9 -88.2 -3.472
07:40 1018 30.06 848 25.04 10.1 50.2 79 6.7 44 -88.2 -3.472
07:41 1018 30.06 848 25.04 10.2 50.4 78 6.6 43.9 -88.2 -3.472
07:42 1018 30.06 848 25.04 10.4 50.7 78 6.8 44.2 -88.2 -3.472
07:43 1019 30.09 848 25.04 10.4 50.8 78 6.8 44.3 -88.2 -3.472
07:44 1018 30.06 848 25.04 10.5 50.8 78 6.9 44.4 -88.2 -3.472
07:45 1018 30.06 848 25.04 10.5 51 78 6.9 44.4 -88.2 -3.472
07:46 1018 30.06 848 25.04 10.6 51.1 78 7 44.5 -88.2 -3.472
07:47 1018 30.06 848 25.04 10.7 51.3 77 7 44.6 -88.1 -3.469
07:48 1018 30.06 848 25.04 10.8 51.4 79 7.2 45 -88.1 -3.469
07:49 1018 30.06 848 25.04 10.9 51.6 79 7.3 45.2 -88.1 -3.469
07:50 1018 30.06 848 25.04 10.9 51.6 79 7.5 45.5 -88.1 -3.469
07:51 1018 30.06 848 25.04 10.9 51.7 79 7.5 45.5 -88.1 -3.469
07:52 1018 30.06 848 25.04 11 51.8 78 7.4 45.3 -88 -3.465
07:53 1018 30.06 848 25.04 11 51.9 78 7.4 45.3 -88 -3.465
07:54 1018 30.06 848 25.04 11.1 52 79 7.5 45.6 -88 -3.465
07:55 1018 30.06 848 25.04 11.2 52.1 79 7.7 45.8 -88 -3.465
07:56 1018 30.06 848 25.04 11.2 52.2 78 7.5 45.6 -88 -3.465
07:57 1018 30.06 848 25.04 11.3 52.3 79 7.7 45.8 -88 -3.465
07:58 1018 30.06 848 25.04 11.3 52.4 78 7.7 45.9 -88 -3.465
07:59 1018 30.06 848 25.04 11.4 52.6 77 7.6 45.7 -88 -3.465
08:00 1018 30.06 848 25.04 11.5 52.7 78 7.8 46.1 -87.9 -3.461
08:01 1018 30.06 848 25.04 11.6 52.8 78 7.8 46.1 -87.9 -3.461
08:02 1018 30.06 848 25.04 11.6 53 77 7.7 45.9 -87.9 -3.461
08:03 1018 30.06 848 25.04 11.7 53 76 7.6 45.7 -87.9 -3.461
08:04 1018 30.06 848 25.04 11.8 53.2 75 7.5 45.6 -87.8 -3.457
08:05 1018 30.06 848 25.04 11.9 53.4 76 7.7 45.9 -87.8 -3.457
08:06 1018 30.06 848 25.04 12 53.6 74 7.5 45.5 -87.8 -3.457
08:07 1018 30.06 848 25.04 12.1 53.7 75 7.8 46 -87.8 -3.457
08:08 1018 30.06 848 25.04 12.2 53.9 74 7.6 45.8 -87.8 -3.457
08:09 1018 30.06 848 25.04 12.3 54.1 74 7.8 46.1 -87.7 -3.453
08:10 1018 30.06 848 25.04 12.4 54.2 75 8.1 46.6 -87.7 -3.453
08:11 1018 30.06 848 25.04 12.5 54.5 76 8.4 47.1 -87.7 -3.453
08:12 1018 30.06 848 25.04 12.7 54.8 74 8.2 46.7 -87.7 -3.453
08:13 1018 30.06 847 25.01 12.8 55 73 8.1 46.7 -87.7 -3.453
08:14 1018 30.06 848 25.04 12.8 55.1 73 8.1 46.5 -87.7 -3.453
08:15 1018 30.06 848 25.04 12.9 55.3 73 8.2 46.8 -87.6 -3.449
08:16 1018 30.06 848 25.04 13.1 55.6 73 8.5 47.3 -87.6 -3.449
08:17 1018 30.06 848 25.04 13.2 55.8 71 8.1 46.6 -87.6 -3.449
08:18 1018 30.06 848 25.04 13.3 55.9 72 8.3 46.9 -87.6 -3.449
08:19 1018 30.06 847 25.01 13.3 56 67 7.5 45.5 -87.5 -3.445
08:20 1018 30.06 847 25.01 13.4 56.1 71 8.3 46.9 -87.5 -3.445
08:21 1018 30.06 847 25.01 13.4 56.2 71 8.3 47 -87.5 -3.445
08:22 1018 30.06 847 25.01 13.5 56.3 68 7.8 46 -87.5 -3.445
08:23 1018 30.06 847 25.01 13.6 56.5 70 8.3 46.9 -87.5 -3.445
08:24 1018 30.06 847 25.01 13.8 56.8 69 8.2 46.7 -87.5 -3.445
08:25 1018 30.06 847 25.01 13.8 56.8 68 8.2 46.7 -87.4 -3.441
08:26 1018 30.06 847 25.01 13.9 57 67 7.9 46.3 -87.4 -3.441
08:27 1018 30.06 847 25.01 13.9 57 69 8.3 46.9 -87.4 -3.441
08:28 1018 30.06 847 25.01 13.9 57.1 72 9 48.1 -87.4 -3.441
08:29 1018 30.06 847 25.01 14.1 57.4 70 8.7 47.7 -87.4 -3.441
08:30 1018 30.06 848 25.04 14.2 57.6 66 8.1 46.5 -87.4 -3.441
08:31 1018 30.06 847 25.01 14.3 57.8 68 8.5 47.3 -87.3 -3.437
08:32 1018 30.06 847 25.01 14.5 58 68 8.6 47.6 -87.3 -3.437
08:33 1018 30.06 847 25.01 14.6 58.2 65 8.2 46.7 -87.3 -3.437
08:34 1018 30.06 847 25.01 14.6 58.3 68 8.8 47.9 -87.3 -3.437
08:35 1018 30.06 847 25.01 14.6 58.3 64 8 46.5 -87.3 -3.437
08:36 1018 30.06 847 25.01 14.6 58.3 66 8.5 47.3 -87.3 -3.437
08:37 1018 30.06 847 25.01 14.6 58.4 63 7.7 45.9 -87.3 -3.437
08:38 1018 30.06 847 25.01 14.7 58.4 63 7.7 45.8 -87.3 -3.437
08:39 1018 30.06 847 25.01 14.7 58.4 66 8.4 47.1 -87.3 -3.437
08:40 1018 30.06 847 25.01 14.7 58.5 63 7.8 46 -87.3 -3.437
08:41 1018 30.06 847 25.01 14.7 58.5 63 7.9 46.3 -87.2 -3.433
08:42 1018 30.06 847 25.01 14.8 58.6 64 8.1 46.6 -87.2 -3.433
08:43 1018 30.06 847 25.01 14.8 58.7 64 8.1 46.7 -87.2 -3.433
08:44 1018 30.06 847 25.01 14.9 58.9 62 7.8 46 -87.2 -3.433
08:45 1018 30.06 847 25.01 15.1 59.1 63 8.1 46.6 -87.2 -3.433
08:46 1018 30.06 847 25.01 15.2 59.4 61 7.9 46.1 -87.2 -3.433
08:47 1018 30.06 847 25.01 15.3 59.6 61 7.9 46.2 -87.1 -3.429
08:48 1018 30.06 847 25.01 15.5 59.9 62 8.3 46.9 -87.1 -3.429
08:49 1018 30.06 847 25.01 15.6 60 63 8.5 47.3 -87.1 -3.429
08:50 1018 30.06 847 25.01 15.7 60.2 59 7.7 45.8 -87.1 -3.429
08:51 1018 30.06 847 25.01 15.7 60.2 61 8.3 46.9 -87.1 -3.429
08:52 1018 30.06 847 25.01 15.8 60.5 60 8.2 46.8 -87.1 -3.429
08:53 1018 30.06 847 25.01 16 60.8 62 8.8 47.8 -87 -3.425
08:54 1018 30.06 847 25.01 16.1 61.1 61 8.7 47.6 -87 -3.425
08:55 1018 30.06 847 25.01 16.3 61.3 60 8.5 47.3 -87 -3.425
08:56 1018 30.06 847 25.01 16.4 61.5 58 8.2 46.7 -86.9 -3.421
08:57 1018 30.06 847 25.01 16.5 61.6 55 7.4 45.4 -86.9 -3.421
08:58 1018 30.06 847 25.01 16.6 61.8 59 8.6 47.4 -86.9 -3.421
08:59 1018 30.06 847 25.01 16.7 62 56 7.9 46.2 -86.8 -3.417
09:00 1018 30.06 847 25.01 16.8 62.2 59 8.7 47.7 -86.8 -3.417
09:01 1018 30.06 847 25.01 17 62.6 59 8.9 48 -86.8 -3.417
09:02 1018 30.06 847 25.01 17.2 62.9 56 8.3 47 -86.8 -3.417
09:03 1018 30.06 847 25.01 17.2 63 54 7.9 46.2 -86.7 -3.413
09:04 1018 30.06 847 25.01 17.2 62.9 57 8.7 47.7 -86.7 -3.413
09:05 1018 30.06 847 25.01 17.2 63 55 8.2 46.8 -86.7 -3.413
09:06 1018 30.06 847 25.01 17.3 63.1 54 7.8 46.1 -86.7 -3.413
09:07 1018 30.06 847 25.01 17.2 63 54 8 46.4 -86.6 -3.409
09:08 1018 30.06 847 25.01 17.3 63.1 54 8 46.5 -86.6 -3.409
09:09 1018 30.06 847 25.01 17.4 63.4 56 8.6 47.4 -86.6 -3.409
09:10 1018 30.06 847 25.01 17.6 63.6 55 8.4 47.1 -86.6 -3.409
09:11 1018 30.06 847 25.01 17.7 63.8 58 9.3 48.8 -86.6 -3.409
09:12 1018 30.06 847 25.01 17.7 63.8 57 9.1 48.4 -86.6 -3.409
09:13 1018 30.06 847 25.01 17.8 64 57 9.2 48.5 -86.5 -3.406
09:14 1018 30.06 847 25.01 17.9 64.2 60 10.2 50.3 -86.5 -3.406
09:15 1018 30.06 847 25.01 17.9 64.2 59 9.9 49.9 -86.5 -3.406
09:16 1018 30.06 847 25.01 18 64.4 52 8.2 46.7 -86.4 -3.402
09:17 1018 30.06 847 25.01 18 64.3 54 8.5 47.3 -86.4 -3.402
09:18 1018 30.06 847 25.01 17.9 64.3 53 8.5 47.2 -86.4 -3.402
09:19 1018 30.06 847 25.01 18.1 64.6 57 9.5 49.1 -86.4 -3.402
09:20 1018 30.06 847 25.01 18.3 64.9 51 8.2 46.7 -86.4 -3.402
09:21 1018 30.06 847 25.01 18.3 65 50 7.9 46.3 -86.3 -3.398
09:22 1018 30.06 847 25.01 18.3 65 56 9.6 49.2 -86.3 -3.398
09:23 1018 30.06 847 25.01 18.4 65 50 7.8 46.1 -86.3 -3.398
09:24 1018 30.06 847 25.01 18.3 65 55 9.1 48.4 -86.3 -3.398
09:25 1018 30.06 847 25.01 18.4 65.1 52 8.5 47.3 -86.2 -3.394
09:26 1018 30.06 847 25.01 18.4 65.2 51 8.1 46.7 -86.2 -3.394
09:27 1018 30.06 847 25.01 18.6 65.4 51 8.2 46.8 -86.2 -3.394
09:28 1018 30.06 847 25.01 18.8 65.8 50 8.2 46.8 -86.2 -3.394
09:29 1018 30.06 847 25.01 18.8 65.8 52 9 48.1 -86.1 -3.39
09:30 1018 30.06 847 25.01 18.9 66 51 8.8 47.8 -86.1 -3.39
09:31 1018 30.06 847 25.01 18.9 66 47 7.6 45.7 -86.1 -3.39
09:32 1018 30.06 847 25.01 18.8 65.9 48 7.6 45.6 -86.1 -3.39
09:33 1018 30.06 847 25.01 18.8 65.8 49 8.1 46.6 -86 -3.386
09:34 1018 30.06 847 25.01 18.9 65.9 49 8 46.5 -86 -3.386
09:35 1018 30.06 847 25.01 18.9 66 48 7.8 46.1 -86 -3.386
09:36 1018 30.06 847 25.01 18.9 65.9 51 8.7 47.7 -86 -3.386
09:37 1018 30.06 847 25.01 19 66.1 52 8.9 48 -85.9 -3.382
09:38 1018 30.06 847 25.01 19.2 66.5 44 6.9 44.5 -85.9 -3.382
09:39 1018 30.06 847 25.01 19.1 66.4 44 6.7 44 -85.9 -3.382
09:40 1018 30.06 847 25.01 19.2 66.5 43 6.4 43.5 -85.9 -3.382
09:41 1018 30.06 847 25.01 19.2 66.6 47 7.8 46 -85.8 -3.378
09:42 1018 30.06 847 25.01 19.2 66.6 47 7.8 46 -85.8 -3.378
09:43 1018 30.06 847 25.01 19.1 66.3 44 6.7 44.1 -85.8 -3.378
09:44 1018 30.06 847 25.01 19.1 66.3 44 6.7 44.1 -85.8 -3.378
09:45 1018 30.06 847 25.01 19 66.2 46 7.2 44.9 -85.7 -3.374
09:46 1018 30.06 847 25.01 19 66.2 42 6.1 43 -85.7 -3.374
09:47 1018 30.06 847 25.01 19 66.2 44 6.6 43.9 -85.7 -3.374
09:48 1018 30.06 847 25.01 19.1 66.3 44 6.5 43.7 -85.7 -3.374
09:49 1018 30.06 847 25.01 19.1 66.4 42 6.1 42.9 -85.7 -3.374
09:50 1018 30.06 847 25.01 19.1 66.4 43 6.4 43.4 -85.7 -3.374
09:51 1018 30.06 847 25.01 19 66.2 45 6.9 44.3 -85.7 -3.374
09:52 1018 30.06 847 25.01 19.2 66.5 50 8.7 47.6 -85.7 -3.374
09:53 1018 30.06 847 25.01 19.2 66.5 47 7.8 46.1 -85.7 -3.374
09:54 1018 30.06 847 25.01 19.3 66.7 44 6.9 44.5 -85.7 -3.374
09:55 1018 30.06 847 25.01 19.4 66.9 43 6.8 44.2 -85.6 -3.37
09:56 1018 30.06 847 25.01 19.3 66.8 43 6.5 43.7 -85.6 -3.37
09:57 1018 30.06 847 25.01 19.4 66.9 43 6.6 44 -85.6 -3.37
09:58 1018 30.06 847 25.01 19.5 67 45 7.3 45.1 -85.5 -3.366
09:59 1018 30.06 847 25.01 19.5 67.2 50 8.9 48 -85.5 -3.366
10:00 1018 30.06 847 25.01 19.7 67.4 45 7.5 45.5 -85.5 -3.366
10:01 1018 30.06 847 25.01 19.7 67.4 44 7.3 45.1 -85.4 -3.362
10:02 1018 30.06 847 25.01 19.7 67.4 42 6.6 43.9 -85.4 -3.362
10:03 1018 30.06 847 25.01 19.7 67.5 43 6.9 44.4 -85.4 -3.362
10:04 1018 30.06 847 25.01 19.7 67.5 41 6.3 43.3 -85.3 -3.358
10:05 1018 30.06 847 25.01 19.7 67.4 48 8.4 47.2 -85.3 -3.358
10:06 1018 30.06 847 25.01 19.8 67.6 42 6.5 43.8 -85.3 -3.358
10:07 1018 30.06 847 25.01 19.9 67.8 46 8.1 46.5 -85.3 -3.358
10:08 1018 30.06 847 25.01 20 68 45 8 46.4 -85.2 -3.354
10:09 1018 30.06 847 25.01 20.2 68.4 40 6.4 43.6 -85.2 -3.354
10:10 1018 30.06 847 25.01 20.3 68.5 41 6.7 44.1 -85.1 -3.35
10:11 1018 30.06 847 25.01 20.3 68.5 41 6.9 44.5 -85.1 -3.35
10:12 1018 30.06 847 25.01 20.4 68.8 40 6.6 43.9 -85.1 -3.35
10:13 1018 30.06 847 25.01 20.7 69.2 43 7.7 45.9 -85.1 -3.35
10:14 1018 30.06 847 25.01 20.8 69.5 40 6.9 44.4 -85 -3.346
10:15 1018 30.06 847 25.01 21 69.8 40 6.9 44.4 -85 -3.346
10:16 1018 30.06 847 25.01 21.1 69.9 42 7.9 46.2 -85 -3.346
10:17 1018 30.06 847 25.01 21.2 70.2 39 6.8 44.2 -84.9 -3.343
10:18 1018 30.06 847 25.01 21.2 70.1 40 7.3 45.2 -84.9 -3.343
10:19 1018 30.06 847 25.01 21 69.8 41 7.4 45.2 -84.9 -3.343
10:20 1018 30.06 847 25.01 20.8 69.5 39 6.5 43.6 -85 -3.346
10:21 1018 30.06 847 25.01 20.6 69.1 41 6.9 44.5 -85 -3.346
10:22 1018 30.06 847 25.01 20.5 68.9 44 8 46.5 -85.1 -3.35
10:23 1018 30.06 847 25.01 20.5 68.9 42 7.2 44.9 -85.2 -3.354
10:24 1018 30.06 847 25.01 20.5 69 40 6.5 43.6 -85.2 -3.354
10:25 1018 30.06 847 25.01 20.5 68.9 40 6.7 44.1 -85.3 -3.358
10:26 1018 30.06 847 25.01 20.6 69.1 40 6.8 44.2 -85.3 -3.358
10:27 1018 30.06 847 25.01 20.7 69.3 38 6.3 43.3 -85.2 -3.354
10:28 1018 30.06 847 25.01 20.8 69.5 43 7.9 46.3 -85.2 -3.354
10:29 1018 30.06 847 25.01 20.9 69.6 45 8.7 47.7 -85.2 -3.354
10:30 1018 30.06 847 25.01 21 69.8 40 7 44.5 -85.2 -3.354
10:31 1018 30.06 847 25.01 21.1 70 39 6.9 44.4 -85.2 -3.354
10:32 1018 30.06 847 25.01 21.1 69.9 43 8.2 46.8 -85.2 -3.354
10:33 1018 30.06 847 25.01 21.2 70.2 46 9.4 48.9 -85.2 -3.354
10:34 1018 30.06 847 25.01 21.3 70.4 39 7 44.6 -85.2 -3.354
10:35 1018 30.06 847 25.01 21.5 70.7 39 7.3 45.1 -85.1 -3.35
10:36 1018 30.06 847 25.01 21.6 70.9 42 8.2 46.7 -85.1 -3.35
10:37 1018 30.06 847 25.01 21.8 71.2 38 7 44.5 -85.1 -3.35
10:38 1018 30.06 847 25.01 21.8 71.2 39 7.3 45.2 -85.1 -3.35
10:39 1018 30.06 847 25.01 21.7 71 42 8.2 46.8 -85.1 -3.35
10:40 1018 30.06 847 25.01 21.5 70.8 41 7.8 46.1 -85.1 -3.35
10:41 1018 30.06 847 25.01 21.4 70.5 43 8.3 47 -85.1 -3.35
10:42 1017 30.03 847 25.01 21.3 70.3 44 8.6 47.5 -85.1 -3.35
10:43 1017 30.03 847 25.01 21.2 70.2 43 8.3 46.9 -85.1 -3.35
10:44 1017 30.03 847 25.01 21.1 70 40 7.3 45.1 -85.1 -3.35
10:45 1017 30.03 847 25.01 21.1 69.9 41 7.3 45.2 -85.1 -3.35
10:46 1017 30.03 847 25.01 21.1 69.9 40 7 44.5 -85.1 -3.35
10:47 1018 30.06 847 25.01 21.1 70 39 6.9 44.4 -85.1 -3.35
10:48 1018 30.06 847 25.01 21.2 70.1 42 7.9 46.2 -85 -3.346
10:49 1017 30.03 847 25.01 21.2 70.2 39 6.8 44.3 -85 -3.346
10:50 1017 30.03 847 25.01 21.3 70.4 42 8.1 46.5 -84.9 -3.343
10:51 1017 30.03 847 25.01 21.4 70.5 38 6.6 43.9 -84.9 -3.343
10:52 1017 30.03 847 25.01 21.5 70.7 40 7.4 45.2 -84.8 -3.339
10:53 1017 30.03 847 25.01 21.6 70.9 40 7.7 45.8 -84.8 -3.339
10:54 1017 30.03 847 25.01 21.6 71 39 7.4 45.3 -84.7 -3.335
10:55 1017 30.03 847 25.01 21.6 70.8 41 8 46.4 -84.7 -3.335
10:56 1017 30.03 847 25.01 21.5 70.8 38 6.9 44.4 -84.7 -3.335
10:57 1017 30.03 847 25.01 21.5 70.6 40 7.6 45.7 -84.7 -3.335
10:58 1017 30.03 847 25.01 21.4 70.6 43 8.6 47.5 -84.7 -3.335
10:59 1017 30.03 847 25.01 21.5 70.6 39 7.1 44.8 -84.7 -3.335
11:00 1017 30.03 847 25.01 21.5 70.7 38 6.6 43.9 -84.6 -3.331
11:01 1017 30.03 847 25.01 21.5 70.8 38 6.8 44.2 -84.5 -3.327
11:02 1017 30.03 847 25.01 21.8 71.2 43 8.8 47.8 -84.4 -3.323
11:03 1017 30.03 847 25.01 21.9 71.5 38 7.2 45 -84.4 -3.323
11:04 1017 30.03 847 25.01 21.9 71.4 42 8.4 47.2 -84.3 -3.319
11:05 1017 30.03 847 25.01 22 71.6 42 8.5 47.3 -84.3 -3.319
11:06 1017 30.03 847 25.01 22.1 71.7 40 8.1 46.7 -84.3 -3.319
11:07 1017 30.03 847 25.01 22.2 71.9 40 8 46.5 -84.3 -3.319
11:08 1017 30.03 847 25.01 22.4 72.3 43 9.2 48.6 -84.2 -3.315
11:09 1017 30.03 847 25.01 22.6 72.6 40 8.4 47.1 -84.2 -3.315
11:10 1017 30.03 847 25.01 22.5 72.4 37 7.2 45 -84.1 -3.311
11:11 1017 30.03 847 25.01 22.3 72.2 43 9.2 48.6 -84.1 -3.311
11:12 1017 30.03 847 25.01 22.3 72.2 39 7.7 45.9 -84.1 -3.311
11:13 1017 30.03 847 25.01 22.3 72.1 37 7.1 44.8 -84.1 -3.311
11:14 1017 30.03 847 25.01 22.4 72.3 37 7.2 45 -84 -3.307
11:15 1017 30.03 847 25.01 22.5 72.4 43 9.3 48.7 -84 -3.307
11:16 1017 30.03 846 24.98 22.6 72.6 38 7.7 45.8 -83.9 -3.303
11:17 1017 30.03 846 24.98 22.5 72.5 40 8.5 47.2 -83.9 -3.303
11:18 1017 30.03 846 24.98 22.4 72.4 39 7.9 46.3 -83.8 -3.299
11:19 1017 30.03 846 24.98 22.4 72.3 45 10 50.1 -83.8 -3.299
11:20 1017 30.03 846 24.98 22.4 72.4 37 7.3 45.1 -83.8 -3.299
11:21 1017 30.03 846 24.98 22.4 72.4 39 8.1 46.6 -83.8 -3.299
11:22 1017 30.03 846 24.98 22.5 72.5 41 8.8 47.9 -83.7 -3.295
11:23 1017 30.03 846 24.98 22.4 72.4 40 8.4 47.1 -83.7 -3.295
11:24 1017 30.03 846 24.98 22.4 72.3 38 7.5 45.4 -83.7 -3.295
11:25 1017 30.03 846 24.98 22.3 72.2 39 8.1 46.5 -83.6 -3.291
11:26 1017 30.03 846 24.98 22.4 72.3 38 7.7 45.9 -83.6 -3.291
11:27 1017 30.03 846 24.98 22.4 72.3 36 6.9 44.4 -83.6 -3.291
11:28 1017 30.03 846 24.98 22.4 72.3 40 8.2 46.7 -83.6 -3.291
11:29 1017 30.03 846 24.98 22.5 72.5 37 7.5 45.5 -83.5 -3.287
11:30 1017 30.03 846 24.98 22.7 72.9 41 9 48.2 -83.5 -3.287
11:31 1017 30.03 846 24.98 22.8 73 39 8.1 46.7 -83.4 -3.283
11:32 1017 30.03 846 24.98 22.7 72.9 40 8.8 47.8 -83.4 -3.283
11:33 1017 30.03 846 24.98 22.6 72.8 37 7.6 45.6 -83.4 -3.283
11:34 1017 30.03 846 24.98 22.6 72.6 36 7 44.6 -83.4 -3.283
11:35 1017 30.03 846 24.98 22.5 72.6 39 8.1 46.5 -83.3 -3.28
11:36 1017 30.03 846 24.98 22.7 72.8 36 6.9 44.5 -83.3 -3.28
11:37 1017 30.03 846 24.98 22.7 72.9 40 8.8 47.8 -83.2 -3.276
11:38 1017 30.03 846 24.98 22.7 72.8 40 8.6 47.5 -83.2 -3.276
11:39 1017 30.03 846 24.98 22.6 72.8 38 7.7 45.9 -83.2 -3.276
11:40 1017 30.03 846 24.98 22.7 72.8 41 8.8 47.9 -83.1 -3.272
11:41 1017 30.03 846 24.98 22.8 73 40 8.6 47.4 -83.1 -3.272
11:42 1017 30.03 846 24.98 22.8 73.1 39 8.2 46.7 -83.1 -3.272
11:43 1017 30.03 846 24.98 22.9 73.2 42 9.3 48.8 -83 -3.268
11:44 1017 30.03 846 24.98 23 73.3 36 7.3 45.1 -83 -3.268
11:45 1017 30.03 846 24.98 23 73.4 40 9 48.2 -82.9 -3.264
11:46 1017 30.03 846 24.98 23.2 73.7 38 8.1 46.6 -82.9 -3.264
11:47 1017 30.03 846 24.98 23.3 73.9 39 8.6 47.5 -82.8 -3.26
11:48 1017 30.03 846 24.98 23.3 74 42 9.8 49.6 -82.8 -3.26
11:49 1017 30.03 846 24.98 23.4 74.1 37 8.2 46.7 -82.8 -3.26
11:50 1017 30.03 846 24.98 23.4 74.1 33 6.3 43.4 -82.7 -3.256
11:51 1017 30.03 846 24.98 23.4 74 35 7.2 44.9 -82.7 -3.256
11:52 1017 30.03 846 24.98 23.2 73.8 43 10 50.1 -82.6 -3.252
11:53 1017 30.03 846 24.98 23.2 73.7 41 9.3 48.7 -82.6 -3.252
11:54 1017 30.03 846 24.98 23.1 73.7 38 8.3 46.9 -82.6 -3.252
11:55 1017 30.03 846 24.98 23.1 73.6 37 7.8 46 -82.5 -3.248
11:56 1017 30.03 846 24.98 23 73.4 35 7.1 44.8 -82.5 -3.248
11:57 1017 30.03 846 24.98 23.1 73.5 36 7.4 45.3 -82.5 -3.248
11:58 1017 30.03 846 24.98 23.2 73.7 36 7.6 45.8 -82.4 -3.244
11:59 1017 30.03 846 24.98 23.2 73.7 38 8.1 46.6 -82.4 -3.244
12:00 1017 30.03 846 24.98 23.2 73.8 33 6.4 43.4 -82.4 -3.244
12:01 1017 30.03 846 24.98 23.3 73.9 35 7.1 44.8 -82.4 -3.244
12:02 1017 30.03 846 24.98 23.4 74 36 7.6 45.7 -82.3 -3.24
12:03 1017 30.03 846 24.98 23.4 74 37 8 46.4 -82.3 -3.24
12:04 1017 30.03 846 24.98 23.3 73.9 39 8.8 47.9 -82.3 -3.24
12:05 1017 30.03 846 24.98 23.4 74.1 34 6.9 44.4 -82.2 -3.236
12:06 1017 30.03 846 24.98 23.4 74 32 5.7 42.3 -82.2 -3.236
12:07 1017 30.03 846 24.98 23.4 74 36 7.5 45.5 -82.2 -3.236
12:08 1017 30.03 846 24.98 23.4 74.1 34 6.7 44.1 -82.2 -3.236
12:09 1017 30.03 846 24.98 23.5 74.2 35 7.2 44.9 -82.1 -3.232
12:10 1017 30.03 846 24.98 23.7 74.6 39 8.9 48.1 -82.1 -3.232
12:11 1017 30.03 846 24.98 23.8 74.9 35 7.8 46.1 -82 -3.228
12:12 1017 30.03 846 24.98 23.8 74.9 35 7.4 45.4 -82 -3.228
12:13 1017 30.03 846 24.98 23.8 74.8 31 6 42.8 -82 -3.228
12:14 1017 30.03 846 24.98 23.7 74.7 28 4.4 39.9 -81.9 -3.224
12:15 1017 30.03 846 24.98 23.7 74.6 30 5.3 41.5 -81.9 -3.224
12:16 1017 30.03 846 24.98 23.8 74.8 33 6.6 43.9 -81.9 -3.224
12:17 1017 30.03 846 24.98 23.7 74.7 36 7.8 46.1 -81.9 -3.224
12:18 1017 30.03 846 24.98 23.7 74.7 30 5.4 41.8 -81.9 -3.224
12:19 1017 30.03 846 24.98 23.7 74.7 34 7 44.5 -81.8 -3.22
12:20 1017 30.03 846 24.98 23.9 75 30 5.2 41.4 -81.8 -3.22
12:21 1017 30.03 846 24.98 23.9 75.1 31 5.9 42.6 -81.8 -3.22
12:22 1017 30.03 846 24.98 24.1 75.3 32 6.5 43.7 -81.7 -3.217
12:23 1017 30.03 846 24.98 24 75.2 34 7.4 45.4 -81.7 -3.217
12:24 1017 30.03 846 24.98 24 75.1 32 6.6 44 -81.7 -3.217
12:25 1017 30.03 846 24.98 23.9 75.1 29 5.2 41.4 -81.6 -3.213
12:26 1017 30.03 846 24.98 23.8 74.9 29 4.7 40.5 -81.6 -3.213
12:27 1017 30.03 846 24.98 23.8 74.8 32 6.4 43.6 -81.6 -3.213
12:28 1017 30.03 846 24.98 23.8 74.8 28 4.6 40.2 -81.6 -3.213
12:29 1016 30 846 24.98 23.8 74.9 30 5.5 41.8 -81.5 -3.209
12:30 1016 30 846 24.98 23.9 75 33 6.9 44.4 -81.5 -3.209
12:31 1017 30.03 846 24.98 24.1 75.3 31 5.9 42.6 -81.4 -3.205
12:32 1017 30.03 846 24.98 24.2 75.6 31 6.1 43 -81.4 -3.205
12:33 1016 30 846 24.98 24.2 75.5 34 7.4 45.3 -81.4 -3.205
12:34 1016 30 846 24.98 24.2 75.5 30 5.6 42 -81.3 -3.201
12:35 1016 30 846 24.98 24.2 75.5 33 7.1 44.8 -81.3 -3.201
12:36 1016 30 846 24.98 24.2 75.6 28 4.9 40.8 -81.3 -3.201
12:37 1016 30 846 24.98 24.1 75.5 30 5.7 42.2 -81.3 -3.201
12:38 1016 30 846 24.98 24.2 75.5 29 5.4 41.6 -81.2 -3.197
12:39 1016 30 846 24.98 24.2 75.5 31 6.2 43.2 -81.2 -3.197
12:40 1016 30 846 24.98 24.2 75.6 31 6.2 43.2 -81.1 -3.193
12:41 1016 30 846 24.98 24.3 75.7 34 7.8 46 -81.1 -3.193
12:42 1016 30 846 24.98 24.4 75.9 31 6.2 43.1 -81.1 -3.193
12:43 1016 30 846 24.98 24.4 75.8 27 4.6 40.3 -81.1 -3.193
12:44 1016 30 846 24.98 24.3 75.7 31 6.3 43.3 -81 -3.189
12:45 1016 30 846 24.98 24.3 75.7 30 5.8 42.5 -81 -3.189
12:46 1016 30 846 24.98 24.2 75.6 30 5.6 42.1 -81 -3.189
12:47 1016 30 846 24.98 24.2 75.6 32 6.5 43.7 -80.9 -3.185
12:48 1016 30 846 24.98 24.3 75.8 34 7.7 45.8 -80.9 -3.185
12:49 1016 30 846 24.98 24.4 76 27 4.6 40.2 -80.9 -3.185
12:50 1016 30 846 24.98 24.3 75.8 34 7.8 46 -80.9 -3.185
12:51 1016 30 846 24.98 24.3 75.8 28 4.8 40.6 -80.8 -3.181
12:52 1016 30 846 24.98 24.2 75.6 29 5.4 41.6 -80.8 -3.181
12:53 1016 30 846 24.98 24.3 75.7 30 5.9 42.5 -80.8 -3.181
12:54 1016 30 846 24.98 24.3 75.8 27 4.4 39.8 -80.7 -3.177
12:55 1016 30 846 24.98 24.4 75.9 31 6.6 43.9 -80.7 -3.177
12:56 1016 30 846 24.98 24.6 76.2 30 6.2 43.1 -80.7 -3.177
12:57 1016 30 846 24.98 24.6 76.2 35 8.4 47.1 -80.6 -3.173
12:58 1016 30 846 24.98 24.6 76.2 33 7.5 45.6 -80.6 -3.173
12:59 1016 30 846 24.98 24.6 76.3 30 6 42.7 -80.6 -3.173
13:00 1016 30 846 24.98 24.5 76.2 32 7.1 44.7 -80.6 -3.173
13:01 1016 30 846 24.98 24.6 76.3 38 9.5 49.1 -80.5 -3.169
13:02 1016 30 846 24.98 24.8 76.6 28 5.5 42 -80.5 -3.169
13:03 1016 30 845 24.95 24.8 76.6 29 5.8 42.4 -80.5 -3.169
13:04 1016 30 845 24.95 24.6 76.3 28 5.3 41.5 -80.5 -3.169
13:05 1016 30 845 24.95 24.5 76 29 5.3 41.6 -80.4 -3.165
13:06 1016 30 845 24.95 24.4 75.9 33 7.1 44.8 -80.4 -3.165
13:07 1016 30 845 24.95 24.5 76.1 34 7.9 46.3 -80.4 -3.165
13:08 1016 30 845 24.95 24.6 76.3 29 5.7 42.3 -80.4 -3.165
13:09 1016 30 845 24.95 24.7 76.5 28 5.5 41.9 -80.3 -3.161
13:10 1016 30 845 24.95 24.7 76.5 27 5 40.9 -80.3 -3.161
13:11 1016 30 845 24.95 24.7 76.5 28 5.1 41.2 -80.3 -3.161
13:12 1016 30 845 24.95 24.7 76.5 29 5.5 42 -80.3 -3.161
13:13 1016 30 845 24.95 24.7 76.5 33 7.7 45.9 -80.3 -3.161
13:14 1016 30 845 24.95 24.9 76.8 31 6.7 44 -80.2 -3.157
13:15 1016 30 845 24.95 25.1 77.1 29 6 42.9 -80.2 -3.157
13:16 1016 30 845 24.95 25.1 77.2 32 7.5 45.5 -80.2 -3.157
13:17 1016 30 845 24.95 25.1 77.2 28 5.7 42.3 -80.2 -3.157
13:18 1016 30 845 24.95 25.1 77.1 26 4.7 40.5 -80.2 -3.157
13:19 1016 30 845 24.95 25.1 77.2 27 5.2 41.4 -80.1 -3.154
13:20 1016 30 845 24.95 25.1 77.1 28 5.3 41.5 -80.1 -3.154
13:21 1016 30 845 24.95 25 77 28 5.6 42.2 -80.1 -3.154
13:22 1016 30 845 24.95 25 76.9 26 4.4 39.9 -80.1 -3.154
13:23 1016 30 845 24.95 25 77 28 5.2 41.4 -80.1 -3.154
13:24 1016 30 845 24.95 25.2 77.3 27 4.9 40.9 -80 -3.15
13:25 1016 30 845 24.95 25.3 77.5 26 4.5 40.2 -80 -3.15
13:26 1016 30 845 24.95 25.3 77.6 29 6.3 43.3 -80 -3.15
13:27 1016 30 845 24.95 25.3 77.5 26 4.8 40.7 -80 -3.15
13:28 1016 30 845 24.95 25.2 77.4 32 7.4 45.3 -80 -3.15
13:29 1016 30 845 24.95 25.3 77.5 28 5.6 42 -79.9 -3.146
13:30 1016 30 845 24.95 25.3 77.5 33 8 46.4 -79.9 -3.146
13:31 1016 30 845 24.95 25.1 77.3 26 4.7 40.5 -79.9 -3.146
13:32 1016 30 845 24.95 25 77 26 4.6 40.3 -79.9 -3.146
13:33 1016 30 845 24.95 25 76.9 27 4.9 40.7 -79.9 -3.146
13:34 1016 30 845 24.95 25 77 29 6 42.8 -79.9 -3.146
13:35 1016 30 845 24.95 25.1 77.2 27 5.2 41.3 -79.8 -3.142
13:36 1016 30 845 24.95 25.2 77.4 28 5.5 41.9 -79.8 -3.142
13:37 1016 30 845 24.95 25.3 77.6 29 6.4 43.5 -79.8 -3.142
13:38 1016 30 845 24.95 25.4 77.8 29 6.3 43.4 -79.8 -3.142
13:39 1016 30 845 24.95 25.4 77.8 26 4.6 40.4 -79.8 -3.142
13:40 1016 30 845 24.95 25.3 77.5 28 5.6 42 -79.8 -3.142
13:41 1016 30 845 24.95 25.3 77.5 26 4.8 40.6 -79.7 -3.138
13:42 1016 30 845 24.95 25.2 77.4 28 5.6 42.1 -79.7 -3.138
13:43 1016 30 845 24.95 25.3 77.6 27 5.3 41.6 -79.7 -3.138
13:44 1016 30 845 24.95 25.3 77.5 26 4.8 40.6 -79.7 -3.138
13:45 1016 30 845 24.95 25.3 77.5 30 6.8 44.3 -79.7 -3.138
13:46 1016 30 845 24.95 25.4 77.7 27 5.4 41.8 -79.7 -3.138
13:47 1016 30 845 24.95 25.3 77.5 27 5.4 41.7 -79.6 -3.134
13:48 1016 30 845 24.95 25.2 77.3 29 6 42.8 -79.6 -3.134
13:49 1016 30 845 24.95 25 77.1 26 4.3 39.7 -79.6 -3.134
13:50 1016 30 845 24.95 25 77.1 28 5.6 42 -79.6 -3.134
13:51 1016 30 845 24.95 25.2 77.3 26 4.7 40.5 -79.6 -3.134
13:52 1016 30 845 24.95 25.3 77.5 28 5.8 42.4 -79.6 -3.134
13:53 1016 30 845 24.95 25.5 77.9 25 4.5 40.1 -79.5 -3.13
13:54 1016 30 845 24.95 25.7 78.3 25 4.7 40.4 -79.5 -3.13
13:55 1016 30 845 24.95 25.9 78.7 27 5.5 41.9 -79.5 -3.13
13:56 1016 30 845 24.95 26.1 78.9 28 6.4 43.6 -79.5 -3.13
13:57 1016 30 845 24.95 26 78.7 26 5.4 41.8 -79.5 -3.13
13:58 1016 30 845 24.95 25.9 78.6 29 6.9 44.5 -79.4 -3.126
13:59 1016 30 845 24.95 25.9 78.6 25 4.8 40.6 -79.4 -3.126
14:00 1016 30 845 24.95 25.8 78.5 24 4.1 39.5 -79.4 -3.126
14:01 1016 30 845 24.95 25.7 78.3 25 4.3 39.8 -79.4 -3.126
14:02 1016 30 845 24.95 25.7 78.3 28 5.9 42.7 -79.4 -3.126
14:03 1016 30 845 24.95 25.9 78.6 24 4 39.2 -79.4 -3.126
14:04 1016 30 845 24.95 25.9 78.7 24 4.2 39.5 -79.3 -3.122
14:05 1016 30 845 24.95 26 78.9 25 4.9 40.8 -79.3 -3.122
14:06 1016 30 845 24.95 26.1 79.1 27 5.7 42.3 -79.3 -3.122
14:07 1016 30 845 24.95 26 78.9 28 6.5 43.6 -79.3 -3.122
14:08 1016 30 845 24.95 26 78.8 26 5.5 41.9 -79.2 -3.118
14:09 1016 30 845 24.95 26.1 79 25 5 41 -79.2 -3.118
14:10 1016 30 845 24.95 26.2 79.2 23 4 39.1 -79.2 -3.118
14:11 1016 30 845 24.95 26.3 79.4 25 5.2 41.3 -79.2 -3.118
14:12 1016 30 845 24.95 26.3 79.3 23 3.6 38.5 -79.2 -3.118
14:13 1016 30 845 24.95 26.1 78.9 25 4.6 40.3 -79.1 -3.114
14:14 1016 30 845 24.95 25.9 78.7 23 3.2 37.8 -79.1 -3.114
14:15 1016 30 845 24.95 26 78.9 26 5.4 41.7 -79.1 -3.114
14:16 1016 30 845 24.95 26.1 79.1 26 5.3 41.5 -79 -3.11
14:17 1016 30 845 24.95 26.2 79.1 27 5.8 42.4 -79 -3.11
14:18 1016 30 845 24.95 26.2 79.2 24 4.1 39.3 -79 -3.11
14:19 1016 30 845 24.95 26.4 79.4 22 3.2 37.8 -78.9 -3.106
14:20 1016 30 845 24.95 26.5 79.6 22 3.6 38.4 -78.9 -3.106
14:21 1016 30 845 24.95 26.5 79.7 25 4.9 40.8 -78.8 -3.102
14:22 1015 29.97 845 24.95 26.6 79.8 25 5.5 41.8 -78.8 -3.102
14:23 1015 29.97 845 24.95 26.5 79.8 23 4.1 39.4 -78.7 -3.098
14:24 1015 29.97 845 24.95 26.5 79.7 27 6.2 43.1 -78.7 -3.098
14:25 1015 29.97 845 24.95 26.5 79.8 26 5.6 42 -78.7 -3.098
14:26 1015 29.97 845 24.95 26.5 79.6 27 6.1 43 -78.7 -3.098
14:27 1015 29.97 845 24.95 26.4 79.6 24 4.6 40.3 -78.6 -3.094
14:28 1015 29.97 845 24.95 26.4 79.4 24 4.4 40 -78.6 -3.094
14:29 1015 29.97 845 24.95 26.3 79.4 27 5.9 42.6 -78.5 -3.091
14:30 1015 29.97 845 24.95 26.4 79.5 23 3.8 38.9 -78.5 -3.091
14:31 1015 29.97 845 24.95 26.5 79.6 24 4.4 40 -78.4 -3.087
14:32 1015 29.97 845 24.95 26.4 79.6 23 3.8 38.9 -78.4 -3.087
14:33 1015 29.97 845 24.95 26.3 79.4 23 3.6 38.5 -78.3 -3.083
14:34 1015 29.97 845 24.95 26.3 79.3 23 3.6 38.5 -78.3 -3.083
14:35 1015 29.97 844 24.92 26.3 79.3 25 4.9 40.7 -78.3 -3.083
14:36 1015 29.97 844 24.92 26.4 79.4 25 4.9 40.8 -78.2 -3.079
14:37 1015 29.97 844 24.92 26.5 79.6 25 4.9 40.8 -78.2 -3.079
14:38 1015 29.97 844 24.92 26.6 79.8 26 5.5 42 -78.1 -3.075
14:39 1015 29.97 844 24.92 26.8 80.2 22 3.7 38.7 -78 -3.071
14:40 1015 29.97 844 24.92 26.9 80.4 24 5.2 41.3 -78 -3.071
14:41 1015 29.97 844 24.92 27 80.5 23 4.6 40.3 -77.9 -3.067
14:42 1015 29.97 844 24.92 27.1 80.8 26 6.2 43.2 -77.9 -3.067
14:43 1015 29.97 844 24.92 27.2 81 23 4.4 40 -77.8 -3.063
14:44 1015 29.97 844 24.92 27.2 80.9 25 5.7 42.2 -77.8 -3.063
14:45 1015 29.97 844 24.92 27 80.6 24 4.7 40.5 -77.8 -3.063
14:46 1015 29.97 844 24.92 26.8 80.3 22 3.9 39.1 -77.7 -3.059
14:47 1015 29.97 844 24.92 26.6 80 26 5.7 42.2 -77.7 -3.059
14:48 1015 29.97 844 24.92 26.6 79.9 25 5.3 41.5 -77.6 -3.055
14:49 1015 29.97 844 24.92 26.7 80.1 24 4.5 40.2 -77.6 -3.055
14:50 1015 29.97 844 24.92 26.9 80.5 27 6.5 43.7 -77.5 -3.051
14:51 1015 29.97 844 24.92 27.1 80.8 27 6.9 44.5 -77.4 -3.047
14:52 1015 29.97 844 24.92 27.2 81 25 5.7 42.3 -77.4 -3.047
14:53 1015 29.97 844 24.92 27.3 81.2 20 2.6 36.8 -77.3 -3.043
14:54 1015 29.97 844 24.92 27.4 81.3 22 4.1 39.4 -77.3 -3.043
14:55 1015 29.97 844 24.92 27.4 81.3 21 3.4 38 -77.2 -3.039
14:56 1015 29.97 844 24.92 27.3 81.2 18 1.6 34.8 -77.2 -3.039
14:57 1015 29.97 844 24.92 27.4 81.2 19 2.3 36.1 -77.1 -3.035
14:58 1015 29.97 844 24.92 27.5 81.4 24 5.5 41.9 -77.1 -3.035
14:59 1015 29.97 844 24.92 27.5 81.5 22 3.9 39 -77 -3.031
15:00 1015 29.97 844 24.92 27.5 81.4 20 3.1 37.7 -77 -3.031
15:01 1015 29.97 844 24.92 27.4 81.2 21 3.3 38 -77 -3.031
15:02 1015 29.97 844 24.92 27.3 81.1 19 2.1 35.7 -76.9 -3.028
15:03 1015 29.97 844 24.92 27.3 81.1 23 4.6 40.3 -76.8 -3.024
15:04 1015 29.97 844 24.92 27.3 81.2 21 3.6 38.5 -76.8 -3.024
15:05 1015 29.97 844 24.92 27.4 81.3 20 3 37.3 -76.7 -3.02
15:06 1015 29.97 844 24.92 27.4 81.3 21 3.4 38 -76.6 -3.016
15:07 1015 29.97 844 24.92 27.4 81.4 19 2.4 36.4 -76.6 -3.016
15:08 1015 29.97 844 24.92 27.4 81.3 20 2.7 36.8 -76.6 -3.016
15:09 1015 29.97 844 24.92 27.3 81.2 21 3.6 38.6 -76.5 -3.012
15:10 1015 29.97 844 24.92 27.4 81.3 21 3.6 38.5 -76.5 -3.012
15:11 1015 29.97 844 24.92 27.3 81.2 22 4.4 39.9 -76.4 -3.008
15:12 1015 29.97 844 24.92 27.3 81.1 22 3.9 39 -76.4 -3.008
15:13 1015 29.97 844 24.92 27.2 81 24 5.3 41.6 -76.4 -3.008
15:14 1015 29.97 844 24.92 27.2 81 23 4.5 40.2 -76.3 -3.004
15:15 1015 29.97 844 24.92 27.2 81 21 3.1 37.6 -76.3 -3.004
15:16 1015 29.97 844 24.92 27.2 81 23 4.3 39.8 -76.3 -3.004
15:17 1015 29.97 844 24.92 27.2 81 23 4.5 40.1 -76.2 -3
15:18 1015 29.97 844 24.92 27.3 81.1 23 4.5 40.1 -76.2 -3
15:19 1015 29.97 844 24.92 27.3 81.1 23 4.5 40.1 -76.1 -2.996
15:20 1015 29.97 844 24.92 27.3 81.2 22 4.3 39.7 -76.1 -2.996
15:21 1015 29.97 844 24.92 27.4 81.2 23 4.4 40 -76.1 -2.996
15:22 1015 29.97 844 24.92 27.4 81.2 19 2 35.7 -76.1 -2.996
15:23 1015 29.97 844 24.92 27.4 81.3 21 3.1 37.6 -76 -2.992
15:24 1015 29.97 844 24.92 27.4 81.4 20 2.9 37.2 -76 -2.992
15:25 1015 29.97 844 24.92 27.5 81.5 20 2.8 37.1 -75.9 -2.988
15:26 1015 29.97 844 24.92 27.5 81.5 18 1.6 34.8 -75.9 -2.988
15:27 1015 29.97 844 24.92 27.4 81.3 20 2.9 37.3 -75.9 -2.988
15:28 1015 29.97 844 24.92 27.4 81.3 20 3.1 37.5 -75.9 -2.988
15:29 1015 29.97 844 24.92 27.4 81.3 21 3.2 37.7 -75.8 -2.984
15:30 1015 29.97 844 24.92 27.5 81.4 19 1.8 35.2 -75.8 -2.984
15:31 1015 29.97 844 24.92 27.6 81.6 22 4.1 39.4 -75.8 -2.984
15:32 1015 29.97 844 24.92 27.6 81.7 21 3.6 38.4 -75.7 -2.98
15:33 1015 29.97 844 24.92 27.7 81.8 22 4.6 40.3 -75.7 -2.98
15:34 1015 29.97 844 24.92 27.7 81.8 20 3.3 38 -75.7 -2.98
15:35 1014 29.94 844 24.92 27.7 81.8 21 3.7 38.7 -75.7 -2.98
15:36 1015 29.97 844 24.92 27.7 81.8 20 2.9 37.2 -75.6 -2.976
15:37 1014 29.94 844 24.92 27.7 81.9 19 2.3 36.1 -75.6 -2.976
15:38 1014 29.94 844 24.92 27.7 81.9 18 1.5 34.6 -75.6 -2.976
15:39 1014 29.94 844 24.92 27.7 81.8 20 3.3 37.9 -75.6 -2.976
15:40 1015 29.97 844 24.92 27.6 81.6 18 1.7 35.1 -75.6 -2.976
15:41 1015 29.97 844 24.92 27.5 81.6 19 2.5 36.5 -75.5 -2.972
15:42 1014 29.94 844 24.92 27.5 81.5 19 2.2 35.9 -75.5 -2.972
15:43 1014 29.94 844 24.92 27.5 81.5 20 2.9 37.2 -75.5 -2.972
15:44 1014 29.94 844 24.92 27.5 81.5 23 5.1 41.2 -75.4 -2.969
15:45 1014 29.94 844 24.92 27.5 81.4 19 2.2 36 -75.4 -2.969
15:46 1014 29.94 844 24.92 27.5 81.5 21 3.4 38.1 -75.4 -2.969
15:47 1014 29.94 844 24.92 27.5 81.5 20 3 37.4 -75.4 -2.969
15:48 1014 29.94 844 24.92 27.5 81.5 18 1.5 34.7 -75.4 -2.969
15:49 1014 29.94 844 24.92 27.5 81.5 21 3.3 38 -75.3 -2.965
15:50 1014 29.94 844 24.92 27.5 81.4 21 3.2 37.7 -75.3 -2.965
15:51 1014 29.94 844 24.92 27.5 81.4 19 1.9 35.5 -75.3 -2.965
15:52 1014 29.94 844 24.92 27.4 81.3 18 1 33.8 -75.3 -2.965
15:53 1014 29.94 844 24.92 27.4 81.3 17 0.9 33.5 -75.3 -2.965
15:54 1014 29.94 844 24.92 27.3 81.2 19 1.7 35.1 -75.3 -2.965
15:55 1014 29.94 844 24.92 27.3 81.2 17 0.3 32.5 -75.2 -2.961
15:56 1014 29.94 844 24.92 27.4 81.3 20 2.4 36.3 -75.2 -2.961
15:57 1014 29.94 844 24.92 27.5 81.6 17 1 33.8 -75.2 -2.961
15:58 1014 29.94 844 24.92 27.6 81.6 21 3.8 38.9 -75.2 -2.961
15:59 1014 29.94 844 24.92 27.6 81.7 18 1.4 34.6 -75.2 -2.961
16:00 1014 29.94 844 24.92 27.7 81.8 19 2.6 36.6 -75.2 -2.961
16:01 1014 29.94 844 24.92 27.7 81.8 20 3.3 37.9 -75.1 -2.957
16:02 1014 29.94 844 24.92 27.6 81.7 19 2 35.5 -75.1 -2.957
16:03 1014 29.94 843 24.89 27.6 81.7 19 2.2 35.9 -75.1 -2.957
16:04 1014 29.94 843 24.89 27.6 81.7 19 1.9 35.4 -75.1 -2.957
16:05 1014 29.94 843 24.89 27.5 81.6 17 0.3 32.6 -75 -2.953
16:06 1014 29.94 843 24.89 27.5 81.5 21 3.5 38.2 -75 -2.953
16:07 1014 29.94 843 24.89 27.5 81.5 19 1.9 35.4 -75 -2.953
16:08 1014 29.94 843 24.89 27.6 81.7 18 1.4 34.6 -75 -2.953
16:09 1014 29.94 843 24.89 27.6 81.7 16 0 32.1 -75 -2.953
16:10 1014 29.94 843 24.89 27.7 81.8 19 2.2 36 -75 -2.953
16:11 1014 29.94 843 24.89 27.7 81.9 21 3.8 38.8 -74.9 -2.949
16:12 1014 29.94 843 24.89 27.7 81.9 20 3.3 38 -74.9 -2.949
16:13 1014 29.94 843 24.89 27.8 82.1 19 2.6 36.7 -74.9 -2.949
16:14 1014 29.94 843 24.89 27.8 82 21 3.6 38.4 -74.8 -2.945
16:15 1014 29.94 843 24.89 27.8 82 16 -0.4 31.3 -74.8 -2.945
16:16 1014 29.94 843 24.89 27.6 81.7 17 0.4 32.8 -74.8 -2.945
16:17 1014 29.94 843 24.89 27.5 81.5 16 -0 32 -74.8 -2.945
16:18 1014 29.94 843 24.89 27.5 81.4 17 0.2 32.4 -74.8 -2.945
16:19 1014 29.94 843 24.89 27.4 81.3 19 2.1 35.8 -74.8 -2.945
16:20 1014 29.94 843 24.89 27.4 81.4 17 0.9 33.6 -74.8 -2.945
16:21 1014 29.94 843 24.89 27.5 81.4 16 -0.4 31.3 -74.8 -2.945
16:22 1014 29.94 843 24.89 27.4 81.3 17 0.2 32.4 -74.8 -2.945
16:23 1014 29.94 843 24.89 27.4 81.3 19 2.1 35.7 -74.7 -2.941
16:24 1014 29.94 843 24.89 27.4 81.4 16 0 32.1 -74.7 -2.941
16:25 1014 29.94 843 24.89 27.4 81.3 15 -1 30.1 -74.7 -2.941
16:26 1014 29.94 843 24.89 27.4 81.4 16 -0.2 31.6 -74.7 -2.941
16:27 1014 29.94 843 24.89 27.4 81.4 17 0.3 32.6 -74.7 -2.941
16:28 1014 29.94 843 24.89 27.4 81.3 18 1.3 34.4 -74.7 -2.941
16:29 1014 29.94 843 24.89 27.4 81.3 17 0.6 33.1 -74.6 -2.937
16:30 1014 29.94 843 24.89 27.4 81.4 16 0.1 32.2 -74.6 -2.937
16:31 1014 29.94 843 24.89 27.4 81.4 18 1.2 34.1 -74.6 -2.937
16:32 1014 29.94 843 24.89 27.5 81.5 21 3.2 37.8 -74.6 -2.937
16:33 1014 29.94 843 24.89 27.6 81.6 15 -0.7 30.8 -74.6 -2.937
16:34 1014 29.94 843 24.89 27.6 81.7 15 -1.3 29.6 -74.6 -2.937
16:35 1014 29.94 843 24.89 27.6 81.6 17 0.9 33.6 -74.6 -2.937
16:36 1014 29.94 843 24.89 27.6 81.6 16 -0.6 30.9 -74.6 -2.937
16:37 1014 29.94 843 24.89 27.5 81.5 15 -1.5 29.3 -74.6 -2.937
16:38 1014 29.94 843 24.89 27.5 81.4 20 2.6 36.7 -74.6 -2.937
16:39 1014 29.94 843 24.89 27.4 81.4 17 0.5 32.9 -74.6 -2.937
16:40 1014 29.94 843 24.89 27.5 81.4 18 1.4 34.5 -74.5 -2.933
16:41 1014 29.94 843 24.89 27.5 81.5 19 2.5 36.4 -74.5 -2.933
16:42 1014 29.94 843 24.89 27.6 81.6 15 -0.8 30.6 -74.5 -2.933
16:43 1014 29.94 843 24.89 27.6 81.7 17 0.8 33.5 -74.5 -2.933
16:44 1014 29.94 843 24.89 27.6 81.7 17 0.5 32.9 -74.5 -2.933
16:45 1014 29.94 843 24.89 27.6 81.7 17 0.6 33 -74.5 -2.933
16:46 1014 29.94 843 24.89 27.6 81.7 18 1.8 35.3 -74.5 -2.933
16:47 1014 29.94 843 24.89 27.5 81.5 16 0.1 32.2 -74.5 -2.933
16:48 1014 29.94 843 24.89 27.4 81.4 17 0.8 33.4 -74.5 -2.933
16:49 1014 29.94 843 24.89 27.4 81.4 17 0.2 32.4 -74.5 -2.933
16:50 1014 29.94 843 24.89 27.4 81.3 16 0.1 32.1 -74.5 -2.933
16:51 1014 29.94 843 24.89 27.4 81.3 17 0.7 33.3 -74.5 -2.933
16:52 1014 29.94 843 24.89 27.3 81.1 17 0.6 33 -74.5 -2.933
16:53 1014 29.94 843 24.89 27.2 80.9 20 2.2 36 -74.5 -2.933
16:54 1014 29.94 843 24.89 27 80.6 19 1.6 34.9 -74.5 -2.933
16:55 1014 29.94 843 24.89 26.9 80.4 18 0.7 33.2 -74.6 -2.937
16:56 1014 29.94 843 24.89 26.9 80.5 17 0.3 32.6 -74.6 -2.937
16:57 1014 29.94 843 24.89 27 80.6 17 0.4 32.8 -74.6 -2.937
16:58 1014 29.94 843 24.89 27.1 80.8 18 1.3 34.4 -74.6 -2.937
16:59 1014 29.94 843 24.89 27.2 81 19 2.1 35.8 -74.5 -2.933
17:00 1014 29.94 843 24.89 27.3 81.1 19 1.8 35.2 -74.5 -2.933
17:01 1014 29.94 843 24.89 27.4 81.3 19 1.8 35.3 -74.5 -2.933
17:02 1014 29.94 843 24.89 27.5 81.5 18 1.3 34.4 -74.5 -2.933
17:03 1014 29.94 843 24.89 27.6 81.6 19 2 35.6 -74.5 -2.933
17:04 1014 29.94 843 24.89 27.7 81.8 18 1.2 34.2 -74.5 -2.933
17:05 1014 29.94 843 24.89 27.7 81.9 17 0.8 33.4 -74.5 -2.933
17:06 1014 29.94 843 24.89 27.6 81.8 16 0.1 32.2 -74.6 -2.937
17:07 1014 29.94 843 24.89 27.6 81.6 18 1.4 34.6 -74.6 -2.937
17:08 1014 29.94 843 24.89 27.5 81.5 19 2.1 35.7 -74.6 -2.937
17:09 1014 29.94 843 24.89 27.5 81.4 17 0.9 33.6 -74.6 -2.937
17:10 1014 29.94 843 24.89 27.4 81.4 18 1.1 33.9 -74.6 -2.937
17:11 1014 29.94 843 24.89 27.4 81.3 17 0.5 32.9 -74.6 -2.937
17:12 1014 29.94 843 24.89 27.4 81.3 18 1.2 34.1 -74.6 -2.937
17:13 1014 29.94 843 24.89 27.4 81.3 18 0.9 33.7 -74.6 -2.937
17:14 1014 29.94 843 24.89 27.4 81.3 17 0.5 32.9 -74.5 -2.933
17:15 1014 29.94 843 24.89 27.4 81.4 17 0.5 32.8 -74.5 -2.933
17:16 1014 29.94 843 24.89 27.5 81.5 18 1.5 34.8 -74.5 -2.933
17:17 1014 29.94 843 24.89 27.6 81.7 17 0.5 32.8 -74.5 -2.933
17:18 1014 29.94 843 24.89 27.6 81.8 17 0.9 33.6 -74.5 -2.933
17:19 1014 29.94 843 24.89 27.7 81.8 17 0.3 32.6 -74.5 -2.933
17:20 1014 29.94 843 24.89 27.6 81.7 17 0.3 32.5 -74.5 -2.933
17:21 1014 29.94 843 24.89 27.6 81.7 19 2 35.6 -74.5 -2.933
17:22 1014 29.94 843 24.89 27.6 81.6 19 2 35.7 -74.4 -2.929
17:23 1014 29.94 843 24.89 27.5 81.6 19 2 35.7 -74.4 -2.929
17:24 1014 29.94 843 24.89 27.5 81.5 18 1 33.9 -74.4 -2.929
17:25 1014 29.94 843 24.89 27.5 81.5 16 0 32 -74.4 -2.929
17:26 1014 29.94 843 24.89 27.4 81.3 18 1.2 34.1 -74.4 -2.929
17:27 1014 29.94 843 24.89 27.4 81.3 19 2.2 35.9 -74.4 -2.929
17:28 1014 29.94 843 24.89 27.3 81.2 17 0.1 32.1 -74.5 -2.933
17:29 1014 29.94 843 24.89 27.3 81.1 19 1.9 35.4 -74.5 -2.933
17:30 1014 29.94 843 24.89 27.2 81 21 3.2 37.7 -74.5 -2.933
17:31 1014 29.94 843 24.89 27.1 80.8 20 2.8 37 -74.5 -2.933
17:32 1014 29.94 843 24.89 27.1 80.7 17 -0.1 31.9 -74.4 -2.929
17:33 1014 29.94 843 24.89 27.1 80.7 19 1.6 34.9 -74.4 -2.929
17:34 1014 29.94 843 24.89 27 80.6 18 0.9 33.7 -74.4 -2.929
17:35 1014 29.94 843 24.89 27 80.7 18 0.8 33.5 -74.4 -2.929
17:36 1014 29.94 843 24.89 27.1 80.7 20 2.2 36 -74.5 -2.933
17:37 1014 29.94 843 24.89 27.1 80.8 19 1.9 35.4 -74.4 -2.929
17:38 1014 29.94 843 24.89 27.1 80.8 17 0.4 32.7 -74.5 -2.933
17:39 1014 29.94 843 24.89 27.1 80.8 18 0.9 33.6 -74.5 -2.933
17:40 1014 29.94 843 24.89 27.1 80.8 20 2.3 36.1 -74.5 -2.933
17:41 1014 29.94 843 24.89 27.1 80.8 23 4.3 39.8 -74.5 -2.933
17:42 1014 29.94 843 24.89 27.1 80.8 21 3.2 37.8 -74.5 -2.933
17:43 1014 29.94 843 24.89 27.2 80.9 20 2.2 36 -74.5 -2.933
17:44 1014 29.94 843 24.89 27.1 80.9 21 3.4 38.2 -74.5 -2.933
17:45 1014 29.94 843 24.89 27.1 80.8 24 4.9 40.8 -74.5 -2.933
17:46 1014 29.94 843 24.89 27.1 80.8 20 2.2 35.9 -74.6 -2.937
17:47 1014 29.94 843 24.89 27 80.7 21 3.2 37.7 -74.6 -2.937
17:48 1014 29.94 843 24.89 26.9 80.5 19 1.6 34.8 -74.6 -2.937
17:49 1014 29.94 843 24.89 26.8 80.2 21 2.7 36.9 -74.6 -2.937
17:50 1014 29.94 843 24.89 26.7 80.1 20 2 35.6 -74.6 -2.937
17:51 1014 29.94 843 24.89 26.7 80.1 20 2.2 36 -74.7 -2.941
17:52 1014 29.94 843 24.89 26.7 80 17 0.1 32.2 -74.7 -2.941
17:53 1014 29.94 843 24.89 26.7 80.1 19 1.1 34 -74.7 -2.941
17:54 1014 29.94 843 24.89 26.8 80.2 21 2.9 37.2 -74.8 -2.945
17:55 1014 29.94 843 24.89 26.8 80.3 21 2.7 36.8 -74.8 -2.945
17:56 1013 29.91 843 24.89 26.8 80.3 20 2.3 36.2 -74.8 -2.945
17:57 1013 29.91 843 24.89 26.8 80.3 20 2.1 35.8 -74.8 -2.945
17:58 1013 29.91 843 24.89 26.9 80.4 19 1.4 34.6 -74.8 -2.945
17:59 1013 29.91 843 24.89 26.9 80.4 22 3.8 38.9 -74.9 -2.949
18:00 1013 29.91 843 24.89 26.9 80.3 20 2 35.7 -74.9 -2.949
18:01 1013 29.91 843 24.89 26.8 80.3 21 2.8 37 -75 -2.953
18:02 1013 29.91 843 24.89 26.8 80.3 19 1.9 35.4 -75 -2.953
18:03 1013 29.91 843 24.89 26.8 80.3 19 1.8 35.3 -75 -2.953
18:04 1013 29.91 843 24.89 26.8 80.3 20 1.9 35.5 -75 -2.953
18:05 1013 29.91 843 24.89 26.9 80.4 21 2.9 37.2 -75.1 -2.957
18:06 1013 29.91 843 24.89 26.8 80.3 22 3.7 38.6 -75.1 -2.957
18:07 1013 29.91 843 24.89 26.8 80.2 20 2.5 36.4 -75.2 -2.961
18:08 1013 29.91 843 24.89 26.8 80.2 19 1.4 34.5 -75.2 -2.961
18:09 1013 29.91 843 24.89 26.8 80.3 18 1 33.8 -75.2 -2.961
18:10 1013 29.91 843 24.89 26.8 80.3 19 1.3 34.4 -75.2 -2.961
18:11 1013 29.91 843 24.89 26.7 80.1 23 3.9 39.1 -75.3 -2.965
18:12 1013 29.91 843 24.89 26.5 79.7 23 4.2 39.5 -75.3 -2.965
18:13 1013 29.91 843 24.89 26.3 79.3 25 5 40.9 -75.4 -2.969
18:14 1013 29.91 843 24.89 25.9 78.7 24 3.9 39 -75.4 -2.969
18:15 1013 29.91 843 24.89 25.7 78.2 23 3.5 38.2 -75.5 -2.972
18:16 1013 29.91 843 24.89 25.5 77.9 26 4.8 40.7 -75.5 -2.972
18:17 1013 29.91 842 24.86 25.4 77.7 27 5.1 41.2 -75.6 -2.976
18:18 1013 29.91 842 24.86 25.4 77.7 25 4.4 40 -75.6 -2.976
18:19 1013 29.91 842 24.86 25.5 77.8 28 5.7 42.2 -75.6 -2.976
18:20 1013 29.91 842 24.86 25.5 78 25 4.5 40.2 -75.7 -2.98
18:21 1013 29.91 842 24.86 25.7 78.2 25 4.2 39.5 -75.7 -2.98
18:22 1013 29.91 842 24.86 25.8 78.5 27 5.7 42.3 -75.8 -2.984
18:23 1013 29.91 842 24.86 26 78.8 26 5.4 41.7 -75.8 -2.984
18:24 1013 29.91 842 24.86 26.2 79.1 24 4.4 40 -75.9 -2.988
18:25 1013 29.91 842 24.86 26.2 79.1 27 5.7 42.3 -76 -2.992
18:26 1013 29.91 842 24.86 26.1 78.9 30 7.6 45.6 -76 -2.992
18:27 1013 29.91 842 24.86 26.1 78.9 31 8 46.3 -76.1 -2.996
18:28 1013 29.91 842 24.86 26 78.8 29 7 44.6 -76.1 -2.996
18:29 1013 29.91 842 24.86 26.1 78.9 30 7.2 44.9 -76.2 -3
18:30 1013 29.91 842 24.86 26.1 79.1 29 7 44.5 -76.2 -3
18:31 1013 29.91 842 24.86 26.3 79.4 27 6.4 43.4 -76.3 -3.004
18:32 1013 29.91 842 24.86 26.4 79.5 25 4.8 40.7 -76.4 -3.008
18:33 1013 29.91 842 24.86 26.4 79.5 27 6 42.8 -76.4 -3.008
18:34 1013 29.91 842 24.86 26.2 79.2 21 2.6 36.8 -76.5 -3.012
18:35 1013 29.91 842 24.86 26.2 79.1 22 2.9 37.3 -76.6 -3.016
18:36 1013 29.91 842 24.86 26.2 79.1 23 3.7 38.7 -76.6 -3.016
18:37 1013 29.91 842 24.86 26.2 79.1 20 1.6 34.9 -76.7 -3.02
18:38 1013 29.91 842 24.86 26.2 79.2 22 3.3 38 -76.7 -3.02
18:39 1013 29.91 842 24.86 26.2 79.2 23 3.7 38.6 -76.8 -3.024
18:40 1013 29.91 842 24.86 26.2 79.2 23 3.9 39 -76.8 -3.024
18:41 1013 29.91 842 24.86 26.2 79.1 24 4.4 39.9 -76.9 -3.028
18:42 1013 29.91 842 24.86 26.1 79 24 4.3 39.7 -76.9 -3.028
18:43 1013 29.91 842 24.86 26.1 78.9 21 2.6 36.6 -76.9 -3.028
18:44 1013 29.91 842 24.86 26.1 78.9 24 4 39.2 -77 -3.031
18:45 1013 29.91 842 24.86 26.1 78.9 23 3.6 38.4 -77 -3.031
18:46 1013 29.91 842 24.86 26 78.9 24 4 39.2 -77.1 -3.035
18:47 1013 29.91 842 24.86 25.9 78.7 23 3.8 38.8 -77.1 -3.035
18:48 1013 29.91 842 24.86 25.9 78.6 22 2.6 36.7 -77.1 -3.035
18:49 1013 29.91 842 24.86 25.8 78.4 24 4 39.2 -77.2 -3.039
18:50 1013 29.91 842 24.86 25.7 78.3 24 4 39.2 -77.2 -3.039
18:51 1013 29.91 842 24.86 25.6 78.1 23 3 37.5 -77.2 -3.039
18:52 1013 29.91 842 24.86 25.6 78 23 3.2 37.8 -77.3 -3.043
18:53 1013 29.91 842 24.86 25.5 77.9 23 3.1 37.6 -77.3 -3.043
18:54 1013 29.91 842 24.86 25.5 77.8 23 3.3 37.9 -77.4 -3.047
18:55 1013 29.91 842 24.86 25.4 77.8 24 3.7 38.6 -77.4 -3.047
18:56 1013 29.91 842 24.86 25.4 77.7 24 3.7 38.6 -77.4 -3.047
18:57 1013 29.91 842 24.86 25.4 77.6 24 3.4 38.1 -77.5 -3.051
18:58 1013 29.91 842 24.86 25.4 77.6 22 2.5 36.5 -77.5 -3.051
18:59 1013 29.91 842 24.86 25.3 77.5 23 2.9 37.3 -77.5 -3.051
19:00 1013 29.91 842 24.86 25.2 77.3 23 2.9 37.2 -77.6 -3.055
19:01 1013 29.91 842 24.86 25.1 77.2 23 3.1 37.5 -77.6 -3.055
19:02 1013 29.91 842 24.86 25 77.1 22 2.2 35.9 -77.7 -3.059
19:03 1013 29.91 842 24.86 24.9 76.9 23 2.7 36.8 -77.7 -3.059
19:04 1013 29.91 842 24.86 24.8 76.6 24 3.3 37.9 -77.8 -3.063
19:05 1013 29.91 842 24.86 24.6 76.2 25 3.5 38.3 -77.8 -3.063
19:06 1013 29.91 842 24.86 24.3 75.7 26 3.7 38.7 -77.9 -3.067
19:07 1013 29.91 842 24.86 23.9 75.1 26 3.4 38.2 -77.9 -3.067
19:08 1013 29.91 842 24.86 23.7 74.7 26 3.2 37.8 -78 -3.071
19:09 1013 29.91 842 24.86 23.6 74.4 25 2.8 37 -78.1 -3.075
19:10 1013 29.91 842 24.86 23.5 74.2 25 2.8 37.1 -78.1 -3.075
19:11 1013 29.91 842 24.86 23.4 74.2 25 2.7 36.9 -78.2 -3.079
19:12 1013 29.91 842 24.86 23.4 74.1 26 2.8 37 -78.3 -3.083
19:13 1013 29.91 842 24.86 23.3 74 25 2.4 36.3 -78.3 -3.083
19:14 1013 29.91 842 24.86 23.3 73.9 25 2.6 36.7 -78.4 -3.087
19:15 1013 29.91 842 24.86 23.3 73.9 25 2.5 36.5 -78.5 -3.091
19:16 1013 29.91 842 24.86 23.3 73.9 25 2.5 36.6 -78.6 -3.094
19:17 1013 29.91 842 24.86 23.2 73.7 25 2.3 36.1 -78.7 -3.098
19:18 1013 29.91 842 24.86 23.2 73.8 26 2.7 36.8 -78.8 -3.102
19:19 1013 29.91 842 24.86 23.2 73.7 25 2.5 36.6 -78.8 -3.102
19:20 1013 29.91 842 24.86 23.2 73.7 26 2.6 36.6 -78.9 -3.106
19:21 1013 29.91 842 24.86 23.1 73.5 25 2.4 36.4 -79 -3.11
19:22 1013 29.91 842 24.86 23 73.5 25 2.2 36 -79.1 -3.114
19:23 1013 29.91 842 24.86 23 73.4 25 2.1 35.8 -79.2 -3.118
19:24 1013 29.91 842 24.86 23 73.3 26 2.6 36.6 -79.3 -3.122
19:25 1013 29.91 842 24.86 22.9 73.3 26 2.5 36.5 -79.4 -3.126
19:26 1013 29.91 842 24.86 22.9 73.2 25 2.2 36 -79.4 -3.126
19:27 1013 29.91 842 24.86 23 73.3 25 2.1 35.8 -79.5 -3.13
19:28 1013 29.91 842 24.86 23 73.5 25 2.3 36.1 -79.6 -3.134
19:29 1013 29.91 842 24.86 23 73.5 26 2.5 36.5 -79.7 -3.138
19:30 1013 29.91 842 24.86 23 73.3 26 2.5 36.5 -79.8 -3.142
19:31 1013 29.91 842